<?xml version='1.0' encoding='UTF-8'?>
<gpx version="1.1" creator="https://www.komoot.de" xmlns="http://www.topografix.com/GPX/1/1" xmlns:xsi="http://www.w3.org/2001/XMLSchema-instance" xsi:schemaLocation="http://www.topografix.com/GPX/1/1 http://www.topografix.com/GPX/1/1/gpx.xsd">
  <metadata>
    <name>Schriesheim - Weißer Stein - Heidelberg</name>
    <author>
      <link href="https://www.komoot.de">
        <text>komoot</text>
        <type>text/html</type>
      </link>
    </author>
  </metadata>
  <trk>
    <name>Schriesheim - Weißer Stein - Heidelberg</name>
    <trkseg>
      <trkpt lat="49.474537" lon="8.669539">
        <ele>199.972855</ele>
        <time>2018-10-21T09:43:33.000Z</time>
      </trkpt>
      <trkpt lat="49.474632" lon="8.669583">
        <ele>199.972855</ele>
        <time>2018-10-21T09:43:51.000Z</time>
      </trkpt>
      <trkpt lat="49.474663" lon="8.669724">
        <ele>199.972855</ele>
        <time>2018-10-21T09:44:06.000Z</time>
      </trkpt>
      <trkpt lat="49.474697" lon="8.669870">
        <ele>199.972855</ele>
        <time>2018-10-21T09:44:13.000Z</time>
      </trkpt>
      <trkpt lat="49.474630" lon="8.670009">
        <ele>199.972855</ele>
        <time>2018-10-21T09:44:28.000Z</time>
      </trkpt>
      <trkpt lat="49.474567" lon="8.670115">
        <ele>199.972855</ele>
        <time>2018-10-21T09:44:50.000Z</time>
      </trkpt>
      <trkpt lat="49.474530" lon="8.670243">
        <ele>199.972855</ele>
        <time>2018-10-21T09:44:59.000Z</time>
      </trkpt>
      <trkpt lat="49.474510" lon="8.670380">
        <ele>199.972855</ele>
        <time>2018-10-21T09:45:15.000Z</time>
      </trkpt>
      <trkpt lat="49.474550" lon="8.670508">
        <ele>199.972855</ele>
        <time>2018-10-21T09:45:27.000Z</time>
      </trkpt>
      <trkpt lat="49.474580" lon="8.670644">
        <ele>199.972855</ele>
        <time>2018-10-21T09:45:35.000Z</time>
      </trkpt>
      <trkpt lat="49.474636" lon="8.670754">
        <ele>200.366017</ele>
        <time>2018-10-21T09:45:43.000Z</time>
      </trkpt>
      <trkpt lat="49.474667" lon="8.670890">
        <ele>200.961078</ele>
        <time>2018-10-21T09:45:50.000Z</time>
      </trkpt>
      <trkpt lat="49.474580" lon="8.670959">
        <ele>201.582972</ele>
        <time>2018-10-21T09:46:03.000Z</time>
      </trkpt>
      <trkpt lat="49.474503" lon="8.670865">
        <ele>202.207475</ele>
        <time>2018-10-21T09:46:11.000Z</time>
      </trkpt>
      <trkpt lat="49.474434" lon="8.670776">
        <ele>202.779533</ele>
        <time>2018-10-21T09:46:21.000Z</time>
      </trkpt>
      <trkpt lat="49.474426" lon="8.670625">
        <ele>203.405050</ele>
        <time>2018-10-21T09:46:30.000Z</time>
      </trkpt>
      <trkpt lat="49.474360" lon="8.670498">
        <ele>204.076482</ele>
        <time>2018-10-21T09:46:37.000Z</time>
      </trkpt>
      <trkpt lat="49.474360" lon="8.670348">
        <ele>204.695802</ele>
        <time>2018-10-21T09:46:45.000Z</time>
      </trkpt>
      <trkpt lat="49.474365" lon="8.670201">
        <ele>205.303567</ele>
        <time>2018-10-21T09:46:56.000Z</time>
      </trkpt>
      <trkpt lat="49.474300" lon="8.670085">
        <ele>205.935995</ele>
        <time>2018-10-21T09:47:07.000Z</time>
      </trkpt>
      <trkpt lat="49.474255" lon="8.669960">
        <ele>206.526011</ele>
        <time>2018-10-21T09:47:16.000Z</time>
      </trkpt>
      <trkpt lat="49.474163" lon="8.670035">
        <ele>207.187537</ele>
        <time>2018-10-21T09:47:34.000Z</time>
      </trkpt>
      <trkpt lat="49.474087" lon="8.670125">
        <ele>207.796867</ele>
        <time>2018-10-21T09:47:44.000Z</time>
      </trkpt>
      <trkpt lat="49.474026" lon="8.670232">
        <ele>208.384580</ele>
        <time>2018-10-21T09:47:53.000Z</time>
      </trkpt>
      <trkpt lat="49.474087" lon="8.670337">
        <ele>208.966111</ele>
        <time>2018-10-21T09:48:05.000Z</time>
      </trkpt>
      <trkpt lat="49.474087" lon="8.670484">
        <ele>209.573048</ele>
        <time>2018-10-21T09:48:24.000Z</time>
      </trkpt>
      <trkpt lat="49.474102" lon="8.670622">
        <ele>210.150742</ele>
        <time>2018-10-21T09:48:42.000Z</time>
      </trkpt>
      <trkpt lat="49.474163" lon="8.670736">
        <ele>210.760477</ele>
        <time>2018-10-21T09:48:52.000Z</time>
      </trkpt>
      <trkpt lat="49.474160" lon="8.670878">
        <ele>211.347079</ele>
        <time>2018-10-21T09:49:00.000Z</time>
      </trkpt>
      <trkpt lat="49.474182" lon="8.671025">
        <ele>212.367747</ele>
        <time>2018-10-21T09:49:12.000Z</time>
      </trkpt>
      <trkpt lat="49.474240" lon="8.671142">
        <ele>213.387872</ele>
        <time>2018-10-21T09:49:21.000Z</time>
      </trkpt>
      <trkpt lat="49.474290" lon="8.671267">
        <ele>214.416855</ele>
        <time>2018-10-21T09:49:34.000Z</time>
      </trkpt>
      <trkpt lat="49.474360" lon="8.671381">
        <ele>215.510024</ele>
        <time>2018-10-21T09:49:43.000Z</time>
      </trkpt>
      <trkpt lat="49.474410" lon="8.671509">
        <ele>216.544960</ele>
        <time>2018-10-21T09:49:51.000Z</time>
      </trkpt>
      <trkpt lat="49.474470" lon="8.671623">
        <ele>217.567435</ele>
        <time>2018-10-21T09:49:58.000Z</time>
      </trkpt>
      <trkpt lat="49.474514" lon="8.671746">
        <ele>218.546019</ele>
        <time>2018-10-21T09:50:05.000Z</time>
      </trkpt>
      <trkpt lat="49.474580" lon="8.671850">
        <ele>219.559199</ele>
        <time>2018-10-21T09:50:14.000Z</time>
      </trkpt>
      <trkpt lat="49.474613" lon="8.671990">
        <ele>220.597158</ele>
        <time>2018-10-21T09:50:21.000Z</time>
      </trkpt>
      <trkpt lat="49.474606" lon="8.672142">
        <ele>221.659192</ele>
        <time>2018-10-21T09:50:31.000Z</time>
      </trkpt>
      <trkpt lat="49.474600" lon="8.672290">
        <ele>222.692696</ele>
        <time>2018-10-21T09:50:39.000Z</time>
      </trkpt>
      <trkpt lat="49.474550" lon="8.672415">
        <ele>223.715733</ele>
        <time>2018-10-21T09:50:48.000Z</time>
      </trkpt>
      <trkpt lat="49.474480" lon="8.672525">
        <ele>224.788808</ele>
        <time>2018-10-21T09:50:56.000Z</time>
      </trkpt>
      <trkpt lat="49.474410" lon="8.672620">
        <ele>225.789869</ele>
        <time>2018-10-21T09:51:02.000Z</time>
      </trkpt>
      <trkpt lat="49.474335" lon="8.672693">
        <ele>226.741708</ele>
        <time>2018-10-21T09:51:09.000Z</time>
      </trkpt>
      <trkpt lat="49.474280" lon="8.672809">
        <ele>227.742533</ele>
        <time>2018-10-21T09:51:16.000Z</time>
      </trkpt>
      <trkpt lat="49.474230" lon="8.672925">
        <ele>228.712715</ele>
        <time>2018-10-21T09:51:24.000Z</time>
      </trkpt>
      <trkpt lat="49.474250" lon="8.673060">
        <ele>229.677761</ele>
        <time>2018-10-21T09:51:29.000Z</time>
      </trkpt>
      <trkpt lat="49.474293" lon="8.673185">
        <ele>230.663518</ele>
        <time>2018-10-21T09:51:35.000Z</time>
      </trkpt>
      <trkpt lat="49.474365" lon="8.673285">
        <ele>231.884612</ele>
        <time>2018-10-21T09:51:42.000Z</time>
      </trkpt>
      <trkpt lat="49.474350" lon="8.673430">
        <ele>233.091144</ele>
        <time>2018-10-21T09:51:50.000Z</time>
      </trkpt>
      <trkpt lat="49.474327" lon="8.673582">
        <ele>234.373612</ele>
        <time>2018-10-21T09:51:56.000Z</time>
      </trkpt>
      <trkpt lat="49.474323" lon="8.673745">
        <ele>235.714007</ele>
        <time>2018-10-21T09:52:01.000Z</time>
      </trkpt>
      <trkpt lat="49.474350" lon="8.673902">
        <ele>237.048563</ele>
        <time>2018-10-21T09:52:09.000Z</time>
      </trkpt>
      <trkpt lat="49.474365" lon="8.674040">
        <ele>238.198323</ele>
        <time>2018-10-21T09:52:13.000Z</time>
      </trkpt>
      <trkpt lat="49.474430" lon="8.674149">
        <ele>239.414043</ele>
        <time>2018-10-21T09:52:28.000Z</time>
      </trkpt>
      <trkpt lat="49.474472" lon="8.674287">
        <ele>240.666271</ele>
        <time>2018-10-21T09:52:37.000Z</time>
      </trkpt>
      <trkpt lat="49.474470" lon="8.674437">
        <ele>241.899141</ele>
        <time>2018-10-21T09:52:46.000Z</time>
      </trkpt>
      <trkpt lat="49.474457" lon="8.674586">
        <ele>243.134522</ele>
        <time>2018-10-21T09:52:56.000Z</time>
      </trkpt>
      <trkpt lat="49.474420" lon="8.674724">
        <ele>244.361268</ele>
        <time>2018-10-21T09:53:04.000Z</time>
      </trkpt>
      <trkpt lat="49.474354" lon="8.674842">
        <ele>245.640674</ele>
        <time>2018-10-21T09:53:12.000Z</time>
      </trkpt>
      <trkpt lat="49.474274" lon="8.674913">
        <ele>246.808555</ele>
        <time>2018-10-21T09:53:20.000Z</time>
      </trkpt>
      <trkpt lat="49.474194" lon="8.674978">
        <ele>247.952603</ele>
        <time>2018-10-21T09:53:27.000Z</time>
      </trkpt>
      <trkpt lat="49.474180" lon="8.674837">
        <ele>249.124712</ele>
        <time>2018-10-21T09:53:47.000Z</time>
      </trkpt>
      <trkpt lat="49.474247" lon="8.674740">
        <ele>250.288016</ele>
        <time>2018-10-21T09:53:53.000Z</time>
      </trkpt>
      <trkpt lat="49.474247" lon="8.674600">
        <ele>251.438458</ele>
        <time>2018-10-21T09:54:00.000Z</time>
      </trkpt>
      <trkpt lat="49.474228" lon="8.674461">
        <ele>252.605681</ele>
        <time>2018-10-21T09:54:12.000Z</time>
      </trkpt>
      <trkpt lat="49.474213" lon="8.674316">
        <ele>253.924589</ele>
        <time>2018-10-21T09:54:21.000Z</time>
      </trkpt>
      <trkpt lat="49.474136" lon="8.674243">
        <ele>255.413562</ele>
        <time>2018-10-21T09:54:27.000Z</time>
      </trkpt>
      <trkpt lat="49.474060" lon="8.674160">
        <ele>256.947874</ele>
        <time>2018-10-21T09:54:34.000Z</time>
      </trkpt>
      <trkpt lat="49.474003" lon="8.674044">
        <ele>258.503747</ele>
        <time>2018-10-21T09:54:42.000Z</time>
      </trkpt>
      <trkpt lat="49.473940" lon="8.673940">
        <ele>260.024851</ele>
        <time>2018-10-21T09:54:50.000Z</time>
      </trkpt>
      <trkpt lat="49.473890" lon="8.673812">
        <ele>261.622610</ele>
        <time>2018-10-21T09:55:00.000Z</time>
      </trkpt>
      <trkpt lat="49.473860" lon="8.673662">
        <ele>263.291413</ele>
        <time>2018-10-21T09:55:07.000Z</time>
      </trkpt>
      <trkpt lat="49.473820" lon="8.673525">
        <ele>264.907992</ele>
        <time>2018-10-21T09:55:16.000Z</time>
      </trkpt>
      <trkpt lat="49.473743" lon="8.673430">
        <ele>266.526150</ele>
        <time>2018-10-21T09:55:24.000Z</time>
      </trkpt>
      <trkpt lat="49.473698" lon="8.673310">
        <ele>268.008385</ele>
        <time>2018-10-21T09:55:32.000Z</time>
      </trkpt>
      <trkpt lat="49.473606" lon="8.673314">
        <ele>269.523677</ele>
        <time>2018-10-21T09:55:39.000Z</time>
      </trkpt>
      <trkpt lat="49.473570" lon="8.673450">
        <ele>271.094736</ele>
        <time>2018-10-21T09:55:56.000Z</time>
      </trkpt>
      <trkpt lat="49.473500" lon="8.673542">
        <ele>272.610303</ele>
        <time>2018-10-21T09:56:05.000Z</time>
      </trkpt>
      <trkpt lat="49.473434" lon="8.673653">
        <ele>274.219942</ele>
        <time>2018-10-21T09:56:15.000Z</time>
      </trkpt>
      <trkpt lat="49.473385" lon="8.673774">
        <ele>275.745244</ele>
        <time>2018-10-21T09:56:25.000Z</time>
      </trkpt>
      <trkpt lat="49.473360" lon="8.673907">
        <ele>277.226458</ele>
        <time>2018-10-21T09:56:35.000Z</time>
      </trkpt>
      <trkpt lat="49.473330" lon="8.674049">
        <ele>278.823898</ele>
        <time>2018-10-21T09:56:44.000Z</time>
      </trkpt>
      <trkpt lat="49.473270" lon="8.674164">
        <ele>280.401710</ele>
        <time>2018-10-21T09:56:53.000Z</time>
      </trkpt>
      <trkpt lat="49.473198" lon="8.674273">
        <ele>282.064548</ele>
        <time>2018-10-21T09:57:03.000Z</time>
      </trkpt>
      <trkpt lat="49.473130" lon="8.674366">
        <ele>283.655680</ele>
        <time>2018-10-21T09:57:13.000Z</time>
      </trkpt>
      <trkpt lat="49.473030" lon="8.674374">
        <ele>285.606402</ele>
        <time>2018-10-21T09:57:19.000Z</time>
      </trkpt>
      <trkpt lat="49.473026" lon="8.674512">
        <ele>287.355056</ele>
        <time>2018-10-21T09:57:44.000Z</time>
      </trkpt>
      <trkpt lat="49.472930" lon="8.674518">
        <ele>289.226767</ele>
        <time>2018-10-21T09:59:04.000Z</time>
      </trkpt>
      <trkpt lat="49.472840" lon="8.674538">
        <ele>290.998235</ele>
        <time>2018-10-21T09:59:15.000Z</time>
      </trkpt>
      <trkpt lat="49.472748" lon="8.674559">
        <ele>292.810088</ele>
        <time>2018-10-21T09:59:30.000Z</time>
      </trkpt>
      <trkpt lat="49.472660" lon="8.674611">
        <ele>294.646445</ele>
        <time>2018-10-21T09:59:41.000Z</time>
      </trkpt>
      <trkpt lat="49.472553" lon="8.674589">
        <ele>296.749426</ele>
        <time>2018-10-21T10:01:09.000Z</time>
      </trkpt>
      <trkpt lat="49.472460" lon="8.674598">
        <ele>298.564731</ele>
        <time>2018-10-21T10:01:18.000Z</time>
      </trkpt>
      <trkpt lat="49.472370" lon="8.674647">
        <ele>300.424505</ele>
        <time>2018-10-21T10:01:26.000Z</time>
      </trkpt>
      <trkpt lat="49.472280" lon="8.674704">
        <ele>302.320463</ele>
        <time>2018-10-21T10:01:37.000Z</time>
      </trkpt>
      <trkpt lat="49.472190" lon="8.674745">
        <ele>304.145402</ele>
        <time>2018-10-21T10:01:46.000Z</time>
      </trkpt>
      <trkpt lat="49.472103" lon="8.674790">
        <ele>305.937489</ele>
        <time>2018-10-21T10:02:05.000Z</time>
      </trkpt>
      <trkpt lat="49.472030" lon="8.674870">
        <ele>307.683342</ele>
        <time>2018-10-21T10:02:21.000Z</time>
      </trkpt>
      <trkpt lat="49.471960" lon="8.674956">
        <ele>309.420410</ele>
        <time>2018-10-21T10:02:31.000Z</time>
      </trkpt>
      <trkpt lat="49.471893" lon="8.675067">
        <ele>311.347536</ele>
        <time>2018-10-21T10:02:47.000Z</time>
      </trkpt>
      <trkpt lat="49.471813" lon="8.675136">
        <ele>313.134099</ele>
        <time>2018-10-21T10:03:09.000Z</time>
      </trkpt>
      <trkpt lat="49.471720" lon="8.675042">
        <ele>315.301668</ele>
        <time>2018-10-21T10:03:12.000Z</time>
      </trkpt>
      <trkpt lat="49.471620" lon="8.675051">
        <ele>317.253089</ele>
        <time>2018-10-21T10:03:20.000Z</time>
      </trkpt>
      <trkpt lat="49.471714" lon="8.675091">
        <ele>319.159461</ele>
        <time>2018-10-21T10:03:24.000Z</time>
      </trkpt>
      <trkpt lat="49.471806" lon="8.675099">
        <ele>320.965470</ele>
        <time>2018-10-21T10:03:58.000Z</time>
      </trkpt>
      <trkpt lat="49.471767" lon="8.675231">
        <ele>322.812237</ele>
        <time>2018-10-21T10:04:12.000Z</time>
      </trkpt>
      <trkpt lat="49.471810" lon="8.675367">
        <ele>324.738486</ele>
        <time>2018-10-21T10:04:48.000Z</time>
      </trkpt>
      <trkpt lat="49.471900" lon="8.675384">
        <ele>326.515657</ele>
        <time>2018-10-21T10:04:58.000Z</time>
      </trkpt>
      <trkpt lat="49.471990" lon="8.675446">
        <ele>328.448266</ele>
        <time>2018-10-21T10:05:07.000Z</time>
      </trkpt>
      <trkpt lat="49.472023" lon="8.675579">
        <ele>330.261431</ele>
        <time>2018-10-21T10:05:17.000Z</time>
      </trkpt>
      <trkpt lat="49.472023" lon="8.675722">
        <ele>332.082675</ele>
        <time>2018-10-21T10:05:34.000Z</time>
      </trkpt>
      <trkpt lat="49.472004" lon="8.675859">
        <ele>333.866800</ele>
        <time>2018-10-21T10:05:50.000Z</time>
      </trkpt>
      <trkpt lat="49.471950" lon="8.675994">
        <ele>335.885789</ele>
        <time>2018-10-21T10:06:01.000Z</time>
      </trkpt>
      <trkpt lat="49.471897" lon="8.676117">
        <ele>337.765426</ele>
        <time>2018-10-21T10:06:10.000Z</time>
      </trkpt>
      <trkpt lat="49.471830" lon="8.676204">
        <ele>339.483594</ele>
        <time>2018-10-21T10:06:20.000Z</time>
      </trkpt>
      <trkpt lat="49.471867" lon="8.676052">
        <ele>341.562767</ele>
        <time>2018-10-21T10:07:00.000Z</time>
      </trkpt>
      <trkpt lat="49.471830" lon="8.675924">
        <ele>343.335364</ele>
        <time>2018-10-21T10:07:14.000Z</time>
      </trkpt>
      <trkpt lat="49.471740" lon="8.675953">
        <ele>345.134984</ele>
        <time>2018-10-21T10:08:10.000Z</time>
      </trkpt>
      <trkpt lat="49.471676" lon="8.676050">
        <ele>346.895554</ele>
        <time>2018-10-21T10:08:32.000Z</time>
      </trkpt>
      <trkpt lat="49.471622" lon="8.676164">
        <ele>348.702574</ele>
        <time>2018-10-21T10:08:51.000Z</time>
      </trkpt>
      <trkpt lat="49.471596" lon="8.676309">
        <ele>350.606048</ele>
        <time>2018-10-21T10:09:07.000Z</time>
      </trkpt>
      <trkpt lat="49.471546" lon="8.676436">
        <ele>352.497233</ele>
        <time>2018-10-21T10:09:16.000Z</time>
      </trkpt>
      <trkpt lat="49.471474" lon="8.676550">
        <ele>354.041432</ele>
        <time>2018-10-21T10:09:25.000Z</time>
      </trkpt>
      <trkpt lat="49.471443" lon="8.676745">
        <ele>355.555136</ele>
        <time>2018-10-21T10:09:55.000Z</time>
      </trkpt>
      <trkpt lat="49.471370" lon="8.676859">
        <ele>356.767327</ele>
        <time>2018-10-21T10:10:47.000Z</time>
      </trkpt>
      <trkpt lat="49.471230" lon="8.676857">
        <ele>358.391879</ele>
        <time>2018-10-21T10:11:19.000Z</time>
      </trkpt>
      <trkpt lat="49.471325" lon="8.676890">
        <ele>359.521941</ele>
        <time>2018-10-21T10:12:07.000Z</time>
      </trkpt>
      <trkpt lat="49.471367" lon="8.677047">
        <ele>360.795179</ele>
        <time>2018-10-21T10:12:24.000Z</time>
      </trkpt>
      <trkpt lat="49.471375" lon="8.677185">
        <ele>361.839864</ele>
        <time>2018-10-21T10:12:39.000Z</time>
      </trkpt>
      <trkpt lat="49.471375" lon="8.677322">
        <ele>362.880417</ele>
        <time>2018-10-21T10:12:53.000Z</time>
      </trkpt>
      <trkpt lat="49.471363" lon="8.677477">
        <ele>364.049933</ele>
        <time>2018-10-21T10:13:03.000Z</time>
      </trkpt>
      <trkpt lat="49.471386" lon="8.677628">
        <ele>365.226711</ele>
        <time>2018-10-21T10:13:10.000Z</time>
      </trkpt>
      <trkpt lat="49.471375" lon="8.677768">
        <ele>366.290033</ele>
        <time>2018-10-21T10:13:17.000Z</time>
      </trkpt>
      <trkpt lat="49.471355" lon="8.677906">
        <ele>367.356151</ele>
        <time>2018-10-21T10:13:24.000Z</time>
      </trkpt>
      <trkpt lat="49.471336" lon="8.678065">
        <ele>368.567737</ele>
        <time>2018-10-21T10:13:32.000Z</time>
      </trkpt>
      <trkpt lat="49.471320" lon="8.678212">
        <ele>369.699031</ele>
        <time>2018-10-21T10:13:40.000Z</time>
      </trkpt>
      <trkpt lat="49.471313" lon="8.678357">
        <ele>370.795380</ele>
        <time>2018-10-21T10:13:49.000Z</time>
      </trkpt>
      <trkpt lat="49.471348" lon="8.678488">
        <ele>371.863382</ele>
        <time>2018-10-21T10:13:55.000Z</time>
      </trkpt>
      <trkpt lat="49.471325" lon="8.678635">
        <ele>372.996145</ele>
        <time>2018-10-21T10:14:02.000Z</time>
      </trkpt>
      <trkpt lat="49.471310" lon="8.678782">
        <ele>374.125593</ele>
        <time>2018-10-21T10:14:11.000Z</time>
      </trkpt>
      <trkpt lat="49.471310" lon="8.678932">
        <ele>373.381720</ele>
        <time>2018-10-21T10:14:20.000Z</time>
      </trkpt>
      <trkpt lat="49.471275" lon="8.679075">
        <ele>372.460799</ele>
        <time>2018-10-21T10:14:27.000Z</time>
      </trkpt>
      <trkpt lat="49.471256" lon="8.679219">
        <ele>371.575245</ele>
        <time>2018-10-21T10:14:35.000Z</time>
      </trkpt>
      <trkpt lat="49.471222" lon="8.679360">
        <ele>370.668861</ele>
        <time>2018-10-21T10:14:43.000Z</time>
      </trkpt>
      <trkpt lat="49.471226" lon="8.679504">
        <ele>369.800222</ele>
        <time>2018-10-21T10:14:52.000Z</time>
      </trkpt>
      <trkpt lat="49.471195" lon="8.679637">
        <ele>368.948668</ele>
        <time>2018-10-21T10:15:00.000Z</time>
      </trkpt>
      <trkpt lat="49.471165" lon="8.679769">
        <ele>368.105891</ele>
        <time>2018-10-21T10:15:08.000Z</time>
      </trkpt>
      <trkpt lat="49.471157" lon="8.679931">
        <ele>367.126748</ele>
        <time>2018-10-21T10:15:17.000Z</time>
      </trkpt>
      <trkpt lat="49.471123" lon="8.680059">
        <ele>366.293370</ele>
        <time>2018-10-21T10:15:25.000Z</time>
      </trkpt>
      <trkpt lat="49.471073" lon="8.680185">
        <ele>365.408750</ele>
        <time>2018-10-21T10:15:32.000Z</time>
      </trkpt>
      <trkpt lat="49.471027" lon="8.680318">
        <ele>364.500734</ele>
        <time>2018-10-21T10:15:40.000Z</time>
      </trkpt>
      <trkpt lat="49.470955" lon="8.680410">
        <ele>363.632797</ele>
        <time>2018-10-21T10:15:48.000Z</time>
      </trkpt>
      <trkpt lat="49.470886" lon="8.680515">
        <ele>362.732824</ele>
        <time>2018-10-21T10:15:56.000Z</time>
      </trkpt>
      <trkpt lat="49.470787" lon="8.680560">
        <ele>361.775453</ele>
        <time>2018-10-21T10:16:04.000Z</time>
      </trkpt>
      <trkpt lat="49.470710" lon="8.680655">
        <ele>360.856372</ele>
        <time>2018-10-21T10:16:13.000Z</time>
      </trkpt>
      <trkpt lat="49.470620" lon="8.680751">
        <ele>359.840772</ele>
        <time>2018-10-21T10:16:18.000Z</time>
      </trkpt>
      <trkpt lat="49.470535" lon="8.680809">
        <ele>358.978433</ele>
        <time>2018-10-21T10:16:25.000Z</time>
      </trkpt>
      <trkpt lat="49.470510" lon="8.680943">
        <ele>358.138219</ele>
        <time>2018-10-21T10:16:44.000Z</time>
      </trkpt>
      <trkpt lat="49.470444" lon="8.681046">
        <ele>357.528046</ele>
        <time>2018-10-21T10:16:51.000Z</time>
      </trkpt>
      <trkpt lat="49.470367" lon="8.681137">
        <ele>357.509796</ele>
        <time>2018-10-21T10:16:59.000Z</time>
      </trkpt>
      <trkpt lat="49.470280" lon="8.681209">
        <ele>357.491227</ele>
        <time>2018-10-21T10:17:09.000Z</time>
      </trkpt>
      <trkpt lat="49.470184" lon="8.681229">
        <ele>357.473016</ele>
        <time>2018-10-21T10:17:19.000Z</time>
      </trkpt>
      <trkpt lat="49.470097" lon="8.681259">
        <ele>357.456256</ele>
        <time>2018-10-21T10:17:27.000Z</time>
      </trkpt>
      <trkpt lat="49.470000" lon="8.681272">
        <ele>357.437953</ele>
        <time>2018-10-21T10:17:34.000Z</time>
      </trkpt>
      <trkpt lat="49.469900" lon="8.681311">
        <ele>357.418561</ele>
        <time>2018-10-21T10:17:40.000Z</time>
      </trkpt>
      <trkpt lat="49.469795" lon="8.681334">
        <ele>357.398624</ele>
        <time>2018-10-21T10:17:44.000Z</time>
      </trkpt>
      <trkpt lat="49.469707" lon="8.681377">
        <ele>357.381268</ele>
        <time>2018-10-21T10:17:52.000Z</time>
      </trkpt>
      <trkpt lat="49.469620" lon="8.681419">
        <ele>357.364128</ele>
        <time>2018-10-21T10:17:58.000Z</time>
      </trkpt>
      <trkpt lat="49.469563" lon="8.681534">
        <ele>357.346460</ele>
        <time>2018-10-21T10:18:23.000Z</time>
      </trkpt>
      <trkpt lat="49.469456" lon="8.681589">
        <ele>357.325253</ele>
        <time>2018-10-21T10:18:29.000Z</time>
      </trkpt>
      <trkpt lat="49.469364" lon="8.681594">
        <ele>357.307948</ele>
        <time>2018-10-21T10:18:42.000Z</time>
      </trkpt>
      <trkpt lat="49.469273" lon="8.681654">
        <ele>357.289338</ele>
        <time>2018-10-21T10:18:52.000Z</time>
      </trkpt>
      <trkpt lat="49.469200" lon="8.681737">
        <ele>357.272276</ele>
        <time>2018-10-21T10:18:56.000Z</time>
      </trkpt>
      <trkpt lat="49.469124" lon="8.681821">
        <ele>357.254686</ele>
        <time>2018-10-21T10:19:01.000Z</time>
      </trkpt>
      <trkpt lat="49.469040" lon="8.681895">
        <ele>357.236491</ele>
        <time>2018-10-21T10:19:09.000Z</time>
      </trkpt>
      <trkpt lat="49.468945" lon="8.681972">
        <ele>357.216308</ele>
        <time>2018-10-21T10:19:16.000Z</time>
      </trkpt>
      <trkpt lat="49.468870" lon="8.682096">
        <ele>357.195614</ele>
        <time>2018-10-21T10:19:21.000Z</time>
      </trkpt>
      <trkpt lat="49.468800" lon="8.682206">
        <ele>357.049702</ele>
        <time>2018-10-21T10:19:25.000Z</time>
      </trkpt>
      <trkpt lat="49.468740" lon="8.682312">
        <ele>356.914826</ele>
        <time>2018-10-21T10:19:33.000Z</time>
      </trkpt>
      <trkpt lat="49.468674" lon="8.682410">
        <ele>356.779412</ele>
        <time>2018-10-21T10:19:40.000Z</time>
      </trkpt>
      <trkpt lat="49.468616" lon="8.682521">
        <ele>356.642753</ele>
        <time>2018-10-21T10:19:45.000Z</time>
      </trkpt>
      <trkpt lat="49.468582" lon="8.682661">
        <ele>356.499351</ele>
        <time>2018-10-21T10:19:51.000Z</time>
      </trkpt>
      <trkpt lat="49.468540" lon="8.682794">
        <ele>356.357471</ele>
        <time>2018-10-21T10:19:56.000Z</time>
      </trkpt>
      <trkpt lat="49.468464" lon="8.682907">
        <ele>356.201439</ele>
        <time>2018-10-21T10:20:02.000Z</time>
      </trkpt>
      <trkpt lat="49.468400" lon="8.683012">
        <ele>356.063314</ele>
        <time>2018-10-21T10:20:09.000Z</time>
      </trkpt>
      <trkpt lat="49.468346" lon="8.683130">
        <ele>355.924839</ele>
        <time>2018-10-21T10:20:14.000Z</time>
      </trkpt>
      <trkpt lat="49.468315" lon="8.683266">
        <ele>355.786555</ele>
        <time>2018-10-21T10:20:24.000Z</time>
      </trkpt>
      <trkpt lat="49.468327" lon="8.683414">
        <ele>355.643449</ele>
        <time>2018-10-21T10:20:31.000Z</time>
      </trkpt>
      <trkpt lat="49.468315" lon="8.683564">
        <ele>355.498439</ele>
        <time>2018-10-21T10:20:37.000Z</time>
      </trkpt>
      <trkpt lat="49.468327" lon="8.683721">
        <ele>355.346761</ele>
        <time>2018-10-21T10:20:45.000Z</time>
      </trkpt>
      <trkpt lat="49.468307" lon="8.683872">
        <ele>355.198900</ele>
        <time>2018-10-21T10:20:52.000Z</time>
      </trkpt>
      <trkpt lat="49.468300" lon="8.684019">
        <ele>355.057477</ele>
        <time>2018-10-21T10:20:59.000Z</time>
      </trkpt>
      <trkpt lat="49.468246" lon="8.684224">
        <ele>354.845237</ele>
        <time>2018-10-21T10:21:08.000Z</time>
      </trkpt>
      <trkpt lat="49.468136" lon="8.684274">
        <ele>354.675892</ele>
        <time>2018-10-21T10:21:14.000Z</time>
      </trkpt>
      <trkpt lat="49.468040" lon="8.684296">
        <ele>354.588265</ele>
        <time>2018-10-21T10:21:19.000Z</time>
      </trkpt>
      <trkpt lat="49.467945" lon="8.684336">
        <ele>355.570836</ele>
        <time>2018-10-21T10:21:27.000Z</time>
      </trkpt>
      <trkpt lat="49.467842" lon="8.684372">
        <ele>356.624550</ele>
        <time>2018-10-21T10:21:37.000Z</time>
      </trkpt>
      <trkpt lat="49.467747" lon="8.684322">
        <ele>357.626186</ele>
        <time>2018-10-21T10:22:00.000Z</time>
      </trkpt>
      <trkpt lat="49.467660" lon="8.684307">
        <ele>358.499540</ele>
        <time>2018-10-21T10:22:07.000Z</time>
      </trkpt>
      <trkpt lat="49.467564" lon="8.684293">
        <ele>359.461539</ele>
        <time>2018-10-21T10:22:16.000Z</time>
      </trkpt>
      <trkpt lat="49.467460" lon="8.684318">
        <ele>360.511639</ele>
        <time>2018-10-21T10:22:24.000Z</time>
      </trkpt>
      <trkpt lat="49.467346" lon="8.684339">
        <ele>361.657037</ele>
        <time>2018-10-21T10:22:29.000Z</time>
      </trkpt>
      <trkpt lat="49.467255" lon="8.684351">
        <ele>362.568191</ele>
        <time>2018-10-21T10:22:40.000Z</time>
      </trkpt>
      <trkpt lat="49.467167" lon="8.684405">
        <ele>363.513324</ele>
        <time>2018-10-21T10:22:46.000Z</time>
      </trkpt>
      <trkpt lat="49.467100" lon="8.684504">
        <ele>364.440000</ele>
        <time>2018-10-21T10:22:57.000Z</time>
      </trkpt>
      <trkpt lat="49.467020" lon="8.684574">
        <ele>365.358102</ele>
        <time>2018-10-21T10:23:08.000Z</time>
      </trkpt>
      <trkpt lat="49.466984" lon="8.684706">
        <ele>366.286205</ele>
        <time>2018-10-21T10:23:21.000Z</time>
      </trkpt>
      <trkpt lat="49.466938" lon="8.684829">
        <ele>367.206270</ele>
        <time>2018-10-21T10:23:29.000Z</time>
      </trkpt>
      <trkpt lat="49.466873" lon="8.684922">
        <ele>368.091728</ele>
        <time>2018-10-21T10:23:38.000Z</time>
      </trkpt>
      <trkpt lat="49.466797" lon="8.685007">
        <ele>369.029032</ele>
        <time>2018-10-21T10:23:43.000Z</time>
      </trkpt>
      <trkpt lat="49.466710" lon="8.685074">
        <ele>369.999589</ele>
        <time>2018-10-21T10:23:47.000Z</time>
      </trkpt>
      <trkpt lat="49.466630" lon="8.685159">
        <ele>370.969457</ele>
        <time>2018-10-21T10:23:52.000Z</time>
      </trkpt>
      <trkpt lat="49.466614" lon="8.685296">
        <ele>371.871909</ele>
        <time>2018-10-21T10:24:00.000Z</time>
      </trkpt>
      <trkpt lat="49.466570" lon="8.685428">
        <ele>372.708768</ele>
        <time>2018-10-21T10:24:10.000Z</time>
      </trkpt>
      <trkpt lat="49.466488" lon="8.685486">
        <ele>373.288106</ele>
        <time>2018-10-21T10:24:17.000Z</time>
      </trkpt>
      <trkpt lat="49.466390" lon="8.685537">
        <ele>373.952209</ele>
        <time>2018-10-21T10:24:22.000Z</time>
      </trkpt>
      <trkpt lat="49.466305" lon="8.685584">
        <ele>374.532016</ele>
        <time>2018-10-21T10:24:28.000Z</time>
      </trkpt>
      <trkpt lat="49.466210" lon="8.685611">
        <ele>375.152170</ele>
        <time>2018-10-21T10:24:39.000Z</time>
      </trkpt>
      <trkpt lat="49.466120" lon="8.685656">
        <ele>375.759649</ele>
        <time>2018-10-21T10:24:47.000Z</time>
      </trkpt>
      <trkpt lat="49.466022" lon="8.685726">
        <ele>376.453225</ele>
        <time>2018-10-21T10:24:59.000Z</time>
      </trkpt>
      <trkpt lat="49.465960" lon="8.685832">
        <ele>377.048177</ele>
        <time>2018-10-21T10:25:06.000Z</time>
      </trkpt>
      <trkpt lat="49.465885" lon="8.685911">
        <ele>377.631633</ele>
        <time>2018-10-21T10:25:15.000Z</time>
      </trkpt>
      <trkpt lat="49.465800" lon="8.685979">
        <ele>378.246621</ele>
        <time>2018-10-21T10:25:22.000Z</time>
      </trkpt>
      <trkpt lat="49.465725" lon="8.686068">
        <ele>378.854619</ele>
        <time>2018-10-21T10:25:29.000Z</time>
      </trkpt>
      <trkpt lat="49.465652" lon="8.686172">
        <ele>379.493253</ele>
        <time>2018-10-21T10:25:36.000Z</time>
      </trkpt>
      <trkpt lat="49.465590" lon="8.686295">
        <ele>380.142660</ele>
        <time>2018-10-21T10:25:44.000Z</time>
      </trkpt>
      <trkpt lat="49.465546" lon="8.686414">
        <ele>380.713848</ele>
        <time>2018-10-21T10:25:53.000Z</time>
      </trkpt>
      <trkpt lat="49.465477" lon="8.686545">
        <ele>381.417330</ele>
        <time>2018-10-21T10:25:59.000Z</time>
      </trkpt>
      <trkpt lat="49.465466" lon="8.686692">
        <ele>382.034662</ele>
        <time>2018-10-21T10:26:05.000Z</time>
      </trkpt>
      <trkpt lat="49.465466" lon="8.686844">
        <ele>382.668803</ele>
        <time>2018-10-21T10:26:11.000Z</time>
      </trkpt>
      <trkpt lat="49.465443" lon="8.686984">
        <ele>383.271253</ele>
        <time>2018-10-21T10:26:18.000Z</time>
      </trkpt>
      <trkpt lat="49.465397" lon="8.687113">
        <ele>383.885126</ele>
        <time>2018-10-21T10:26:26.000Z</time>
      </trkpt>
      <trkpt lat="49.465360" lon="8.687252">
        <ele>384.369737</ele>
        <time>2018-10-21T10:26:34.000Z</time>
      </trkpt>
      <trkpt lat="49.465300" lon="8.687366">
        <ele>384.801531</ele>
        <time>2018-10-21T10:26:42.000Z</time>
      </trkpt>
      <trkpt lat="49.465256" lon="8.687489">
        <ele>385.214803</ele>
        <time>2018-10-21T10:26:50.000Z</time>
      </trkpt>
      <trkpt lat="49.465233" lon="8.687622">
        <ele>385.619912</ele>
        <time>2018-10-21T10:26:58.000Z</time>
      </trkpt>
      <trkpt lat="49.465218" lon="8.687759">
        <ele>386.028855</ele>
        <time>2018-10-21T10:27:05.000Z</time>
      </trkpt>
      <trkpt lat="49.465220" lon="8.687912">
        <ele>386.479303</ele>
        <time>2018-10-21T10:27:16.000Z</time>
      </trkpt>
      <trkpt lat="49.465206" lon="8.688067">
        <ele>386.939932</ele>
        <time>2018-10-21T10:27:24.000Z</time>
      </trkpt>
      <trkpt lat="49.465210" lon="8.688206">
        <ele>387.349480</ele>
        <time>2018-10-21T10:27:33.000Z</time>
      </trkpt>
      <trkpt lat="49.465214" lon="8.688362">
        <ele>387.809025</ele>
        <time>2018-10-21T10:27:42.000Z</time>
      </trkpt>
      <trkpt lat="49.465237" lon="8.688509">
        <ele>388.254083</ele>
        <time>2018-10-21T10:27:49.000Z</time>
      </trkpt>
      <trkpt lat="49.465263" lon="8.688642">
        <ele>388.662897</ele>
        <time>2018-10-21T10:27:58.000Z</time>
      </trkpt>
      <trkpt lat="49.465298" lon="8.688772">
        <ele>389.077087</ele>
        <time>2018-10-21T10:28:09.000Z</time>
      </trkpt>
      <trkpt lat="49.465343" lon="8.688908">
        <ele>389.526299</ele>
        <time>2018-10-21T10:28:19.000Z</time>
      </trkpt>
      <trkpt lat="49.465397" lon="8.689029">
        <ele>389.958350</ele>
        <time>2018-10-21T10:28:27.000Z</time>
      </trkpt>
      <trkpt lat="49.465458" lon="8.689149">
        <ele>390.406783</ele>
        <time>2018-10-21T10:28:37.000Z</time>
      </trkpt>
      <trkpt lat="49.465492" lon="8.689279">
        <ele>390.819259</ele>
        <time>2018-10-21T10:28:45.000Z</time>
      </trkpt>
      <trkpt lat="49.465538" lon="8.689407">
        <ele>391.249792</ele>
        <time>2018-10-21T10:28:53.000Z</time>
      </trkpt>
      <trkpt lat="49.465580" lon="8.689534">
        <ele>391.669230</ele>
        <time>2018-10-21T10:29:00.000Z</time>
      </trkpt>
      <trkpt lat="49.465576" lon="8.689677">
        <ele>392.090538</ele>
        <time>2018-10-21T10:29:06.000Z</time>
      </trkpt>
      <trkpt lat="49.465520" lon="8.689809">
        <ele>391.628830</ele>
        <time>2018-10-21T10:29:14.000Z</time>
      </trkpt>
      <trkpt lat="49.465470" lon="8.689940">
        <ele>390.983526</ele>
        <time>2018-10-21T10:29:22.000Z</time>
      </trkpt>
      <trkpt lat="49.465443" lon="8.690074">
        <ele>390.387614</ele>
        <time>2018-10-21T10:29:28.000Z</time>
      </trkpt>
      <trkpt lat="49.465397" lon="8.690217">
        <ele>389.709868</ele>
        <time>2018-10-21T10:29:34.000Z</time>
      </trkpt>
      <trkpt lat="49.465355" lon="8.690362">
        <ele>389.035556</ele>
        <time>2018-10-21T10:29:41.000Z</time>
      </trkpt>
      <trkpt lat="49.465294" lon="8.690481">
        <ele>388.391779</ele>
        <time>2018-10-21T10:29:48.000Z</time>
      </trkpt>
      <trkpt lat="49.465233" lon="8.690579">
        <ele>387.815385</ele>
        <time>2018-10-21T10:29:55.000Z</time>
      </trkpt>
      <trkpt lat="49.465168" lon="8.690689">
        <ele>387.183884</ele>
        <time>2018-10-21T10:30:01.000Z</time>
      </trkpt>
      <trkpt lat="49.465107" lon="8.690811">
        <ele>386.530052</ele>
        <time>2018-10-21T10:30:09.000Z</time>
      </trkpt>
      <trkpt lat="49.465054" lon="8.690929">
        <ele>385.920776</ele>
        <time>2018-10-21T10:30:15.000Z</time>
      </trkpt>
      <trkpt lat="49.464985" lon="8.691037">
        <ele>385.277484</ele>
        <time>2018-10-21T10:30:22.000Z</time>
      </trkpt>
      <trkpt lat="49.464950" lon="8.691175">
        <ele>384.648249</ele>
        <time>2018-10-21T10:30:31.000Z</time>
      </trkpt>
      <trkpt lat="49.464905" lon="8.691309">
        <ele>384.007563</ele>
        <time>2018-10-21T10:30:39.000Z</time>
      </trkpt>
      <trkpt lat="49.464867" lon="8.691444">
        <ele>383.382651</ele>
        <time>2018-10-21T10:30:46.000Z</time>
      </trkpt>
      <trkpt lat="49.464810" lon="8.691567">
        <ele>382.740968</ele>
        <time>2018-10-21T10:30:56.000Z</time>
      </trkpt>
      <trkpt lat="49.464806" lon="8.691710">
        <ele>382.132984</ele>
        <time>2018-10-21T10:31:04.000Z</time>
      </trkpt>
      <trkpt lat="49.464775" lon="8.691853">
        <ele>381.492663</ele>
        <time>2018-10-21T10:31:12.000Z</time>
      </trkpt>
      <trkpt lat="49.464798" lon="8.691999">
        <ele>380.854539</ele>
        <time>2018-10-21T10:31:20.000Z</time>
      </trkpt>
      <trkpt lat="49.464775" lon="8.692142">
        <ele>380.374723</ele>
        <time>2018-10-21T10:31:34.000Z</time>
      </trkpt>
      <trkpt lat="49.464750" lon="8.692287">
        <ele>380.223620</ele>
        <time>2018-10-21T10:31:43.000Z</time>
      </trkpt>
      <trkpt lat="49.464745" lon="8.692428">
        <ele>380.081386</ele>
        <time>2018-10-21T10:31:50.000Z</time>
      </trkpt>
      <trkpt lat="49.464764" lon="8.692577">
        <ele>379.928444</ele>
        <time>2018-10-21T10:31:58.000Z</time>
      </trkpt>
      <trkpt lat="49.464800" lon="8.692726">
        <ele>379.768329</ele>
        <time>2018-10-21T10:32:06.000Z</time>
      </trkpt>
      <trkpt lat="49.464860" lon="8.692851">
        <ele>379.611806</ele>
        <time>2018-10-21T10:32:14.000Z</time>
      </trkpt>
      <trkpt lat="49.464920" lon="8.692979">
        <ele>379.452843</ele>
        <time>2018-10-21T10:32:21.000Z</time>
      </trkpt>
      <trkpt lat="49.464985" lon="8.693089">
        <ele>379.303096</ele>
        <time>2018-10-21T10:32:29.000Z</time>
      </trkpt>
      <trkpt lat="49.465034" lon="8.693217">
        <ele>379.153465</ele>
        <time>2018-10-21T10:32:36.000Z</time>
      </trkpt>
      <trkpt lat="49.465103" lon="8.693320">
        <ele>379.004472</ele>
        <time>2018-10-21T10:32:43.000Z</time>
      </trkpt>
      <trkpt lat="49.465160" lon="8.693447">
        <ele>378.849013</ele>
        <time>2018-10-21T10:32:51.000Z</time>
      </trkpt>
      <trkpt lat="49.465230" lon="8.693572">
        <ele>378.682816</ele>
        <time>2018-10-21T10:32:57.000Z</time>
      </trkpt>
      <trkpt lat="49.465275" lon="8.693699">
        <ele>378.537120</ele>
        <time>2018-10-21T10:33:05.000Z</time>
      </trkpt>
      <trkpt lat="49.465336" lon="8.693822">
        <ele>378.381279</ele>
        <time>2018-10-21T10:33:12.000Z</time>
      </trkpt>
      <trkpt lat="49.465385" lon="8.693954">
        <ele>378.228164</ele>
        <time>2018-10-21T10:33:21.000Z</time>
      </trkpt>
      <trkpt lat="49.465435" lon="8.694084">
        <ele>378.076011</ele>
        <time>2018-10-21T10:33:28.000Z</time>
      </trkpt>
      <trkpt lat="49.465477" lon="8.694224">
        <ele>377.920700</ele>
        <time>2018-10-21T10:33:36.000Z</time>
      </trkpt>
      <trkpt lat="49.465490" lon="8.694370">
        <ele>377.772270</ele>
        <time>2018-10-21T10:33:44.000Z</time>
      </trkpt>
      <trkpt lat="49.465527" lon="8.694519">
        <ele>377.615433</ele>
        <time>2018-10-21T10:33:52.000Z</time>
      </trkpt>
      <trkpt lat="49.465570" lon="8.694644">
        <ele>377.499034</ele>
        <time>2018-10-21T10:33:58.000Z</time>
      </trkpt>
      <trkpt lat="49.465600" lon="8.694774">
        <ele>377.385498</ele>
        <time>2018-10-21T10:34:05.000Z</time>
      </trkpt>
      <trkpt lat="49.465637" lon="8.694909">
        <ele>377.264917</ele>
        <time>2018-10-21T10:34:13.000Z</time>
      </trkpt>
      <trkpt lat="49.465680" lon="8.695032">
        <ele>377.149971</ele>
        <time>2018-10-21T10:34:21.000Z</time>
      </trkpt>
      <trkpt lat="49.465717" lon="8.695164">
        <ele>377.031660</ele>
        <time>2018-10-21T10:34:27.000Z</time>
      </trkpt>
      <trkpt lat="49.465755" lon="8.695295">
        <ele>376.913595</ele>
        <time>2018-10-21T10:34:33.000Z</time>
      </trkpt>
      <trkpt lat="49.465780" lon="8.695439">
        <ele>376.790926</ele>
        <time>2018-10-21T10:34:40.000Z</time>
      </trkpt>
      <trkpt lat="49.465797" lon="8.695580">
        <ele>376.672902</ele>
        <time>2018-10-21T10:34:46.000Z</time>
      </trkpt>
      <trkpt lat="49.465830" lon="8.695716">
        <ele>376.553427</ele>
        <time>2018-10-21T10:34:53.000Z</time>
      </trkpt>
      <trkpt lat="49.465843" lon="8.695859">
        <ele>376.434592</ele>
        <time>2018-10-21T10:35:00.000Z</time>
      </trkpt>
      <trkpt lat="49.465870" lon="8.696002">
        <ele>376.312036</ele>
        <time>2018-10-21T10:35:07.000Z</time>
      </trkpt>
      <trkpt lat="49.465904" lon="8.696133">
        <ele>376.195943</ele>
        <time>2018-10-21T10:35:13.000Z</time>
      </trkpt>
      <trkpt lat="49.465916" lon="8.696273">
        <ele>376.079725</ele>
        <time>2018-10-21T10:35:20.000Z</time>
      </trkpt>
      <trkpt lat="49.465935" lon="8.696427">
        <ele>375.950719</ele>
        <time>2018-10-21T10:35:26.000Z</time>
      </trkpt>
      <trkpt lat="49.465965" lon="8.696570">
        <ele>375.827050</ele>
        <time>2018-10-21T10:35:33.000Z</time>
      </trkpt>
      <trkpt lat="49.466022" lon="8.696697">
        <ele>375.700027</ele>
        <time>2018-10-21T10:35:41.000Z</time>
      </trkpt>
      <trkpt lat="49.466060" lon="8.696826">
        <ele>375.583463</ele>
        <time>2018-10-21T10:35:47.000Z</time>
      </trkpt>
      <trkpt lat="49.466084" lon="8.696976">
        <ele>375.456327</ele>
        <time>2018-10-21T10:35:55.000Z</time>
      </trkpt>
      <trkpt lat="49.466120" lon="8.697111">
        <ele>375.478930</ele>
        <time>2018-10-21T10:36:02.000Z</time>
      </trkpt>
      <trkpt lat="49.466160" lon="8.697244">
        <ele>376.285346</ele>
        <time>2018-10-21T10:36:13.000Z</time>
      </trkpt>
      <trkpt lat="49.466210" lon="8.697368">
        <ele>377.088335</ele>
        <time>2018-10-21T10:36:20.000Z</time>
      </trkpt>
      <trkpt lat="49.466240" lon="8.697502">
        <ele>377.868211</ele>
        <time>2018-10-21T10:36:28.000Z</time>
      </trkpt>
      <trkpt lat="49.466267" lon="8.697649">
        <ele>378.708780</ele>
        <time>2018-10-21T10:36:38.000Z</time>
      </trkpt>
      <trkpt lat="49.466312" lon="8.697796">
        <ele>379.602907</ele>
        <time>2018-10-21T10:36:45.000Z</time>
      </trkpt>
      <trkpt lat="49.466377" lon="8.697926">
        <ele>380.505456</ele>
        <time>2018-10-21T10:36:53.000Z</time>
      </trkpt>
      <trkpt lat="49.466410" lon="8.698055">
        <ele>381.268304</ele>
        <time>2018-10-21T10:37:00.000Z</time>
      </trkpt>
      <trkpt lat="49.466446" lon="8.698202">
        <ele>382.132710</ele>
        <time>2018-10-21T10:37:08.000Z</time>
      </trkpt>
      <trkpt lat="49.466490" lon="8.698334">
        <ele>382.949021</ele>
        <time>2018-10-21T10:37:15.000Z</time>
      </trkpt>
      <trkpt lat="49.466520" lon="8.698484">
        <ele>383.812610</ele>
        <time>2018-10-21T10:37:24.000Z</time>
      </trkpt>
      <trkpt lat="49.466537" lon="8.698630">
        <ele>384.628780</ele>
        <time>2018-10-21T10:37:31.000Z</time>
      </trkpt>
      <trkpt lat="49.466557" lon="8.698786">
        <ele>385.503727</ele>
        <time>2018-10-21T10:37:39.000Z</time>
      </trkpt>
      <trkpt lat="49.466583" lon="8.698927">
        <ele>386.310218</ele>
        <time>2018-10-21T10:37:46.000Z</time>
      </trkpt>
      <trkpt lat="49.466610" lon="8.699069">
        <ele>387.124340</ele>
        <time>2018-10-21T10:37:53.000Z</time>
      </trkpt>
      <trkpt lat="49.466637" lon="8.699214">
        <ele>387.954318</ele>
        <time>2018-10-21T10:37:59.000Z</time>
      </trkpt>
      <trkpt lat="49.466682" lon="8.699372">
        <ele>388.903548</ele>
        <time>2018-10-21T10:38:08.000Z</time>
      </trkpt>
      <trkpt lat="49.466694" lon="8.699515">
        <ele>389.696948</ele>
        <time>2018-10-21T10:38:15.000Z</time>
      </trkpt>
      <trkpt lat="49.466705" lon="8.699653">
        <ele>390.461993</ele>
        <time>2018-10-21T10:38:22.000Z</time>
      </trkpt>
      <trkpt lat="49.466717" lon="8.699809">
        <ele>391.210910</ele>
        <time>2018-10-21T10:38:31.000Z</time>
      </trkpt>
      <trkpt lat="49.466743" lon="8.699951">
        <ele>391.896462</ele>
        <time>2018-10-21T10:38:40.000Z</time>
      </trkpt>
      <trkpt lat="49.466736" lon="8.700090">
        <ele>392.544320</ele>
        <time>2018-10-21T10:38:49.000Z</time>
      </trkpt>
      <trkpt lat="49.466717" lon="8.700226">
        <ele>393.190739</ele>
        <time>2018-10-21T10:38:57.000Z</time>
      </trkpt>
      <trkpt lat="49.466667" lon="8.700347">
        <ele>393.857053</ele>
        <time>2018-10-21T10:39:04.000Z</time>
      </trkpt>
      <trkpt lat="49.466656" lon="8.700491">
        <ele>394.530817</ele>
        <time>2018-10-21T10:39:17.000Z</time>
      </trkpt>
      <trkpt lat="49.466690" lon="8.700625">
        <ele>395.199281</ele>
        <time>2018-10-21T10:39:21.000Z</time>
      </trkpt>
      <trkpt lat="49.466675" lon="8.700772">
        <ele>395.890748</ele>
        <time>2018-10-21T10:39:25.000Z</time>
      </trkpt>
      <trkpt lat="49.466637" lon="8.700919">
        <ele>396.625901</ele>
        <time>2018-10-21T10:39:30.000Z</time>
      </trkpt>
      <trkpt lat="49.466630" lon="8.701069">
        <ele>397.324736</ele>
        <time>2018-10-21T10:39:41.000Z</time>
      </trkpt>
      <trkpt lat="49.466560" lon="8.701184">
        <ele>398.056927</ele>
        <time>2018-10-21T10:39:49.000Z</time>
      </trkpt>
      <trkpt lat="49.466510" lon="8.701304">
        <ele>398.719326</ele>
        <time>2018-10-21T10:39:57.000Z</time>
      </trkpt>
      <trkpt lat="49.466442" lon="8.701401">
        <ele>399.382342</ele>
        <time>2018-10-21T10:40:03.000Z</time>
      </trkpt>
      <trkpt lat="49.466420" lon="8.701537">
        <ele>400.033611</ele>
        <time>2018-10-21T10:40:13.000Z</time>
      </trkpt>
      <trkpt lat="49.466396" lon="8.701686">
        <ele>400.746956</ele>
        <time>2018-10-21T10:40:25.000Z</time>
      </trkpt>
      <trkpt lat="49.466347" lon="8.701811">
        <ele>401.425311</ele>
        <time>2018-10-21T10:40:34.000Z</time>
      </trkpt>
      <trkpt lat="49.466274" lon="8.701922">
        <ele>402.159150</ele>
        <time>2018-10-21T10:40:44.000Z</time>
      </trkpt>
      <trkpt lat="49.466200" lon="8.702038">
        <ele>402.914494</ele>
        <time>2018-10-21T10:40:52.000Z</time>
      </trkpt>
      <trkpt lat="49.466152" lon="8.702170">
        <ele>403.624869</ele>
        <time>2018-10-21T10:41:02.000Z</time>
      </trkpt>
      <trkpt lat="49.466120" lon="8.702319">
        <ele>404.385685</ele>
        <time>2018-10-21T10:41:14.000Z</time>
      </trkpt>
      <trkpt lat="49.466076" lon="8.702444">
        <ele>405.074903</ele>
        <time>2018-10-21T10:41:20.000Z</time>
      </trkpt>
      <trkpt lat="49.466087" lon="8.702584">
        <ele>405.758606</ele>
        <time>2018-10-21T10:41:33.000Z</time>
      </trkpt>
      <trkpt lat="49.466080" lon="8.702727">
        <ele>406.453875</ele>
        <time>2018-10-21T10:41:41.000Z</time>
      </trkpt>
      <trkpt lat="49.466030" lon="8.702857">
        <ele>407.186255</ele>
        <time>2018-10-21T10:41:49.000Z</time>
      </trkpt>
      <trkpt lat="49.465977" lon="8.702977">
        <ele>407.889686</ele>
        <time>2018-10-21T10:42:08.000Z</time>
      </trkpt>
      <trkpt lat="49.465935" lon="8.703109">
        <ele>408.602244</ele>
        <time>2018-10-21T10:42:17.000Z</time>
      </trkpt>
      <trkpt lat="49.465920" lon="8.703256">
        <ele>409.323676</ele>
        <time>2018-10-21T10:42:27.000Z</time>
      </trkpt>
      <trkpt lat="49.465923" lon="8.703404">
        <ele>410.041574</ele>
        <time>2018-10-21T10:42:35.000Z</time>
      </trkpt>
      <trkpt lat="49.465946" lon="8.703549">
        <ele>410.765213</ele>
        <time>2018-10-21T10:42:43.000Z</time>
      </trkpt>
      <trkpt lat="49.465920" lon="8.703689">
        <ele>411.471145</ele>
        <time>2018-10-21T10:42:53.000Z</time>
      </trkpt>
      <trkpt lat="49.465874" lon="8.703821">
        <ele>412.197320</ele>
        <time>2018-10-21T10:43:04.000Z</time>
      </trkpt>
      <trkpt lat="49.465850" lon="8.703958">
        <ele>412.885245</ele>
        <time>2018-10-21T10:43:16.000Z</time>
      </trkpt>
      <trkpt lat="49.465805" lon="8.704082">
        <ele>413.573814</ele>
        <time>2018-10-21T10:43:30.000Z</time>
      </trkpt>
      <trkpt lat="49.465733" lon="8.704165">
        <ele>414.242065</ele>
        <time>2018-10-21T10:43:44.000Z</time>
      </trkpt>
      <trkpt lat="49.465694" lon="8.704297">
        <ele>414.945073</ele>
        <time>2018-10-21T10:43:59.000Z</time>
      </trkpt>
      <trkpt lat="49.465622" lon="8.704385">
        <ele>415.631029</ele>
        <time>2018-10-21T10:44:07.000Z</time>
      </trkpt>
      <trkpt lat="49.465590" lon="8.704522">
        <ele>416.336847</ele>
        <time>2018-10-21T10:44:21.000Z</time>
      </trkpt>
      <trkpt lat="49.465508" lon="8.704588">
        <ele>417.112659</ele>
        <time>2018-10-21T10:44:32.000Z</time>
      </trkpt>
      <trkpt lat="49.465440" lon="8.704685">
        <ele>418.163625</ele>
        <time>2018-10-21T10:44:41.000Z</time>
      </trkpt>
      <trkpt lat="49.465355" lon="8.704765">
        <ele>419.292957</ele>
        <time>2018-10-21T10:44:56.000Z</time>
      </trkpt>
      <trkpt lat="49.465300" lon="8.704900">
        <ele>420.466616</ele>
        <time>2018-10-21T10:45:05.000Z</time>
      </trkpt>
      <trkpt lat="49.465220" lon="8.704962">
        <ele>421.481862</ele>
        <time>2018-10-21T10:45:16.000Z</time>
      </trkpt>
      <trkpt lat="49.465170" lon="8.705095">
        <ele>422.613655</ele>
        <time>2018-10-21T10:45:31.000Z</time>
      </trkpt>
      <trkpt lat="49.465122" lon="8.705214">
        <ele>423.645328</ele>
        <time>2018-10-21T10:45:48.000Z</time>
      </trkpt>
      <trkpt lat="49.465046" lon="8.705292">
        <ele>424.680755</ele>
        <time>2018-10-21T10:46:00.000Z</time>
      </trkpt>
      <trkpt lat="49.464980" lon="8.705401">
        <ele>425.778135</ele>
        <time>2018-10-21T10:46:09.000Z</time>
      </trkpt>
      <trkpt lat="49.464947" lon="8.705539">
        <ele>426.861291</ele>
        <time>2018-10-21T10:46:19.000Z</time>
      </trkpt>
      <trkpt lat="49.464855" lon="8.705611">
        <ele>428.031155</ele>
        <time>2018-10-21T10:46:29.000Z</time>
      </trkpt>
      <trkpt lat="49.464813" lon="8.705750">
        <ele>429.160303</ele>
        <time>2018-10-21T10:46:39.000Z</time>
      </trkpt>
      <trkpt lat="49.464730" lon="8.705798">
        <ele>430.165283</ele>
        <time>2018-10-21T10:46:42.000Z</time>
      </trkpt>
      <trkpt lat="49.464640" lon="8.705876">
        <ele>431.336035</ele>
        <time>2018-10-21T10:46:48.000Z</time>
      </trkpt>
      <trkpt lat="49.464577" lon="8.705985">
        <ele>432.410529</ele>
        <time>2018-10-21T10:46:57.000Z</time>
      </trkpt>
      <trkpt lat="49.464510" lon="8.706085">
        <ele>433.468487</ele>
        <time>2018-10-21T10:47:03.000Z</time>
      </trkpt>
      <trkpt lat="49.464436" lon="8.706179">
        <ele>434.556103</ele>
        <time>2018-10-21T10:47:11.000Z</time>
      </trkpt>
      <trkpt lat="49.464370" lon="8.706286">
        <ele>435.642757</ele>
        <time>2018-10-21T10:47:19.000Z</time>
      </trkpt>
      <trkpt lat="49.464314" lon="8.706395">
        <ele>436.666249</ele>
        <time>2018-10-21T10:47:29.000Z</time>
      </trkpt>
      <trkpt lat="49.464214" lon="8.706425">
        <ele>437.203859</ele>
        <time>2018-10-21T10:47:37.000Z</time>
      </trkpt>
      <trkpt lat="49.464127" lon="8.706473">
        <ele>437.121945</ele>
        <time>2018-10-21T10:47:46.000Z</time>
      </trkpt>
      <trkpt lat="49.464043" lon="8.706532">
        <ele>437.040108</ele>
        <time>2018-10-21T10:47:59.000Z</time>
      </trkpt>
      <trkpt lat="49.463966" lon="8.706616">
        <ele>436.956452</ele>
        <time>2018-10-21T10:48:04.000Z</time>
      </trkpt>
      <trkpt lat="49.463898" lon="8.706703">
        <ele>436.878072</ele>
        <time>2018-10-21T10:48:10.000Z</time>
      </trkpt>
      <trkpt lat="49.463806" lon="8.706768">
        <ele>436.788350</ele>
        <time>2018-10-21T10:48:22.000Z</time>
      </trkpt>
      <trkpt lat="49.463720" lon="8.706841">
        <ele>436.701300</ele>
        <time>2018-10-21T10:48:30.000Z</time>
      </trkpt>
      <trkpt lat="49.463630" lon="8.706912">
        <ele>436.611662</ele>
        <time>2018-10-21T10:48:41.000Z</time>
      </trkpt>
      <trkpt lat="49.463547" lon="8.706965">
        <ele>436.532017</ele>
        <time>2018-10-21T10:48:46.000Z</time>
      </trkpt>
      <trkpt lat="49.463448" lon="8.706982">
        <ele>436.443731</ele>
        <time>2018-10-21T10:48:56.000Z</time>
      </trkpt>
      <trkpt lat="49.463345" lon="8.707035">
        <ele>436.347475</ele>
        <time>2018-10-21T10:49:03.000Z</time>
      </trkpt>
      <trkpt lat="49.463257" lon="8.707075">
        <ele>436.266150</ele>
        <time>2018-10-21T10:49:10.000Z</time>
      </trkpt>
      <trkpt lat="49.463165" lon="8.707142">
        <ele>436.175941</ele>
        <time>2018-10-21T10:49:19.000Z</time>
      </trkpt>
      <trkpt lat="49.463074" lon="8.707173">
        <ele>436.093336</ele>
        <time>2018-10-21T10:49:30.000Z</time>
      </trkpt>
      <trkpt lat="49.462997" lon="8.707243">
        <ele>436.014071</ele>
        <time>2018-10-21T10:49:37.000Z</time>
      </trkpt>
      <trkpt lat="49.462910" lon="8.707307">
        <ele>435.928605</ele>
        <time>2018-10-21T10:49:46.000Z</time>
      </trkpt>
      <trkpt lat="49.462822" lon="8.707335">
        <ele>435.848962</ele>
        <time>2018-10-21T10:49:51.000Z</time>
      </trkpt>
      <trkpt lat="49.462730" lon="8.707403">
        <ele>435.758504</ele>
        <time>2018-10-21T10:49:59.000Z</time>
      </trkpt>
      <trkpt lat="49.462635" lon="8.707414">
        <ele>435.674070</ele>
        <time>2018-10-21T10:50:05.000Z</time>
      </trkpt>
      <trkpt lat="49.462543" lon="8.707480">
        <ele>436.123520</ele>
        <time>2018-10-21T10:50:15.000Z</time>
      </trkpt>
      <trkpt lat="49.462456" lon="8.707517">
        <ele>436.656334</ele>
        <time>2018-10-21T10:50:21.000Z</time>
      </trkpt>
      <trkpt lat="49.462370" lon="8.707573">
        <ele>437.207580</ele>
        <time>2018-10-21T10:50:27.000Z</time>
      </trkpt>
      <trkpt lat="49.462284" lon="8.707632">
        <ele>437.763413</ele>
        <time>2018-10-21T10:50:33.000Z</time>
      </trkpt>
      <trkpt lat="49.462196" lon="8.707682">
        <ele>438.317161</ele>
        <time>2018-10-21T10:50:43.000Z</time>
      </trkpt>
      <trkpt lat="49.462105" lon="8.707710">
        <ele>438.864966</ele>
        <time>2018-10-21T10:50:48.000Z</time>
      </trkpt>
      <trkpt lat="49.462030" lon="8.707784">
        <ele>439.390900</ele>
        <time>2018-10-21T10:50:56.000Z</time>
      </trkpt>
      <trkpt lat="49.461980" lon="8.707903">
        <ele>439.934553</ele>
        <time>2018-10-21T10:51:07.000Z</time>
      </trkpt>
      <trkpt lat="49.461906" lon="8.708016">
        <ele>440.549993</ele>
        <time>2018-10-21T10:51:14.000Z</time>
      </trkpt>
      <trkpt lat="49.461840" lon="8.708128">
        <ele>441.130018</ele>
        <time>2018-10-21T10:51:24.000Z</time>
      </trkpt>
      <trkpt lat="49.461780" lon="8.708237">
        <ele>441.678040</ele>
        <time>2018-10-21T10:51:34.000Z</time>
      </trkpt>
      <trkpt lat="49.461710" lon="8.708344">
        <ele>442.260507</ele>
        <time>2018-10-21T10:51:46.000Z</time>
      </trkpt>
      <trkpt lat="49.461666" lon="8.708473">
        <ele>442.819447</ele>
        <time>2018-10-21T10:51:56.000Z</time>
      </trkpt>
      <trkpt lat="49.461597" lon="8.708571">
        <ele>443.373763</ele>
        <time>2018-10-21T10:52:02.000Z</time>
      </trkpt>
      <trkpt lat="49.461533" lon="8.708685">
        <ele>443.951712</ele>
        <time>2018-10-21T10:52:12.000Z</time>
      </trkpt>
      <trkpt lat="49.461456" lon="8.708807">
        <ele>444.604160</ele>
        <time>2018-10-21T10:52:20.000Z</time>
      </trkpt>
      <trkpt lat="49.461390" lon="8.708915">
        <ele>445.172912</ele>
        <time>2018-10-21T10:52:27.000Z</time>
      </trkpt>
      <trkpt lat="49.461308" lon="8.708874">
        <ele>445.681873</ele>
        <time>2018-10-21T10:52:39.000Z</time>
      </trkpt>
      <trkpt lat="49.461270" lon="8.709002">
        <ele>446.221772</ele>
        <time>2018-10-21T10:53:08.000Z</time>
      </trkpt>
      <trkpt lat="49.461212" lon="8.709111">
        <ele>446.559421</ele>
        <time>2018-10-21T10:53:15.000Z</time>
      </trkpt>
      <trkpt lat="49.461117" lon="8.709187">
        <ele>446.930086</ele>
        <time>2018-10-21T10:53:23.000Z</time>
      </trkpt>
      <trkpt lat="49.461030" lon="8.709251">
        <ele>447.263911</ele>
        <time>2018-10-21T10:53:28.000Z</time>
      </trkpt>
      <trkpt lat="49.460945" lon="8.709322">
        <ele>447.598727</ele>
        <time>2018-10-21T10:53:34.000Z</time>
      </trkpt>
      <trkpt lat="49.460865" lon="8.709382">
        <ele>447.906817</ele>
        <time>2018-10-21T10:53:40.000Z</time>
      </trkpt>
      <trkpt lat="49.460773" lon="8.709429">
        <ele>448.242395</ele>
        <time>2018-10-21T10:53:48.000Z</time>
      </trkpt>
      <trkpt lat="49.460670" lon="8.709430">
        <ele>448.598960</ele>
        <time>2018-10-21T10:53:54.000Z</time>
      </trkpt>
      <trkpt lat="49.460575" lon="8.709425">
        <ele>448.928016</ele>
        <time>2018-10-21T10:54:03.000Z</time>
      </trkpt>
      <trkpt lat="49.460545" lon="8.709563">
        <ele>449.255426</ele>
        <time>2018-10-21T10:54:16.000Z</time>
      </trkpt>
      <trkpt lat="49.460460" lon="8.709621">
        <ele>449.577314</ele>
        <time>2018-10-21T10:54:22.000Z</time>
      </trkpt>
      <trkpt lat="49.460380" lon="8.709690">
        <ele>449.894801</ele>
        <time>2018-10-21T10:54:31.000Z</time>
      </trkpt>
      <trkpt lat="49.460320" lon="8.709805">
        <ele>450.226606</ele>
        <time>2018-10-21T10:54:37.000Z</time>
      </trkpt>
      <trkpt lat="49.460255" lon="8.709913">
        <ele>450.557787</ele>
        <time>2018-10-21T10:54:47.000Z</time>
      </trkpt>
      <trkpt lat="49.460205" lon="8.710036">
        <ele>450.884211</ele>
        <time>2018-10-21T10:54:58.000Z</time>
      </trkpt>
      <trkpt lat="49.460140" lon="8.710143">
        <ele>451.213745</ele>
        <time>2018-10-21T10:55:06.000Z</time>
      </trkpt>
      <trkpt lat="49.460080" lon="8.710254">
        <ele>451.538581</ele>
        <time>2018-10-21T10:55:15.000Z</time>
      </trkpt>
      <trkpt lat="49.460040" lon="8.710385">
        <ele>451.864242</ele>
        <time>2018-10-21T10:55:22.000Z</time>
      </trkpt>
      <trkpt lat="49.459965" lon="8.710470">
        <ele>452.186710</ele>
        <time>2018-10-21T10:55:30.000Z</time>
      </trkpt>
      <trkpt lat="49.459870" lon="8.710553">
        <ele>452.506754</ele>
        <time>2018-10-21T10:55:36.000Z</time>
      </trkpt>
      <trkpt lat="49.459770" lon="8.710630">
        <ele>452.556273</ele>
        <time>2018-10-21T10:55:43.000Z</time>
      </trkpt>
      <trkpt lat="49.459694" lon="8.710716">
        <ele>452.598050</ele>
        <time>2018-10-21T10:55:48.000Z</time>
      </trkpt>
      <trkpt lat="49.459625" lon="8.710818">
        <ele>452.640424</ele>
        <time>2018-10-21T10:55:55.000Z</time>
      </trkpt>
      <trkpt lat="49.459564" lon="8.710935">
        <ele>452.683594</ele>
        <time>2018-10-21T10:56:03.000Z</time>
      </trkpt>
      <trkpt lat="49.459540" lon="8.711068">
        <ele>452.723323</ele>
        <time>2018-10-21T10:56:11.000Z</time>
      </trkpt>
      <trkpt lat="49.459480" lon="8.711193">
        <ele>452.768049</ele>
        <time>2018-10-21T10:56:19.000Z</time>
      </trkpt>
      <trkpt lat="49.459440" lon="8.711335">
        <ele>452.812594</ele>
        <time>2018-10-21T10:56:27.000Z</time>
      </trkpt>
      <trkpt lat="49.459396" lon="8.711458">
        <ele>452.853004</ele>
        <time>2018-10-21T10:56:35.000Z</time>
      </trkpt>
      <trkpt lat="49.459330" lon="8.711555">
        <ele>452.893422</ele>
        <time>2018-10-21T10:56:42.000Z</time>
      </trkpt>
      <trkpt lat="49.459300" lon="8.711695">
        <ele>452.935852</ele>
        <time>2018-10-21T10:56:52.000Z</time>
      </trkpt>
      <trkpt lat="49.459244" lon="8.711820">
        <ele>452.979549</ele>
        <time>2018-10-21T10:57:04.000Z</time>
      </trkpt>
      <trkpt lat="49.459210" lon="8.711968">
        <ele>453.024730</ele>
        <time>2018-10-21T10:57:16.000Z</time>
      </trkpt>
      <trkpt lat="49.459120" lon="8.712047">
        <ele>453.070614</ele>
        <time>2018-10-21T10:57:23.000Z</time>
      </trkpt>
      <trkpt lat="49.459040" lon="8.712110">
        <ele>453.110411</ele>
        <time>2018-10-21T10:57:30.000Z</time>
      </trkpt>
      <trkpt lat="49.458977" lon="8.712214">
        <ele>453.151330</ele>
        <time>2018-10-21T10:57:37.000Z</time>
      </trkpt>
      <trkpt lat="49.458900" lon="8.712303">
        <ele>453.193978</ele>
        <time>2018-10-21T10:57:46.000Z</time>
      </trkpt>
      <trkpt lat="49.458828" lon="8.712385">
        <ele>453.233647</ele>
        <time>2018-10-21T10:57:54.000Z</time>
      </trkpt>
      <trkpt lat="49.458750" lon="8.712459">
        <ele>453.274226</ele>
        <time>2018-10-21T10:58:02.000Z</time>
      </trkpt>
      <trkpt lat="49.458670" lon="8.712535">
        <ele>454.027337</ele>
        <time>2018-10-21T10:58:10.000Z</time>
      </trkpt>
      <trkpt lat="49.458607" lon="8.712640">
        <ele>455.451553</ele>
        <time>2018-10-21T10:58:20.000Z</time>
      </trkpt>
      <trkpt lat="49.458530" lon="8.712735">
        <ele>456.965011</ele>
        <time>2018-10-21T10:58:28.000Z</time>
      </trkpt>
      <trkpt lat="49.458460" lon="8.712835">
        <ele>458.429754</ele>
        <time>2018-10-21T10:58:37.000Z</time>
      </trkpt>
      <trkpt lat="49.458400" lon="8.712954">
        <ele>459.930809</ele>
        <time>2018-10-21T10:58:55.000Z</time>
      </trkpt>
      <trkpt lat="49.458344" lon="8.713080">
        <ele>461.452137</ele>
        <time>2018-10-21T10:59:02.000Z</time>
      </trkpt>
      <trkpt lat="49.458286" lon="8.713206">
        <ele>462.990984</ele>
        <time>2018-10-21T10:59:13.000Z</time>
      </trkpt>
      <trkpt lat="49.458218" lon="8.713302">
        <ele>464.406155</ele>
        <time>2018-10-21T10:59:25.000Z</time>
      </trkpt>
      <trkpt lat="49.458130" lon="8.713362">
        <ele>465.882094</ele>
        <time>2018-10-21T10:59:36.000Z</time>
      </trkpt>
      <trkpt lat="49.458103" lon="8.713495">
        <ele>467.270843</ele>
        <time>2018-10-21T10:59:49.000Z</time>
      </trkpt>
      <trkpt lat="49.458030" lon="8.713585">
        <ele>468.705281</ele>
        <time>2018-10-21T10:59:56.000Z</time>
      </trkpt>
      <trkpt lat="49.457985" lon="8.713703">
        <ele>470.068854</ele>
        <time>2018-10-21T11:00:03.000Z</time>
      </trkpt>
      <trkpt lat="49.457893" lon="8.713768">
        <ele>471.621199</ele>
        <time>2018-10-21T11:00:13.000Z</time>
      </trkpt>
      <trkpt lat="49.457830" lon="8.713861">
        <ele>472.960002</ele>
        <time>2018-10-21T11:00:25.000Z</time>
      </trkpt>
      <trkpt lat="49.457745" lon="8.713946">
        <ele>474.514507</ele>
        <time>2018-10-21T11:00:35.000Z</time>
      </trkpt>
      <trkpt lat="49.457690" lon="8.714057">
        <ele>475.905630</ele>
        <time>2018-10-21T11:00:44.000Z</time>
      </trkpt>
      <trkpt lat="49.457620" lon="8.714171">
        <ele>477.468683</ele>
        <time>2018-10-21T11:00:52.000Z</time>
      </trkpt>
      <trkpt lat="49.457560" lon="8.714283">
        <ele>478.915258</ele>
        <time>2018-10-21T11:01:00.000Z</time>
      </trkpt>
      <trkpt lat="49.457500" lon="8.714392">
        <ele>480.338886</ele>
        <time>2018-10-21T11:01:13.000Z</time>
      </trkpt>
      <trkpt lat="49.457436" lon="8.714501">
        <ele>481.191325</ele>
        <time>2018-10-21T11:01:24.000Z</time>
      </trkpt>
      <trkpt lat="49.457350" lon="8.714586">
        <ele>481.726246</ele>
        <time>2018-10-21T11:01:33.000Z</time>
      </trkpt>
      <trkpt lat="49.457268" lon="8.714665">
        <ele>482.232558</ele>
        <time>2018-10-21T11:01:45.000Z</time>
      </trkpt>
      <trkpt lat="49.457200" lon="8.714762">
        <ele>482.717840</ele>
        <time>2018-10-21T11:01:53.000Z</time>
      </trkpt>
      <trkpt lat="49.457130" lon="8.714864">
        <ele>483.222391</ele>
        <time>2018-10-21T11:02:00.000Z</time>
      </trkpt>
      <trkpt lat="49.457040" lon="8.714914">
        <ele>483.724303</ele>
        <time>2018-10-21T11:02:11.000Z</time>
      </trkpt>
      <trkpt lat="49.456947" lon="8.714938">
        <ele>484.217229</ele>
        <time>2018-10-21T11:02:18.000Z</time>
      </trkpt>
      <trkpt lat="49.456840" lon="8.714962">
        <ele>484.783091</ele>
        <time>2018-10-21T11:02:25.000Z</time>
      </trkpt>
      <trkpt lat="49.456757" lon="8.715031">
        <ele>485.278424</ele>
        <time>2018-10-21T11:02:35.000Z</time>
      </trkpt>
      <trkpt lat="49.456680" lon="8.715124">
        <ele>485.790718</ele>
        <time>2018-10-21T11:02:43.000Z</time>
      </trkpt>
      <trkpt lat="49.456604" lon="8.715213">
        <ele>486.290550</ele>
        <time>2018-10-21T11:02:54.000Z</time>
      </trkpt>
      <trkpt lat="49.456497" lon="8.715301">
        <ele>486.925484</ele>
        <time>2018-10-21T11:03:13.000Z</time>
      </trkpt>
      <trkpt lat="49.456406" lon="8.715349">
        <ele>487.428909</ele>
        <time>2018-10-21T11:03:23.000Z</time>
      </trkpt>
      <trkpt lat="49.456310" lon="8.715396">
        <ele>487.956113</ele>
        <time>2018-10-21T11:03:33.000Z</time>
      </trkpt>
      <trkpt lat="49.456220" lon="8.715412">
        <ele>488.430226</ele>
        <time>2018-10-21T11:03:40.000Z</time>
      </trkpt>
      <trkpt lat="49.456135" lon="8.715472">
        <ele>488.919629</ele>
        <time>2018-10-21T11:03:55.000Z</time>
      </trkpt>
      <trkpt lat="49.456043" lon="8.715536">
        <ele>489.448008</ele>
        <time>2018-10-21T11:04:03.000Z</time>
      </trkpt>
      <trkpt lat="49.455950" lon="8.715601">
        <ele>489.982559</ele>
        <time>2018-10-21T11:04:10.000Z</time>
      </trkpt>
      <trkpt lat="49.455860" lon="8.715655">
        <ele>490.485930</ele>
        <time>2018-10-21T11:04:17.000Z</time>
      </trkpt>
      <trkpt lat="49.455772" lon="8.715689">
        <ele>490.955641</ele>
        <time>2018-10-21T11:04:24.000Z</time>
      </trkpt>
      <trkpt lat="49.455696" lon="8.715775">
        <ele>491.444057</ele>
        <time>2018-10-21T11:04:31.000Z</time>
      </trkpt>
      <trkpt lat="49.455610" lon="8.715826">
        <ele>491.921201</ele>
        <time>2018-10-21T11:04:38.000Z</time>
      </trkpt>
      <trkpt lat="49.455530" lon="8.715909">
        <ele>492.420733</ele>
        <time>2018-10-21T11:04:45.000Z</time>
      </trkpt>
      <trkpt lat="49.455437" lon="8.715964">
        <ele>492.936531</ele>
        <time>2018-10-21T11:04:55.000Z</time>
      </trkpt>
      <trkpt lat="49.455357" lon="8.716024">
        <ele>493.397277</ele>
        <time>2018-10-21T11:05:04.000Z</time>
      </trkpt>
      <trkpt lat="49.455280" lon="8.716109">
        <ele>493.887904</ele>
        <time>2018-10-21T11:05:10.000Z</time>
      </trkpt>
      <trkpt lat="49.455185" lon="8.716137">
        <ele>494.388651</ele>
        <time>2018-10-21T11:05:22.000Z</time>
      </trkpt>
      <trkpt lat="49.455110" lon="8.716210">
        <ele>494.848104</ele>
        <time>2018-10-21T11:05:31.000Z</time>
      </trkpt>
      <trkpt lat="49.455055" lon="8.716322">
        <ele>495.320464</ele>
        <time>2018-10-21T11:05:44.000Z</time>
      </trkpt>
      <trkpt lat="49.455044" lon="8.716467">
        <ele>495.811728</ele>
        <time>2018-10-21T11:05:55.000Z</time>
      </trkpt>
      <trkpt lat="49.454980" lon="8.716587">
        <ele>496.334074</ele>
        <time>2018-10-21T11:06:05.000Z</time>
      </trkpt>
      <trkpt lat="49.454937" lon="8.716724">
        <ele>496.846035</ele>
        <time>2018-10-21T11:06:14.000Z</time>
      </trkpt>
      <trkpt lat="49.454926" lon="8.716869">
        <ele>497.337300</ele>
        <time>2018-10-21T11:06:19.000Z</time>
      </trkpt>
      <trkpt lat="49.454906" lon="8.717009">
        <ele>497.819670</ele>
        <time>2018-10-21T11:06:26.000Z</time>
      </trkpt>
      <trkpt lat="49.454870" lon="8.717134">
        <ele>498.279756</ele>
        <time>2018-10-21T11:06:33.000Z</time>
      </trkpt>
      <trkpt lat="49.454810" lon="8.717267">
        <ele>498.824550</ele>
        <time>2018-10-21T11:06:41.000Z</time>
      </trkpt>
      <trkpt lat="49.454770" lon="8.717392">
        <ele>499.293407</ele>
        <time>2018-10-21T11:06:47.000Z</time>
      </trkpt>
      <trkpt lat="49.454750" lon="8.717543">
        <ele>499.733330</ele>
        <time>2018-10-21T11:06:54.000Z</time>
      </trkpt>
      <trkpt lat="49.454678" lon="8.717634">
        <ele>500.038185</ele>
        <time>2018-10-21T11:07:02.000Z</time>
      </trkpt>
      <trkpt lat="49.454600" lon="8.717712">
        <ele>500.342541</ele>
        <time>2018-10-21T11:07:08.000Z</time>
      </trkpt>
      <trkpt lat="49.454517" lon="8.717792">
        <ele>500.662975</ele>
        <time>2018-10-21T11:07:22.000Z</time>
      </trkpt>
      <trkpt lat="49.454426" lon="8.717822">
        <ele>500.967445</ele>
        <time>2018-10-21T11:07:29.000Z</time>
      </trkpt>
      <trkpt lat="49.454334" lon="8.717900">
        <ele>501.311111</ele>
        <time>2018-10-21T11:07:40.000Z</time>
      </trkpt>
      <trkpt lat="49.454247" lon="8.717951">
        <ele>501.615699</ele>
        <time>2018-10-21T11:07:47.000Z</time>
      </trkpt>
      <trkpt lat="49.454160" lon="8.717996">
        <ele>501.915981</ele>
        <time>2018-10-21T11:07:56.000Z</time>
      </trkpt>
      <trkpt lat="49.454130" lon="8.718131">
        <ele>502.219396</ele>
        <time>2018-10-21T11:08:08.000Z</time>
      </trkpt>
      <trkpt lat="49.454163" lon="8.718272">
        <ele>502.538101</ele>
        <time>2018-10-21T11:08:17.000Z</time>
      </trkpt>
      <trkpt lat="49.454100" lon="8.718390">
        <ele>502.862840</ele>
        <time>2018-10-21T11:08:24.000Z</time>
      </trkpt>
      <trkpt lat="49.454018" lon="8.718451">
        <ele>503.160826</ele>
        <time>2018-10-21T11:08:31.000Z</time>
      </trkpt>
      <trkpt lat="49.453940" lon="8.718528">
        <ele>503.464030</ele>
        <time>2018-10-21T11:08:45.000Z</time>
      </trkpt>
      <trkpt lat="49.453970" lon="8.718676">
        <ele>503.793728</ele>
        <time>2018-10-21T11:08:58.000Z</time>
      </trkpt>
      <trkpt lat="49.453945" lon="8.718824">
        <ele>504.118931</ele>
        <time>2018-10-21T11:09:09.000Z</time>
      </trkpt>
      <trkpt lat="49.453915" lon="8.718957">
        <ele>504.418325</ele>
        <time>2018-10-21T11:09:19.000Z</time>
      </trkpt>
      <trkpt lat="49.453876" lon="8.719083">
        <ele>504.715114</ele>
        <time>2018-10-21T11:09:27.000Z</time>
      </trkpt>
      <trkpt lat="49.453850" lon="8.719217">
        <ele>505.012515</ele>
        <time>2018-10-21T11:09:36.000Z</time>
      </trkpt>
      <trkpt lat="49.453815" lon="8.719349">
        <ele>505.315693</ele>
        <time>2018-10-21T11:09:48.000Z</time>
      </trkpt>
      <trkpt lat="49.453770" lon="8.719469">
        <ele>506.086832</ele>
        <time>2018-10-21T11:09:58.000Z</time>
      </trkpt>
      <trkpt lat="49.453747" lon="8.719605">
        <ele>507.500640</ele>
        <time>2018-10-21T11:10:06.000Z</time>
      </trkpt>
      <trkpt lat="49.453716" lon="8.719744">
        <ele>508.979098</ele>
        <time>2018-10-21T11:10:16.000Z</time>
      </trkpt>
      <trkpt lat="49.453680" lon="8.719881">
        <ele>510.465775</ele>
        <time>2018-10-21T11:10:23.000Z</time>
      </trkpt>
      <trkpt lat="49.453724" lon="8.720011">
        <ele>511.940334</ele>
        <time>2018-10-21T11:10:28.000Z</time>
      </trkpt>
      <trkpt lat="49.453743" lon="8.720147">
        <ele>513.339840</ele>
        <time>2018-10-21T11:10:35.000Z</time>
      </trkpt>
      <trkpt lat="49.453754" lon="8.720285">
        <ele>514.738624</ele>
        <time>2018-10-21T11:10:44.000Z</time>
      </trkpt>
      <trkpt lat="49.453773" lon="8.720434">
        <ele>516.266246</ele>
        <time>2018-10-21T11:10:53.000Z</time>
      </trkpt>
      <trkpt lat="49.453785" lon="8.720572">
        <ele>517.666997</ele>
        <time>2018-10-21T11:11:02.000Z</time>
      </trkpt>
      <trkpt lat="49.453785" lon="8.720714">
        <ele>519.095624</ele>
        <time>2018-10-21T11:11:10.000Z</time>
      </trkpt>
      <trkpt lat="49.453796" lon="8.720856">
        <ele>520.534359</ele>
        <time>2018-10-21T11:11:18.000Z</time>
      </trkpt>
      <trkpt lat="49.453796" lon="8.721004">
        <ele>522.023350</ele>
        <time>2018-10-21T11:11:27.000Z</time>
      </trkpt>
      <trkpt lat="49.453800" lon="8.721159">
        <ele>523.583995</ele>
        <time>2018-10-21T11:11:35.000Z</time>
      </trkpt>
      <trkpt lat="49.453808" lon="8.721302">
        <ele>525.028001</ele>
        <time>2018-10-21T11:11:43.000Z</time>
      </trkpt>
      <trkpt lat="49.453780" lon="8.721446">
        <ele>526.540171</ele>
        <time>2018-10-21T11:11:51.000Z</time>
      </trkpt>
      <trkpt lat="49.453850" lon="8.721596">
        <ele>528.397885</ele>
        <time>2018-10-21T11:12:02.000Z</time>
      </trkpt>
      <trkpt lat="49.453820" lon="8.721743">
        <ele>529.947983</ele>
        <time>2018-10-21T11:12:08.000Z</time>
      </trkpt>
      <trkpt lat="49.453754" lon="8.721841">
        <ele>531.367659</ele>
        <time>2018-10-21T11:12:17.000Z</time>
      </trkpt>
      <trkpt lat="49.453663" lon="8.721942">
        <ele>533.104338</ele>
        <time>2018-10-21T11:12:25.000Z</time>
      </trkpt>
      <trkpt lat="49.453644" lon="8.722091">
        <ele>533.715723</ele>
        <time>2018-10-21T11:12:37.000Z</time>
      </trkpt>
      <trkpt lat="49.453575" lon="8.722218">
        <ele>534.218424</ele>
        <time>2018-10-21T11:12:48.000Z</time>
      </trkpt>
      <trkpt lat="49.453510" lon="8.722322">
        <ele>534.656600</ele>
        <time>2018-10-21T11:12:59.000Z</time>
      </trkpt>
      <trkpt lat="49.453487" lon="8.722456">
        <ele>535.077530</ele>
        <time>2018-10-21T11:13:18.000Z</time>
      </trkpt>
      <trkpt lat="49.453423" lon="8.722552">
        <ele>535.495170</ele>
        <time>2018-10-21T11:13:24.000Z</time>
      </trkpt>
      <trkpt lat="49.453335" lon="8.722615">
        <ele>535.948661</ele>
        <time>2018-10-21T11:13:33.000Z</time>
      </trkpt>
      <trkpt lat="49.453260" lon="8.722684">
        <ele>536.356956</ele>
        <time>2018-10-21T11:13:40.000Z</time>
      </trkpt>
      <trkpt lat="49.453205" lon="8.722797">
        <ele>536.785699</ele>
        <time>2018-10-21T11:13:58.000Z</time>
      </trkpt>
      <trkpt lat="49.453285" lon="8.722854">
        <ele>537.197615</ele>
        <time>2018-10-21T11:14:25.000Z</time>
      </trkpt>
      <trkpt lat="49.453197" lon="8.722835">
        <ele>537.613224</ele>
        <time>2018-10-21T11:14:39.000Z</time>
      </trkpt>
      <trkpt lat="49.453120" lon="8.722939">
        <ele>538.091969</ele>
        <time>2018-10-21T11:15:16.000Z</time>
      </trkpt>
      <trkpt lat="49.453094" lon="8.723084">
        <ele>538.548810</ele>
        <time>2018-10-21T11:15:27.000Z</time>
      </trkpt>
      <trkpt lat="49.453050" lon="8.723202">
        <ele>538.961974</ele>
        <time>2018-10-21T11:15:36.000Z</time>
      </trkpt>
      <trkpt lat="49.452976" lon="8.723289">
        <ele>539.397124</ele>
        <time>2018-10-21T11:15:47.000Z</time>
      </trkpt>
      <trkpt lat="49.453070" lon="8.723273">
        <ele>539.838984</ele>
        <time>2018-10-21T11:16:03.000Z</time>
      </trkpt>
      <trkpt lat="49.453150" lon="8.723353">
        <ele>540.284788</ele>
        <time>2018-10-21T11:16:08.000Z</time>
      </trkpt>
      <trkpt lat="49.453243" lon="8.723316">
        <ele>540.733592</ele>
        <time>2018-10-21T11:16:22.000Z</time>
      </trkpt>
      <trkpt lat="49.453335" lon="8.723304">
        <ele>541.164970</ele>
        <time>2018-10-21T11:16:26.000Z</time>
      </trkpt>
      <trkpt lat="49.453260" lon="8.723227">
        <ele>541.586253</ele>
        <time>2018-10-21T11:16:54.000Z</time>
      </trkpt>
      <trkpt lat="49.453224" lon="8.723410">
        <ele>541.828000</ele>
        <time>2018-10-21T11:19:28.000Z</time>
      </trkpt>
      <trkpt lat="49.453327" lon="8.723375">
        <ele>541.944560</ele>
        <time>2018-10-21T11:20:05.000Z</time>
      </trkpt>
      <trkpt lat="49.453243" lon="8.723313">
        <ele>542.047512</ele>
        <time>2018-10-21T11:20:25.000Z</time>
      </trkpt>
      <trkpt lat="49.453270" lon="8.723452">
        <ele>542.151721</ele>
        <time>2018-10-21T11:20:54.000Z</time>
      </trkpt>
      <trkpt lat="49.453180" lon="8.723383">
        <ele>542.262839</ele>
        <time>2018-10-21T11:23:30.000Z</time>
      </trkpt>
      <trkpt lat="49.453160" lon="8.723518">
        <ele>542.362299</ele>
        <time>2018-10-21T11:25:54.000Z</time>
      </trkpt>
      <trkpt lat="49.453205" lon="8.723395">
        <ele>542.463685</ele>
        <time>2018-10-21T11:26:45.000Z</time>
      </trkpt>
      <trkpt lat="49.453300" lon="8.723389">
        <ele>542.568749</ele>
        <time>2018-10-21T11:28:52.000Z</time>
      </trkpt>
      <trkpt lat="49.453210" lon="8.723275">
        <ele>542.697576</ele>
        <time>2018-10-21T11:30:23.000Z</time>
      </trkpt>
      <trkpt lat="49.453262" lon="8.723392">
        <ele>542.799385</ele>
        <time>2018-10-21T11:31:00.000Z</time>
      </trkpt>
      <trkpt lat="49.453167" lon="8.723376">
        <ele>542.904988</ele>
        <time>2018-10-21T11:33:08.000Z</time>
      </trkpt>
      <trkpt lat="49.453070" lon="8.723363">
        <ele>543.012579</ele>
        <time>2018-10-21T11:33:19.000Z</time>
      </trkpt>
      <trkpt lat="49.452980" lon="8.723336">
        <ele>543.113903</ele>
        <time>2018-10-21T11:33:47.000Z</time>
      </trkpt>
      <trkpt lat="49.452885" lon="8.723347">
        <ele>543.219175</ele>
        <time>2018-10-21T11:34:02.000Z</time>
      </trkpt>
      <trkpt lat="49.452785" lon="8.723358">
        <ele>543.329958</ele>
        <time>2018-10-21T11:34:20.000Z</time>
      </trkpt>
      <trkpt lat="49.452682" lon="8.723376">
        <ele>543.444505</ele>
        <time>2018-10-21T11:34:27.000Z</time>
      </trkpt>
      <trkpt lat="49.452587" lon="8.723373">
        <ele>543.549503</ele>
        <time>2018-10-21T11:34:39.000Z</time>
      </trkpt>
      <trkpt lat="49.452500" lon="8.723343">
        <ele>543.648024</ele>
        <time>2018-10-21T11:34:53.000Z</time>
      </trkpt>
      <trkpt lat="49.452404" lon="8.723307">
        <ele>543.710738</ele>
        <time>2018-10-21T11:34:59.000Z</time>
      </trkpt>
      <trkpt lat="49.452340" lon="8.723200">
        <ele>543.711249</ele>
        <time>2018-10-21T11:35:20.000Z</time>
      </trkpt>
      <trkpt lat="49.452280" lon="8.723305">
        <ele>543.711740</ele>
        <time>2018-10-21T11:35:30.000Z</time>
      </trkpt>
      <trkpt lat="49.452183" lon="8.723398">
        <ele>543.712357</ele>
        <time>2018-10-21T11:35:36.000Z</time>
      </trkpt>
      <trkpt lat="49.452087" lon="8.723407">
        <ele>543.712877</ele>
        <time>2018-10-21T11:35:39.000Z</time>
      </trkpt>
      <trkpt lat="49.451990" lon="8.723383">
        <ele>543.713407</ele>
        <time>2018-10-21T11:35:45.000Z</time>
      </trkpt>
      <trkpt lat="49.451897" lon="8.723349">
        <ele>543.713924</ele>
        <time>2018-10-21T11:35:53.000Z</time>
      </trkpt>
      <trkpt lat="49.451805" lon="8.723375">
        <ele>543.714429</ele>
        <time>2018-10-21T11:36:16.000Z</time>
      </trkpt>
      <trkpt lat="49.451714" lon="8.723362">
        <ele>543.714923</ele>
        <time>2018-10-21T11:36:25.000Z</time>
      </trkpt>
      <trkpt lat="49.451622" lon="8.723342">
        <ele>543.715424</ele>
        <time>2018-10-21T11:36:32.000Z</time>
      </trkpt>
      <trkpt lat="49.451530" lon="8.723342">
        <ele>543.715921</ele>
        <time>2018-10-21T11:36:37.000Z</time>
      </trkpt>
      <trkpt lat="49.451427" lon="8.723362">
        <ele>543.716482</ele>
        <time>2018-10-21T11:36:43.000Z</time>
      </trkpt>
      <trkpt lat="49.451320" lon="8.723350">
        <ele>543.717062</ele>
        <time>2018-10-21T11:36:50.000Z</time>
      </trkpt>
      <trkpt lat="49.451230" lon="8.723418">
        <ele>543.717603</ele>
        <time>2018-10-21T11:37:03.000Z</time>
      </trkpt>
      <trkpt lat="49.451130" lon="8.723430">
        <ele>543.718145</ele>
        <time>2018-10-21T11:37:13.000Z</time>
      </trkpt>
      <trkpt lat="49.451040" lon="8.723469">
        <ele>543.718650</ele>
        <time>2018-10-21T11:37:18.000Z</time>
      </trkpt>
      <trkpt lat="49.450943" lon="8.723496">
        <ele>543.719183</ele>
        <time>2018-10-21T11:37:26.000Z</time>
      </trkpt>
      <trkpt lat="49.450850" lon="8.723521">
        <ele>543.719693</ele>
        <time>2018-10-21T11:37:35.000Z</time>
      </trkpt>
      <trkpt lat="49.450760" lon="8.723548">
        <ele>543.720188</ele>
        <time>2018-10-21T11:37:44.000Z</time>
      </trkpt>
      <trkpt lat="49.450653" lon="8.723558">
        <ele>542.781127</ele>
        <time>2018-10-21T11:37:50.000Z</time>
      </trkpt>
      <trkpt lat="49.450540" lon="8.723580">
        <ele>541.714022</ele>
        <time>2018-10-21T11:37:57.000Z</time>
      </trkpt>
      <trkpt lat="49.450470" lon="8.723685">
        <ele>540.798019</ele>
        <time>2018-10-21T11:38:05.000Z</time>
      </trkpt>
      <trkpt lat="49.450370" lon="8.723708">
        <ele>539.850738</ele>
        <time>2018-10-21T11:38:13.000Z</time>
      </trkpt>
      <trkpt lat="49.450270" lon="8.723759">
        <ele>538.863719</ele>
        <time>2018-10-21T11:38:19.000Z</time>
      </trkpt>
      <trkpt lat="49.450176" lon="8.723782">
        <ele>537.971993</ele>
        <time>2018-10-21T11:38:24.000Z</time>
      </trkpt>
      <trkpt lat="49.450092" lon="8.723850">
        <ele>537.082695</ele>
        <time>2018-10-21T11:38:31.000Z</time>
      </trkpt>
      <trkpt lat="49.449993" lon="8.723887">
        <ele>536.128213</ele>
        <time>2018-10-21T11:38:41.000Z</time>
      </trkpt>
      <trkpt lat="49.449890" lon="8.723917">
        <ele>535.146093</ele>
        <time>2018-10-21T11:38:48.000Z</time>
      </trkpt>
      <trkpt lat="49.449790" lon="8.723951">
        <ele>534.186613</ele>
        <time>2018-10-21T11:38:53.000Z</time>
      </trkpt>
      <trkpt lat="49.449710" lon="8.724020">
        <ele>533.327336</ele>
        <time>2018-10-21T11:39:02.000Z</time>
      </trkpt>
      <trkpt lat="49.449623" lon="8.724092">
        <ele>532.401779</ele>
        <time>2018-10-21T11:39:08.000Z</time>
      </trkpt>
      <trkpt lat="49.449547" lon="8.724187">
        <ele>531.484299</ele>
        <time>2018-10-21T11:39:15.000Z</time>
      </trkpt>
      <trkpt lat="49.449463" lon="8.724265">
        <ele>530.565051</ele>
        <time>2018-10-21T11:39:24.000Z</time>
      </trkpt>
      <trkpt lat="49.449383" lon="8.724325">
        <ele>529.731211</ele>
        <time>2018-10-21T11:39:32.000Z</time>
      </trkpt>
      <trkpt lat="49.449295" lon="8.724392">
        <ele>528.811300</ele>
        <time>2018-10-21T11:39:40.000Z</time>
      </trkpt>
      <trkpt lat="49.449220" lon="8.724463">
        <ele>527.986240</ele>
        <time>2018-10-21T11:39:46.000Z</time>
      </trkpt>
      <trkpt lat="49.449130" lon="8.724519">
        <ele>527.076685</ele>
        <time>2018-10-21T11:39:52.000Z</time>
      </trkpt>
      <trkpt lat="49.449070" lon="8.724640">
        <ele>526.981156</ele>
        <time>2018-10-21T11:39:59.000Z</time>
      </trkpt>
      <trkpt lat="49.449017" lon="8.724762">
        <ele>527.120034</ele>
        <time>2018-10-21T11:40:07.000Z</time>
      </trkpt>
      <trkpt lat="49.448944" lon="8.724852">
        <ele>527.256236</ele>
        <time>2018-10-21T11:40:14.000Z</time>
      </trkpt>
      <trkpt lat="49.448875" lon="8.724974">
        <ele>527.409286</ele>
        <time>2018-10-21T11:40:22.000Z</time>
      </trkpt>
      <trkpt lat="49.448820" lon="8.725092">
        <ele>527.546708</ele>
        <time>2018-10-21T11:40:30.000Z</time>
      </trkpt>
      <trkpt lat="49.448740" lon="8.725199">
        <ele>527.701049</ele>
        <time>2018-10-21T11:40:40.000Z</time>
      </trkpt>
      <trkpt lat="49.448654" lon="8.725298">
        <ele>527.857432</ele>
        <time>2018-10-21T11:40:46.000Z</time>
      </trkpt>
      <trkpt lat="49.448605" lon="8.725425">
        <ele>527.997210</ele>
        <time>2018-10-21T11:40:56.000Z</time>
      </trkpt>
      <trkpt lat="49.448547" lon="8.725545">
        <ele>528.138738</ele>
        <time>2018-10-21T11:41:11.000Z</time>
      </trkpt>
      <trkpt lat="49.448452" lon="8.725590">
        <ele>528.283453</ele>
        <time>2018-10-21T11:41:26.000Z</time>
      </trkpt>
      <trkpt lat="49.448357" lon="8.725618">
        <ele>528.424274</ele>
        <time>2018-10-21T11:41:39.000Z</time>
      </trkpt>
      <trkpt lat="49.448257" lon="8.725618">
        <ele>528.569858</ele>
        <time>2018-10-21T11:41:46.000Z</time>
      </trkpt>
      <trkpt lat="49.448170" lon="8.725632">
        <ele>528.697208</ele>
        <time>2018-10-21T11:41:56.000Z</time>
      </trkpt>
      <trkpt lat="49.448120" lon="8.725752">
        <ele>528.832112</ele>
        <time>2018-10-21T11:42:22.000Z</time>
      </trkpt>
      <trkpt lat="49.448030" lon="8.725715">
        <ele>528.967737</ele>
        <time>2018-10-21T11:42:32.000Z</time>
      </trkpt>
      <trkpt lat="49.447918" lon="8.725643">
        <ele>529.144460</ele>
        <time>2018-10-21T11:42:35.000Z</time>
      </trkpt>
      <trkpt lat="49.447807" lon="8.725683">
        <ele>529.310434</ele>
        <time>2018-10-21T11:42:40.000Z</time>
      </trkpt>
      <trkpt lat="49.447700" lon="8.725660">
        <ele>529.467723</ele>
        <time>2018-10-21T11:42:42.000Z</time>
      </trkpt>
      <trkpt lat="49.447582" lon="8.725627">
        <ele>528.586190</ele>
        <time>2018-10-21T11:42:46.000Z</time>
      </trkpt>
      <trkpt lat="49.447487" lon="8.725683">
        <ele>527.721451</ele>
        <time>2018-10-21T11:42:55.000Z</time>
      </trkpt>
      <trkpt lat="49.447376" lon="8.725665">
        <ele>526.772755</ele>
        <time>2018-10-21T11:43:01.000Z</time>
      </trkpt>
      <trkpt lat="49.447277" lon="8.725674">
        <ele>525.929816</ele>
        <time>2018-10-21T11:43:05.000Z</time>
      </trkpt>
      <trkpt lat="49.447178" lon="8.725665">
        <ele>525.086877</ele>
        <time>2018-10-21T11:43:14.000Z</time>
      </trkpt>
      <trkpt lat="49.447070" lon="8.725652">
        <ele>524.166103</ele>
        <time>2018-10-21T11:43:26.000Z</time>
      </trkpt>
      <trkpt lat="49.446980" lon="8.725612">
        <ele>523.369834</ele>
        <time>2018-10-21T11:43:32.000Z</time>
      </trkpt>
      <trkpt lat="49.446888" lon="8.725587">
        <ele>522.575752</ele>
        <time>2018-10-21T11:43:36.000Z</time>
      </trkpt>
      <trkpt lat="49.446796" lon="8.725542">
        <ele>521.755191</ele>
        <time>2018-10-21T11:43:40.000Z</time>
      </trkpt>
      <trkpt lat="49.446697" lon="8.725562">
        <ele>520.906493</ele>
        <time>2018-10-21T11:43:51.000Z</time>
      </trkpt>
      <trkpt lat="49.446598" lon="8.725542">
        <ele>520.057796</ele>
        <time>2018-10-21T11:44:01.000Z</time>
      </trkpt>
      <trkpt lat="49.446503" lon="8.725522">
        <ele>519.242796</ele>
        <time>2018-10-21T11:44:09.000Z</time>
      </trkpt>
      <trkpt lat="49.446415" lon="8.725465">
        <ele>518.431202</ele>
        <time>2018-10-21T11:44:21.000Z</time>
      </trkpt>
      <trkpt lat="49.446300" lon="8.725445">
        <ele>517.447508</ele>
        <time>2018-10-21T11:44:59.000Z</time>
      </trkpt>
      <trkpt lat="49.446228" lon="8.725340">
        <ele>516.604178</ele>
        <time>2018-10-21T11:45:05.000Z</time>
      </trkpt>
      <trkpt lat="49.446125" lon="8.725265">
        <ele>515.635557</ele>
        <time>2018-10-21T11:45:10.000Z</time>
      </trkpt>
      <trkpt lat="49.446022" lon="8.725248">
        <ele>514.755062</ele>
        <time>2018-10-21T11:45:14.000Z</time>
      </trkpt>
      <trkpt lat="49.445927" lon="8.725258">
        <ele>514.121215</ele>
        <time>2018-10-21T11:45:20.000Z</time>
      </trkpt>
      <trkpt lat="49.445835" lon="8.725226">
        <ele>513.872928</ele>
        <time>2018-10-21T11:45:27.000Z</time>
      </trkpt>
      <trkpt lat="49.445740" lon="8.725170">
        <ele>513.605122</ele>
        <time>2018-10-21T11:45:35.000Z</time>
      </trkpt>
      <trkpt lat="49.445644" lon="8.725132">
        <ele>513.344186</ele>
        <time>2018-10-21T11:45:40.000Z</time>
      </trkpt>
      <trkpt lat="49.445553" lon="8.725133">
        <ele>513.104640</ele>
        <time>2018-10-21T11:45:53.000Z</time>
      </trkpt>
      <trkpt lat="49.445465" lon="8.725081">
        <ele>512.856490</ele>
        <time>2018-10-21T11:46:01.000Z</time>
      </trkpt>
      <trkpt lat="49.445380" lon="8.725037">
        <ele>512.620412</ele>
        <time>2018-10-21T11:46:07.000Z</time>
      </trkpt>
      <trkpt lat="49.445297" lon="8.724977">
        <ele>512.379002</ele>
        <time>2018-10-21T11:46:09.000Z</time>
      </trkpt>
      <trkpt lat="49.445213" lon="8.724912">
        <ele>512.131481</ele>
        <time>2018-10-21T11:46:20.000Z</time>
      </trkpt>
      <trkpt lat="49.445120" lon="8.724816">
        <ele>511.836652</ele>
        <time>2018-10-21T11:46:29.000Z</time>
      </trkpt>
      <trkpt lat="49.445053" lon="8.724718">
        <ele>511.593269</ele>
        <time>2018-10-21T11:46:33.000Z</time>
      </trkpt>
      <trkpt lat="49.444965" lon="8.724678">
        <ele>511.351721</ele>
        <time>2018-10-21T11:46:42.000Z</time>
      </trkpt>
      <trkpt lat="49.444870" lon="8.724631">
        <ele>511.089033</ele>
        <time>2018-10-21T11:46:48.000Z</time>
      </trkpt>
      <trkpt lat="49.444786" lon="8.724546">
        <ele>510.824356</ele>
        <time>2018-10-21T11:46:53.000Z</time>
      </trkpt>
      <trkpt lat="49.444690" lon="8.724508">
        <ele>510.563420</ele>
        <time>2018-10-21T11:47:03.000Z</time>
      </trkpt>
      <trkpt lat="49.444607" lon="8.724448">
        <ele>510.322009</ele>
        <time>2018-10-21T11:47:12.000Z</time>
      </trkpt>
      <trkpt lat="49.444515" lon="8.724368">
        <ele>510.043811</ele>
        <time>2018-10-21T11:47:20.000Z</time>
      </trkpt>
      <trkpt lat="49.444410" lon="8.724352">
        <ele>509.766066</ele>
        <time>2018-10-21T11:47:24.000Z</time>
      </trkpt>
      <trkpt lat="49.444320" lon="8.724320">
        <ele>509.522910</ele>
        <time>2018-10-21T11:47:49.000Z</time>
      </trkpt>
      <trkpt lat="49.444256" lon="8.724227">
        <ele>509.218122</ele>
        <time>2018-10-21T11:47:59.000Z</time>
      </trkpt>
      <trkpt lat="49.444176" lon="8.724140">
        <ele>508.852123</ele>
        <time>2018-10-21T11:48:17.000Z</time>
      </trkpt>
      <trkpt lat="49.444100" lon="8.724055">
        <ele>508.501099</ele>
        <time>2018-10-21T11:48:42.000Z</time>
      </trkpt>
      <trkpt lat="49.444004" lon="8.723997">
        <ele>508.115814</ele>
        <time>2018-10-21T11:48:54.000Z</time>
      </trkpt>
      <trkpt lat="49.443920" lon="8.723913">
        <ele>507.741538</ele>
        <time>2018-10-21T11:49:01.000Z</time>
      </trkpt>
      <trkpt lat="49.443832" lon="8.723825">
        <ele>507.349439</ele>
        <time>2018-10-21T11:49:10.000Z</time>
      </trkpt>
      <trkpt lat="49.443768" lon="8.723728">
        <ele>507.013791</ele>
        <time>2018-10-21T11:49:21.000Z</time>
      </trkpt>
      <trkpt lat="49.443695" lon="8.723628">
        <ele>506.648617</ele>
        <time>2018-10-21T11:49:36.000Z</time>
      </trkpt>
      <trkpt lat="49.443630" lon="8.723527">
        <ele>506.303462</ele>
        <time>2018-10-21T11:49:41.000Z</time>
      </trkpt>
      <trkpt lat="49.443535" lon="8.723500">
        <ele>505.942581</ele>
        <time>2018-10-21T11:49:47.000Z</time>
      </trkpt>
      <trkpt lat="49.443440" lon="8.723480">
        <ele>505.584399</ele>
        <time>2018-10-21T11:49:56.000Z</time>
      </trkpt>
      <trkpt lat="49.443336" lon="8.723550">
        <ele>505.160333</ele>
        <time>2018-10-21T11:50:40.000Z</time>
      </trkpt>
      <trkpt lat="49.443310" lon="8.723410">
        <ele>504.806699</ele>
        <time>2018-10-21T11:50:50.000Z</time>
      </trkpt>
      <trkpt lat="49.443268" lon="8.723285">
        <ele>504.464954</ele>
        <time>2018-10-21T11:51:39.000Z</time>
      </trkpt>
      <trkpt lat="49.443184" lon="8.723222">
        <ele>504.115851</ele>
        <time>2018-10-21T11:51:47.000Z</time>
      </trkpt>
      <trkpt lat="49.443090" lon="8.723137">
        <ele>503.708519</ele>
        <time>2018-10-21T11:51:56.000Z</time>
      </trkpt>
      <trkpt lat="49.442990" lon="8.723057">
        <ele>503.287455</ele>
        <time>2018-10-21T11:52:03.000Z</time>
      </trkpt>
      <trkpt lat="49.442898" lon="8.722986">
        <ele>502.902950</ele>
        <time>2018-10-21T11:52:12.000Z</time>
      </trkpt>
      <trkpt lat="49.442814" lon="8.722912">
        <ele>502.860067</ele>
        <time>2018-10-21T11:52:20.000Z</time>
      </trkpt>
      <trkpt lat="49.442753" lon="8.722814">
        <ele>503.042359</ele>
        <time>2018-10-21T11:52:31.000Z</time>
      </trkpt>
      <trkpt lat="49.442680" lon="8.722718">
        <ele>503.240846</ele>
        <time>2018-10-21T11:52:42.000Z</time>
      </trkpt>
      <trkpt lat="49.442596" lon="8.722643">
        <ele>503.441568</ele>
        <time>2018-10-21T11:52:51.000Z</time>
      </trkpt>
      <trkpt lat="49.442500" lon="8.722582">
        <ele>503.656221</ele>
        <time>2018-10-21T11:52:59.000Z</time>
      </trkpt>
      <trkpt lat="49.442417" lon="8.722505">
        <ele>503.856532</ele>
        <time>2018-10-21T11:53:05.000Z</time>
      </trkpt>
      <trkpt lat="49.442345" lon="8.722422">
        <ele>504.042481</ele>
        <time>2018-10-21T11:53:10.000Z</time>
      </trkpt>
      <trkpt lat="49.442270" lon="8.722335">
        <ele>504.236614</ele>
        <time>2018-10-21T11:53:19.000Z</time>
      </trkpt>
      <trkpt lat="49.442184" lon="8.722237">
        <ele>504.457805</ele>
        <time>2018-10-21T11:53:25.000Z</time>
      </trkpt>
      <trkpt lat="49.442127" lon="8.722127">
        <ele>504.646807</ele>
        <time>2018-10-21T11:53:30.000Z</time>
      </trkpt>
      <trkpt lat="49.442028" lon="8.722060">
        <ele>504.870327</ele>
        <time>2018-10-21T11:53:34.000Z</time>
      </trkpt>
      <trkpt lat="49.441940" lon="8.722010">
        <ele>505.064196</ele>
        <time>2018-10-21T11:53:38.000Z</time>
      </trkpt>
      <trkpt lat="49.441868" lon="8.721902">
        <ele>505.272038</ele>
        <time>2018-10-21T11:53:46.000Z</time>
      </trkpt>
      <trkpt lat="49.441807" lon="8.721788">
        <ele>505.470421</ele>
        <time>2018-10-21T11:53:55.000Z</time>
      </trkpt>
      <trkpt lat="49.441750" lon="8.721666">
        <ele>505.672284</ele>
        <time>2018-10-21T11:54:03.000Z</time>
      </trkpt>
      <trkpt lat="49.441670" lon="8.721579">
        <ele>505.874764</ele>
        <time>2018-10-21T11:54:13.000Z</time>
      </trkpt>
      <trkpt lat="49.441605" lon="8.721475">
        <ele>506.068599</ele>
        <time>2018-10-21T11:54:20.000Z</time>
      </trkpt>
      <trkpt lat="49.441520" lon="8.721416">
        <ele>506.261317</ele>
        <time>2018-10-21T11:54:26.000Z</time>
      </trkpt>
      <trkpt lat="49.441437" lon="8.721352">
        <ele>506.453191</ele>
        <time>2018-10-21T11:54:36.000Z</time>
      </trkpt>
      <trkpt lat="49.441345" lon="8.721322">
        <ele>506.842591</ele>
        <time>2018-10-21T11:54:44.000Z</time>
      </trkpt>
      <trkpt lat="49.441254" lon="8.721320">
        <ele>507.230003</ele>
        <time>2018-10-21T11:54:50.000Z</time>
      </trkpt>
      <trkpt lat="49.441174" lon="8.721408">
        <ele>507.648694</ele>
        <time>2018-10-21T11:54:57.000Z</time>
      </trkpt>
      <trkpt lat="49.441080" lon="8.721388">
        <ele>508.052648</ele>
        <time>2018-10-21T11:55:04.000Z</time>
      </trkpt>
      <trkpt lat="49.440980" lon="8.721395">
        <ele>508.478773</ele>
        <time>2018-10-21T11:55:10.000Z</time>
      </trkpt>
      <trkpt lat="49.440880" lon="8.721427">
        <ele>508.913575</ele>
        <time>2018-10-21T11:55:16.000Z</time>
      </trkpt>
      <trkpt lat="49.440792" lon="8.721465">
        <ele>509.302664</ele>
        <time>2018-10-21T11:55:21.000Z</time>
      </trkpt>
      <trkpt lat="49.440697" lon="8.721463">
        <ele>509.707101</ele>
        <time>2018-10-21T11:55:28.000Z</time>
      </trkpt>
      <trkpt lat="49.440605" lon="8.721503">
        <ele>510.114081</ele>
        <time>2018-10-21T11:55:35.000Z</time>
      </trkpt>
      <trkpt lat="49.440525" lon="8.721573">
        <ele>510.505890</ele>
        <time>2018-10-21T11:55:41.000Z</time>
      </trkpt>
      <trkpt lat="49.440470" lon="8.721690">
        <ele>510.905508</ele>
        <time>2018-10-21T11:55:52.000Z</time>
      </trkpt>
      <trkpt lat="49.440390" lon="8.721771">
        <ele>511.313234</ele>
        <time>2018-10-21T11:56:00.000Z</time>
      </trkpt>
      <trkpt lat="49.440296" lon="8.721773">
        <ele>511.713415</ele>
        <time>2018-10-21T11:56:10.000Z</time>
      </trkpt>
      <trkpt lat="49.440210" lon="8.721775">
        <ele>512.079546</ele>
        <time>2018-10-21T11:56:18.000Z</time>
      </trkpt>
      <trkpt lat="49.440100" lon="8.721780">
        <ele>512.548003</ele>
        <time>2018-10-21T11:56:23.000Z</time>
      </trkpt>
      <trkpt lat="49.440000" lon="8.721762">
        <ele>512.976593</ele>
        <time>2018-10-21T11:56:29.000Z</time>
      </trkpt>
      <trkpt lat="49.439900" lon="8.721765">
        <ele>513.402358</ele>
        <time>2018-10-21T11:56:35.000Z</time>
      </trkpt>
      <trkpt lat="49.439796" lon="8.721828">
        <ele>513.878177</ele>
        <time>2018-10-21T11:56:45.000Z</time>
      </trkpt>
      <trkpt lat="49.439705" lon="8.721813">
        <ele>513.787276</ele>
        <time>2018-10-21T11:56:54.000Z</time>
      </trkpt>
      <trkpt lat="49.439606" lon="8.721808">
        <ele>512.837393</ele>
        <time>2018-10-21T11:57:00.000Z</time>
      </trkpt>
      <trkpt lat="49.439503" lon="8.721804">
        <ele>511.849348</ele>
        <time>2018-10-21T11:57:07.000Z</time>
      </trkpt>
      <trkpt lat="49.439415" lon="8.721858">
        <ele>510.940763</ele>
        <time>2018-10-21T11:57:15.000Z</time>
      </trkpt>
      <trkpt lat="49.439310" lon="8.721873">
        <ele>509.929519</ele>
        <time>2018-10-21T11:57:24.000Z</time>
      </trkpt>
      <trkpt lat="49.439217" lon="8.721820">
        <ele>508.978419</ele>
        <time>2018-10-21T11:57:28.000Z</time>
      </trkpt>
      <trkpt lat="49.439133" lon="8.721735">
        <ele>508.014152</ele>
        <time>2018-10-21T11:57:32.000Z</time>
      </trkpt>
      <trkpt lat="49.439045" lon="8.721673">
        <ele>507.085921</ele>
        <time>2018-10-21T11:57:36.000Z</time>
      </trkpt>
      <trkpt lat="49.438942" lon="8.721622">
        <ele>506.048257</ele>
        <time>2018-10-21T11:57:41.000Z</time>
      </trkpt>
      <trkpt lat="49.438860" lon="8.721560">
        <ele>505.172007</ele>
        <time>2018-10-21T11:57:48.000Z</time>
      </trkpt>
      <trkpt lat="49.438790" lon="8.721461">
        <ele>504.260024</ele>
        <time>2018-10-21T11:57:59.000Z</time>
      </trkpt>
      <trkpt lat="49.438694" lon="8.721394">
        <ele>503.249053</ele>
        <time>2018-10-21T11:58:11.000Z</time>
      </trkpt>
      <trkpt lat="49.438590" lon="8.721354">
        <ele>502.221016</ele>
        <time>2018-10-21T11:58:18.000Z</time>
      </trkpt>
      <trkpt lat="49.438507" lon="8.721295">
        <ele>501.344161</ele>
        <time>2018-10-21T11:58:23.000Z</time>
      </trkpt>
      <trkpt lat="49.438416" lon="8.721258">
        <ele>500.441520</ele>
        <time>2018-10-21T11:58:29.000Z</time>
      </trkpt>
      <trkpt lat="49.438324" lon="8.721220">
        <ele>499.528008</ele>
        <time>2018-10-21T11:58:41.000Z</time>
      </trkpt>
      <trkpt lat="49.438236" lon="8.721222">
        <ele>498.684030</ele>
        <time>2018-10-21T11:58:46.000Z</time>
      </trkpt>
      <trkpt lat="49.438145" lon="8.721200">
        <ele>497.800658</ele>
        <time>2018-10-21T11:58:56.000Z</time>
      </trkpt>
      <trkpt lat="49.438053" lon="8.721133">
        <ele>496.828097</ele>
        <time>2018-10-21T11:59:03.000Z</time>
      </trkpt>
      <trkpt lat="49.437940" lon="8.721133">
        <ele>495.827222</ele>
        <time>2018-10-21T11:59:08.000Z</time>
      </trkpt>
      <trkpt lat="49.437843" lon="8.721097">
        <ele>494.943397</ele>
        <time>2018-10-21T11:59:12.000Z</time>
      </trkpt>
      <trkpt lat="49.437737" lon="8.721084">
        <ele>494.001542</ele>
        <time>2018-10-21T11:59:18.000Z</time>
      </trkpt>
      <trkpt lat="49.437637" lon="8.721140">
        <ele>493.058912</ele>
        <time>2018-10-21T11:59:26.000Z</time>
      </trkpt>
      <trkpt lat="49.437540" lon="8.721128">
        <ele>492.196978</ele>
        <time>2018-10-21T11:59:30.000Z</time>
      </trkpt>
      <trkpt lat="49.437447" lon="8.721115">
        <ele>491.369853</ele>
        <time>2018-10-21T11:59:35.000Z</time>
      </trkpt>
      <trkpt lat="49.437366" lon="8.721189">
        <ele>490.535357</ele>
        <time>2018-10-21T11:59:41.000Z</time>
      </trkpt>
      <trkpt lat="49.437275" lon="8.721227">
        <ele>489.700154</ele>
        <time>2018-10-21T11:59:48.000Z</time>
      </trkpt>
      <trkpt lat="49.437195" lon="8.721338">
        <ele>488.745778</ele>
        <time>2018-10-21T11:59:57.000Z</time>
      </trkpt>
      <trkpt lat="49.437120" lon="8.721421">
        <ele>487.927345</ele>
        <time>2018-10-21T12:00:03.000Z</time>
      </trkpt>
      <trkpt lat="49.437060" lon="8.721557">
        <ele>486.980759</ele>
        <time>2018-10-21T12:00:09.000Z</time>
      </trkpt>
      <trkpt lat="49.437027" lon="8.721685">
        <ele>486.187683</ele>
        <time>2018-10-21T12:00:14.000Z</time>
      </trkpt>
      <trkpt lat="49.436970" lon="8.721790">
        <ele>485.399874</ele>
        <time>2018-10-21T12:00:18.000Z</time>
      </trkpt>
      <trkpt lat="49.436893" lon="8.721871">
        <ele>484.573557</ele>
        <time>2018-10-21T12:00:23.000Z</time>
      </trkpt>
      <trkpt lat="49.436817" lon="8.721960">
        <ele>483.727438</ele>
        <time>2018-10-21T12:00:29.000Z</time>
      </trkpt>
      <trkpt lat="49.436787" lon="8.722107">
        <ele>482.840033</ele>
        <time>2018-10-21T12:00:33.000Z</time>
      </trkpt>
      <trkpt lat="49.436733" lon="8.722219">
        <ele>482.036967</ele>
        <time>2018-10-21T12:00:40.000Z</time>
      </trkpt>
      <trkpt lat="49.436623" lon="8.722230">
        <ele>481.060606</ele>
        <time>2018-10-21T12:00:46.000Z</time>
      </trkpt>
      <trkpt lat="49.436560" lon="8.722337">
        <ele>480.465736</ele>
        <time>2018-10-21T12:00:55.000Z</time>
      </trkpt>
      <trkpt lat="49.436493" lon="8.722457">
        <ele>479.857611</ele>
        <time>2018-10-21T12:01:10.000Z</time>
      </trkpt>
      <trkpt lat="49.436417" lon="8.722540">
        <ele>479.306458</ele>
        <time>2018-10-21T12:01:15.000Z</time>
      </trkpt>
      <trkpt lat="49.436325" lon="8.722549">
        <ele>478.761395</ele>
        <time>2018-10-21T12:01:23.000Z</time>
      </trkpt>
      <trkpt lat="49.436234" lon="8.722565">
        <ele>478.219839</ele>
        <time>2018-10-21T12:01:30.000Z</time>
      </trkpt>
      <trkpt lat="49.436142" lon="8.722604">
        <ele>477.655585</ele>
        <time>2018-10-21T12:01:38.000Z</time>
      </trkpt>
      <trkpt lat="49.436054" lon="8.722600">
        <ele>477.135045</ele>
        <time>2018-10-21T12:01:44.000Z</time>
      </trkpt>
      <trkpt lat="49.435950" lon="8.722611">
        <ele>476.518677</ele>
        <time>2018-10-21T12:01:50.000Z</time>
      </trkpt>
      <trkpt lat="49.435875" lon="8.722705">
        <ele>475.946595</ele>
        <time>2018-10-21T12:02:00.000Z</time>
      </trkpt>
      <trkpt lat="49.435783" lon="8.722687">
        <ele>475.398247</ele>
        <time>2018-10-21T12:02:08.000Z</time>
      </trkpt>
      <trkpt lat="49.435690" lon="8.722693">
        <ele>474.847887</ele>
        <time>2018-10-21T12:02:14.000Z</time>
      </trkpt>
      <trkpt lat="49.435580" lon="8.722680">
        <ele>474.195578</ele>
        <time>2018-10-21T12:02:20.000Z</time>
      </trkpt>
      <trkpt lat="49.435493" lon="8.722707">
        <ele>473.670806</ele>
        <time>2018-10-21T12:02:29.000Z</time>
      </trkpt>
      <trkpt lat="49.435400" lon="8.722703">
        <ele>473.120715</ele>
        <time>2018-10-21T12:02:35.000Z</time>
      </trkpt>
      <trkpt lat="49.435295" lon="8.722690">
        <ele>472.497878</ele>
        <time>2018-10-21T12:02:48.000Z</time>
      </trkpt>
      <trkpt lat="49.435200" lon="8.722710">
        <ele>471.930937</ele>
        <time>2018-10-21T12:02:54.000Z</time>
      </trkpt>
      <trkpt lat="49.435110" lon="8.722713">
        <ele>471.398673</ele>
        <time>2018-10-21T12:03:02.000Z</time>
      </trkpt>
      <trkpt lat="49.435013" lon="8.722640">
        <ele>470.760144</ele>
        <time>2018-10-21T12:03:09.000Z</time>
      </trkpt>
      <trkpt lat="49.434917" lon="8.722560">
        <ele>469.952428</ele>
        <time>2018-10-21T12:03:15.000Z</time>
      </trkpt>
      <trkpt lat="49.434814" lon="8.722550">
        <ele>468.825260</ele>
        <time>2018-10-21T12:03:21.000Z</time>
      </trkpt>
      <trkpt lat="49.434723" lon="8.722510">
        <ele>467.791584</ele>
        <time>2018-10-21T12:03:27.000Z</time>
      </trkpt>
      <trkpt lat="49.434630" lon="8.722458">
        <ele>466.710809</ele>
        <time>2018-10-21T12:03:35.000Z</time>
      </trkpt>
      <trkpt lat="49.434555" lon="8.722377">
        <ele>465.709842</ele>
        <time>2018-10-21T12:03:44.000Z</time>
      </trkpt>
      <trkpt lat="49.434483" lon="8.722288">
        <ele>464.700913</ele>
        <time>2018-10-21T12:03:49.000Z</time>
      </trkpt>
      <trkpt lat="49.434414" lon="8.722194">
        <ele>463.694115</ele>
        <time>2018-10-21T12:03:58.000Z</time>
      </trkpt>
      <trkpt lat="49.434320" lon="8.722165">
        <ele>462.647023</ele>
        <time>2018-10-21T12:04:11.000Z</time>
      </trkpt>
      <trkpt lat="49.434265" lon="8.722049">
        <ele>461.627400</ele>
        <time>2018-10-21T12:04:25.000Z</time>
      </trkpt>
      <trkpt lat="49.434216" lon="8.721923">
        <ele>460.584672</ele>
        <time>2018-10-21T12:04:39.000Z</time>
      </trkpt>
      <trkpt lat="49.434130" lon="8.721849">
        <ele>459.508356</ele>
        <time>2018-10-21T12:04:54.000Z</time>
      </trkpt>
      <trkpt lat="49.434063" lon="8.721745">
        <ele>458.468603</ele>
        <time>2018-10-21T12:05:00.000Z</time>
      </trkpt>
      <trkpt lat="49.434006" lon="8.721633">
        <ele>457.458478</ele>
        <time>2018-10-21T12:05:07.000Z</time>
      </trkpt>
      <trkpt lat="49.433940" lon="8.721535">
        <ele>456.456438</ele>
        <time>2018-10-21T12:05:14.000Z</time>
      </trkpt>
      <trkpt lat="49.433876" lon="8.721415">
        <ele>455.354161</ele>
        <time>2018-10-21T12:05:26.000Z</time>
      </trkpt>
      <trkpt lat="49.433810" lon="8.721312">
        <ele>454.327133</ele>
        <time>2018-10-21T12:05:33.000Z</time>
      </trkpt>
      <trkpt lat="49.433730" lon="8.721222">
        <ele>453.244530</ele>
        <time>2018-10-21T12:05:42.000Z</time>
      </trkpt>
      <trkpt lat="49.433662" lon="8.721122">
        <ele>452.216895</ele>
        <time>2018-10-21T12:05:52.000Z</time>
      </trkpt>
      <trkpt lat="49.433594" lon="8.721017">
        <ele>451.164401</ele>
        <time>2018-10-21T12:06:03.000Z</time>
      </trkpt>
      <trkpt lat="49.433506" lon="8.720930">
        <ele>450.182763</ele>
        <time>2018-10-21T12:06:09.000Z</time>
      </trkpt>
      <trkpt lat="49.433468" lon="8.720794">
        <ele>449.395855</ele>
        <time>2018-10-21T12:06:24.000Z</time>
      </trkpt>
      <trkpt lat="49.433400" lon="8.720696">
        <ele>448.634002</ele>
        <time>2018-10-21T12:06:29.000Z</time>
      </trkpt>
      <trkpt lat="49.433327" lon="8.720602">
        <ele>447.855653</ele>
        <time>2018-10-21T12:06:38.000Z</time>
      </trkpt>
      <trkpt lat="49.433228" lon="8.720550">
        <ele>447.000456</ele>
        <time>2018-10-21T12:06:48.000Z</time>
      </trkpt>
      <trkpt lat="49.433130" lon="8.720522">
        <ele>446.185635</ele>
        <time>2018-10-21T12:07:00.000Z</time>
      </trkpt>
      <trkpt lat="49.433044" lon="8.720450">
        <ele>445.385172</ele>
        <time>2018-10-21T12:07:06.000Z</time>
      </trkpt>
      <trkpt lat="49.432957" lon="8.720417">
        <ele>444.652664</ele>
        <time>2018-10-21T12:07:18.000Z</time>
      </trkpt>
      <trkpt lat="49.432854" lon="8.720445">
        <ele>443.797625</ele>
        <time>2018-10-21T12:07:25.000Z</time>
      </trkpt>
      <trkpt lat="49.432750" lon="8.720388">
        <ele>442.895077</ele>
        <time>2018-10-21T12:07:31.000Z</time>
      </trkpt>
      <trkpt lat="49.432655" lon="8.720320">
        <ele>442.038472</ele>
        <time>2018-10-21T12:07:38.000Z</time>
      </trkpt>
      <trkpt lat="49.432564" lon="8.720324">
        <ele>441.294281</ele>
        <time>2018-10-21T12:07:45.000Z</time>
      </trkpt>
      <trkpt lat="49.432472" lon="8.720362">
        <ele>440.515558</ele>
        <time>2018-10-21T12:07:56.000Z</time>
      </trkpt>
      <trkpt lat="49.432373" lon="8.720377">
        <ele>439.702355</ele>
        <time>2018-10-21T12:08:14.000Z</time>
      </trkpt>
      <trkpt lat="49.432293" lon="8.720458">
        <ele>438.919343</ele>
        <time>2018-10-21T12:08:17.000Z</time>
      </trkpt>
      <trkpt lat="49.432198" lon="8.720442">
        <ele>438.138113</ele>
        <time>2018-10-21T12:08:22.000Z</time>
      </trkpt>
      <trkpt lat="49.432100" lon="8.720482">
        <ele>437.309260</ele>
        <time>2018-10-21T12:08:30.000Z</time>
      </trkpt>
      <trkpt lat="49.432102" lon="8.720634">
        <ele>436.501012</ele>
        <time>2018-10-21T12:08:42.000Z</time>
      </trkpt>
      <trkpt lat="49.432014" lon="8.720620">
        <ele>435.750909</ele>
        <time>2018-10-21T12:08:52.000Z</time>
      </trkpt>
      <trkpt lat="49.431984" lon="8.720457">
        <ele>434.716331</ele>
        <time>2018-10-21T12:09:05.000Z</time>
      </trkpt>
      <trkpt lat="49.431885" lon="8.720382">
        <ele>433.679937</ele>
        <time>2018-10-21T12:09:09.000Z</time>
      </trkpt>
      <trkpt lat="49.431793" lon="8.720348">
        <ele>432.791387</ele>
        <time>2018-10-21T12:09:15.000Z</time>
      </trkpt>
      <trkpt lat="49.431705" lon="8.720290">
        <ele>431.892286</ele>
        <time>2018-10-21T12:09:24.000Z</time>
      </trkpt>
      <trkpt lat="49.431675" lon="8.720152">
        <ele>431.003641</ele>
        <time>2018-10-21T12:09:32.000Z</time>
      </trkpt>
      <trkpt lat="49.431576" lon="8.720085">
        <ele>429.987894</ele>
        <time>2018-10-21T12:09:42.000Z</time>
      </trkpt>
      <trkpt lat="49.431470" lon="8.720070">
        <ele>428.988271</ele>
        <time>2018-10-21T12:10:01.000Z</time>
      </trkpt>
      <trkpt lat="49.431442" lon="8.719915">
        <ele>428.005797</ele>
        <time>2018-10-21T12:10:10.000Z</time>
      </trkpt>
      <trkpt lat="49.431396" lon="8.719784">
        <ele>427.096568</ele>
        <time>2018-10-21T12:10:23.000Z</time>
      </trkpt>
      <trkpt lat="49.431320" lon="8.719693">
        <ele>426.192003</ele>
        <time>2018-10-21T12:10:30.000Z</time>
      </trkpt>
      <trkpt lat="49.431297" lon="8.719545">
        <ele>425.262670</ele>
        <time>2018-10-21T12:10:39.000Z</time>
      </trkpt>
      <trkpt lat="49.431230" lon="8.719459">
        <ele>424.443076</ele>
        <time>2018-10-21T12:10:57.000Z</time>
      </trkpt>
      <trkpt lat="49.431270" lon="8.719328">
        <ele>423.559223</ele>
        <time>2018-10-21T12:11:07.000Z</time>
      </trkpt>
      <trkpt lat="49.431225" lon="8.719209">
        <ele>422.718522</ele>
        <time>2018-10-21T12:11:15.000Z</time>
      </trkpt>
      <trkpt lat="49.431232" lon="8.719055">
        <ele>421.775696</ele>
        <time>2018-10-21T12:11:26.000Z</time>
      </trkpt>
      <trkpt lat="49.431217" lon="8.718915">
        <ele>420.909141</ele>
        <time>2018-10-21T12:11:38.000Z</time>
      </trkpt>
      <trkpt lat="49.431200" lon="8.718753">
        <ele>419.906953</ele>
        <time>2018-10-21T12:11:50.000Z</time>
      </trkpt>
      <trkpt lat="49.431156" lon="8.718608">
        <ele>419.017346</ele>
        <time>2018-10-21T12:11:57.000Z</time>
      </trkpt>
      <trkpt lat="49.431103" lon="8.718476">
        <ele>418.669979</ele>
        <time>2018-10-21T12:12:10.000Z</time>
      </trkpt>
      <trkpt lat="49.431070" lon="8.718338">
        <ele>418.340742</ele>
        <time>2018-10-21T12:12:19.000Z</time>
      </trkpt>
      <trkpt lat="49.431026" lon="8.718208">
        <ele>418.012584</ele>
        <time>2018-10-21T12:12:26.000Z</time>
      </trkpt>
      <trkpt lat="49.430706" lon="8.717798">
        <ele>416.578444</ele>
        <time>2018-10-21T12:13:09.000Z</time>
      </trkpt>
      <trkpt lat="49.430664" lon="8.717644">
        <ele>416.204510</ele>
        <time>2018-10-21T12:13:13.000Z</time>
      </trkpt>
      <trkpt lat="49.430610" lon="8.717513">
        <ele>415.857213</ele>
        <time>2018-10-21T12:13:19.000Z</time>
      </trkpt>
      <trkpt lat="49.430557" lon="8.717377">
        <ele>415.502191</ele>
        <time>2018-10-21T12:13:28.000Z</time>
      </trkpt>
      <trkpt lat="49.430500" lon="8.717261">
        <ele>415.176637</ele>
        <time>2018-10-21T12:13:35.000Z</time>
      </trkpt>
      <trkpt lat="49.430424" lon="8.717158">
        <ele>414.827830</ele>
        <time>2018-10-21T12:13:44.000Z</time>
      </trkpt>
      <trkpt lat="49.430363" lon="8.717049">
        <ele>414.505830</ele>
        <time>2018-10-21T12:13:51.000Z</time>
      </trkpt>
      <trkpt lat="49.430286" lon="8.716965">
        <ele>414.180769</ele>
        <time>2018-10-21T12:13:59.000Z</time>
      </trkpt>
      <trkpt lat="49.430244" lon="8.716840">
        <ele>413.865716</ele>
        <time>2018-10-21T12:14:07.000Z</time>
      </trkpt>
      <trkpt lat="49.430176" lon="8.716730">
        <ele>413.525883</ele>
        <time>2018-10-21T12:14:13.000Z</time>
      </trkpt>
      <trkpt lat="49.430100" lon="8.716648">
        <ele>413.206216</ele>
        <time>2018-10-21T12:14:19.000Z</time>
      </trkpt>
      <trkpt lat="49.430054" lon="8.716523">
        <ele>412.884608</ele>
        <time>2018-10-21T12:14:26.000Z</time>
      </trkpt>
      <trkpt lat="49.429996" lon="8.716412">
        <ele>411.541194</ele>
        <time>2018-10-21T12:14:38.000Z</time>
      </trkpt>
      <trkpt lat="49.429910" lon="8.716316">
        <ele>409.964121</ele>
        <time>2018-10-21T12:14:47.000Z</time>
      </trkpt>
      <trkpt lat="49.429832" lon="8.716224">
        <ele>408.505289</ele>
        <time>2018-10-21T12:14:54.000Z</time>
      </trkpt>
      <trkpt lat="49.429752" lon="8.716145">
        <ele>407.094363</ele>
        <time>2018-10-21T12:14:59.000Z</time>
      </trkpt>
      <trkpt lat="49.429672" lon="8.716072">
        <ele>405.713870</ele>
        <time>2018-10-21T12:15:02.000Z</time>
      </trkpt>
      <trkpt lat="49.429573" lon="8.716057">
        <ele>404.237633</ele>
        <time>2018-10-21T12:15:06.000Z</time>
      </trkpt>
      <trkpt lat="49.429490" lon="8.715973">
        <ele>402.763075</ele>
        <time>2018-10-21T12:15:13.000Z</time>
      </trkpt>
      <trkpt lat="49.429447" lon="8.715835">
        <ele>401.286210</ele>
        <time>2018-10-21T12:15:24.000Z</time>
      </trkpt>
      <trkpt lat="49.429375" lon="8.715743">
        <ele>399.896961</ele>
        <time>2018-10-21T12:15:31.000Z</time>
      </trkpt>
      <trkpt lat="49.429325" lon="8.715623">
        <ele>398.521496</ele>
        <time>2018-10-21T12:15:38.000Z</time>
      </trkpt>
      <trkpt lat="49.429264" lon="8.715513">
        <ele>397.126310</ele>
        <time>2018-10-21T12:15:46.000Z</time>
      </trkpt>
      <trkpt lat="49.429203" lon="8.715402">
        <ele>395.723766</ele>
        <time>2018-10-21T12:15:51.000Z</time>
      </trkpt>
      <trkpt lat="49.429146" lon="8.715283">
        <ele>394.297375</ele>
        <time>2018-10-21T12:16:00.000Z</time>
      </trkpt>
      <trkpt lat="49.429054" lon="8.715263">
        <ele>392.918552</ele>
        <time>2018-10-21T12:16:41.000Z</time>
      </trkpt>
      <trkpt lat="49.428974" lon="8.715143">
        <ele>391.260011</ele>
        <time>2018-10-21T12:17:02.000Z</time>
      </trkpt>
      <trkpt lat="49.429035" lon="8.715245">
        <ele>389.922637</ele>
        <time>2018-10-21T12:17:33.000Z</time>
      </trkpt>
      <trkpt lat="49.428960" lon="8.715062">
        <ele>387.834990</ele>
        <time>2018-10-21T12:19:27.000Z</time>
      </trkpt>
      <trkpt lat="49.429016" lon="8.715255">
        <ele>386.247312</ele>
        <time>2018-10-21T12:19:48.000Z</time>
      </trkpt>
      <trkpt lat="49.429060" lon="8.715379">
        <ele>386.468774</ele>
        <time>2018-10-21T12:20:24.000Z</time>
      </trkpt>
      <trkpt lat="49.429150" lon="8.715425">
        <ele>386.697402</ele>
        <time>2018-10-21T12:21:20.000Z</time>
      </trkpt>
      <trkpt lat="49.429173" lon="8.715272">
        <ele>386.943604</ele>
        <time>2018-10-21T12:21:59.000Z</time>
      </trkpt>
      <trkpt lat="49.429170" lon="8.715127">
        <ele>387.171053</ele>
        <time>2018-10-21T12:22:05.000Z</time>
      </trkpt>
      <trkpt lat="49.429146" lon="8.714992">
        <ele>387.390475</ele>
        <time>2018-10-21T12:22:13.000Z</time>
      </trkpt>
      <trkpt lat="49.429115" lon="8.714862">
        <ele>387.607560</ele>
        <time>2018-10-21T12:22:23.000Z</time>
      </trkpt>
      <trkpt lat="49.429080" lon="8.714720">
        <ele>387.845643</ele>
        <time>2018-10-21T12:22:33.000Z</time>
      </trkpt>
      <trkpt lat="49.429020" lon="8.714595">
        <ele>388.089215</ele>
        <time>2018-10-21T12:22:42.000Z</time>
      </trkpt>
      <trkpt lat="49.428970" lon="8.714470">
        <ele>388.319291</ele>
        <time>2018-10-21T12:22:52.000Z</time>
      </trkpt>
      <trkpt lat="49.428925" lon="8.714343">
        <ele>388.546038</ele>
        <time>2018-10-21T12:22:59.000Z</time>
      </trkpt>
      <trkpt lat="49.428905" lon="8.714203">
        <ele>388.770767</ele>
        <time>2018-10-21T12:23:08.000Z</time>
      </trkpt>
      <trkpt lat="49.428850" lon="8.714078">
        <ele>389.007382</ele>
        <time>2018-10-21T12:23:15.000Z</time>
      </trkpt>
      <trkpt lat="49.428802" lon="8.713948">
        <ele>389.241755</ele>
        <time>2018-10-21T12:23:24.000Z</time>
      </trkpt>
      <trkpt lat="49.428790" lon="8.713808">
        <ele>389.463150</ele>
        <time>2018-10-21T12:23:31.000Z</time>
      </trkpt>
      <trkpt lat="49.428757" lon="8.713661">
        <ele>389.706965</ele>
        <time>2018-10-21T12:23:40.000Z</time>
      </trkpt>
      <trkpt lat="49.428690" lon="8.713556">
        <ele>389.937587</ele>
        <time>2018-10-21T12:23:46.000Z</time>
      </trkpt>
      <trkpt lat="49.428640" lon="8.713430">
        <ele>390.169001</ele>
        <time>2018-10-21T12:23:56.000Z</time>
      </trkpt>
      <trkpt lat="49.428590" lon="8.713310">
        <ele>390.392440</ele>
        <time>2018-10-21T12:24:02.000Z</time>
      </trkpt>
      <trkpt lat="49.428540" lon="8.713188">
        <ele>390.165623</ele>
        <time>2018-10-21T12:24:07.000Z</time>
      </trkpt>
      <trkpt lat="49.428470" lon="8.713083">
        <ele>389.318143</ele>
        <time>2018-10-21T12:24:14.000Z</time>
      </trkpt>
      <trkpt lat="49.428425" lon="8.712963">
        <ele>388.537418</ele>
        <time>2018-10-21T12:24:23.000Z</time>
      </trkpt>
      <trkpt lat="49.428383" lon="8.712823">
        <ele>387.668439</ele>
        <time>2018-10-21T12:24:30.000Z</time>
      </trkpt>
      <trkpt lat="49.428320" lon="8.712702">
        <ele>386.794837</ele>
        <time>2018-10-21T12:24:38.000Z</time>
      </trkpt>
      <trkpt lat="49.428270" lon="8.712573">
        <ele>385.948434</ele>
        <time>2018-10-21T12:24:48.000Z</time>
      </trkpt>
      <trkpt lat="49.428253" lon="8.712437">
        <ele>385.167866</ele>
        <time>2018-10-21T12:24:57.000Z</time>
      </trkpt>
      <trkpt lat="49.428185" lon="8.712334">
        <ele>384.340652</ele>
        <time>2018-10-21T12:25:04.000Z</time>
      </trkpt>
      <trkpt lat="49.428120" lon="8.712216">
        <ele>383.469083</ele>
        <time>2018-10-21T12:25:11.000Z</time>
      </trkpt>
      <trkpt lat="49.428097" lon="8.712065">
        <ele>382.594969</ele>
        <time>2018-10-21T12:25:19.000Z</time>
      </trkpt>
      <trkpt lat="49.428047" lon="8.711926">
        <ele>381.699680</ele>
        <time>2018-10-21T12:25:26.000Z</time>
      </trkpt>
      <trkpt lat="49.427980" lon="8.711833">
        <ele>380.917451</ele>
        <time>2018-10-21T12:25:32.000Z</time>
      </trkpt>
      <trkpt lat="49.427914" lon="8.711714">
        <ele>380.035974</ele>
        <time>2018-10-21T12:25:41.000Z</time>
      </trkpt>
      <trkpt lat="49.427840" lon="8.711585">
        <ele>379.066489</ele>
        <time>2018-10-21T12:25:48.000Z</time>
      </trkpt>
      <trkpt lat="49.427807" lon="8.711440">
        <ele>378.200626</ele>
        <time>2018-10-21T12:25:56.000Z</time>
      </trkpt>
      <trkpt lat="49.427753" lon="8.711313">
        <ele>377.345416</ele>
        <time>2018-10-21T12:26:02.000Z</time>
      </trkpt>
      <trkpt lat="49.427685" lon="8.711186">
        <ele>376.418241</ele>
        <time>2018-10-21T12:26:10.000Z</time>
      </trkpt>
      <trkpt lat="49.427650" lon="8.711052">
        <ele>375.604338</ele>
        <time>2018-10-21T12:26:16.000Z</time>
      </trkpt>
      <trkpt lat="49.427616" lon="8.710923">
        <ele>374.952320</ele>
        <time>2018-10-21T12:26:26.000Z</time>
      </trkpt>
      <trkpt lat="49.427550" lon="8.710815">
        <ele>375.094580</ele>
        <time>2018-10-21T12:26:33.000Z</time>
      </trkpt>
      <trkpt lat="49.427510" lon="8.710693">
        <ele>375.225734</ele>
        <time>2018-10-21T12:26:40.000Z</time>
      </trkpt>
      <trkpt lat="49.427464" lon="8.710564">
        <ele>375.366960</ele>
        <time>2018-10-21T12:26:50.000Z</time>
      </trkpt>
      <trkpt lat="49.427400" lon="8.710459">
        <ele>375.505100</ele>
        <time>2018-10-21T12:26:55.000Z</time>
      </trkpt>
      <trkpt lat="49.427315" lon="8.710399">
        <ele>375.643145</ele>
        <time>2018-10-21T12:27:02.000Z</time>
      </trkpt>
      <trkpt lat="49.427273" lon="8.710261">
        <ele>375.789406</ele>
        <time>2018-10-21T12:27:12.000Z</time>
      </trkpt>
      <trkpt lat="49.427177" lon="8.710212">
        <ele>375.938700</ele>
        <time>2018-10-21T12:27:26.000Z</time>
      </trkpt>
      <trkpt lat="49.427105" lon="8.710112">
        <ele>376.081907</ele>
        <time>2018-10-21T12:27:36.000Z</time>
      </trkpt>
      <trkpt lat="49.427128" lon="8.709971">
        <ele>376.221455</ele>
        <time>2018-10-21T12:27:51.000Z</time>
      </trkpt>
      <trkpt lat="49.427040" lon="8.709911">
        <ele>376.363536</ele>
        <time>2018-10-21T12:28:20.000Z</time>
      </trkpt>
      <trkpt lat="49.426952" lon="8.709858">
        <ele>376.503028</ele>
        <time>2018-10-21T12:28:33.000Z</time>
      </trkpt>
      <trkpt lat="49.426888" lon="8.709746">
        <ele>376.646146</ele>
        <time>2018-10-21T12:28:49.000Z</time>
      </trkpt>
      <trkpt lat="49.426826" lon="8.709626">
        <ele>376.793265</ele>
        <time>2018-10-21T12:29:00.000Z</time>
      </trkpt>
      <trkpt lat="49.426674" lon="8.709480">
        <ele>377.057791</ele>
        <time>2018-10-21T12:29:33.000Z</time>
      </trkpt>
      <trkpt lat="49.426598" lon="8.709400">
        <ele>377.193733</ele>
        <time>2018-10-21T12:29:47.000Z</time>
      </trkpt>
      <trkpt lat="49.426514" lon="8.709343">
        <ele>377.329250</ele>
        <time>2018-10-21T12:30:06.000Z</time>
      </trkpt>
      <trkpt lat="49.426426" lon="8.709251">
        <ele>377.486316</ele>
        <time>2018-10-21T12:30:38.000Z</time>
      </trkpt>
      <trkpt lat="49.426270" lon="8.709023">
        <ele>380.053155</ele>
        <time>2018-10-21T12:31:05.000Z</time>
      </trkpt>
      <trkpt lat="49.426205" lon="8.708914">
        <ele>381.671452</ele>
        <time>2018-10-21T12:31:15.000Z</time>
      </trkpt>
      <trkpt lat="49.426125" lon="8.708834">
        <ele>383.277126</ele>
        <time>2018-10-21T12:31:27.000Z</time>
      </trkpt>
      <trkpt lat="49.426056" lon="8.708725">
        <ele>384.941646</ele>
        <time>2018-10-21T12:31:40.000Z</time>
      </trkpt>
      <trkpt lat="49.425964" lon="8.708669">
        <ele>386.606452</ele>
        <time>2018-10-21T12:31:49.000Z</time>
      </trkpt>
      <trkpt lat="49.425880" lon="8.708607">
        <ele>388.174186</ele>
        <time>2018-10-21T12:32:00.000Z</time>
      </trkpt>
      <trkpt lat="49.425790" lon="8.708547">
        <ele>389.824674</ele>
        <time>2018-10-21T12:32:14.000Z</time>
      </trkpt>
      <trkpt lat="49.425728" lon="8.708437">
        <ele>391.417559</ele>
        <time>2018-10-21T12:32:25.000Z</time>
      </trkpt>
      <trkpt lat="49.425640" lon="8.708377">
        <ele>393.037230</ele>
        <time>2018-10-21T12:32:34.000Z</time>
      </trkpt>
      <trkpt lat="49.425550" lon="8.708345">
        <ele>394.591452</ele>
        <time>2018-10-21T12:32:45.000Z</time>
      </trkpt>
      <trkpt lat="49.425470" lon="8.708272">
        <ele>396.156682</ele>
        <time>2018-10-21T12:32:54.000Z</time>
      </trkpt>
      <trkpt lat="49.425423" lon="8.708145">
        <ele>397.755741</ele>
        <time>2018-10-21T12:33:15.000Z</time>
      </trkpt>
      <trkpt lat="49.425346" lon="8.708060">
        <ele>399.350635</ele>
        <time>2018-10-21T12:33:29.000Z</time>
      </trkpt>
      <trkpt lat="49.425266" lon="8.707978">
        <ele>400.968356</ele>
        <time>2018-10-21T12:33:39.000Z</time>
      </trkpt>
      <trkpt lat="49.425224" lon="8.707845">
        <ele>402.586338</ele>
        <time>2018-10-21T12:33:48.000Z</time>
      </trkpt>
      <trkpt lat="49.425150" lon="8.707740">
        <ele>404.280612</ele>
        <time>2018-10-21T12:34:00.000Z</time>
      </trkpt>
      <trkpt lat="49.425114" lon="8.707605">
        <ele>405.877354</ele>
        <time>2018-10-21T12:34:23.000Z</time>
      </trkpt>
      <trkpt lat="49.425050" lon="8.707494">
        <ele>407.500663</ele>
        <time>2018-10-21T12:34:34.000Z</time>
      </trkpt>
      <trkpt lat="49.424860" lon="8.707355">
        <ele>409.916648</ele>
        <time>2018-10-21T12:35:21.000Z</time>
      </trkpt>
      <trkpt lat="49.424774" lon="8.707400">
        <ele>410.906590</ele>
        <time>2018-10-21T12:35:36.000Z</time>
      </trkpt>
      <trkpt lat="49.424725" lon="8.707185">
        <ele>412.521342</ele>
        <time>2018-10-21T12:36:17.000Z</time>
      </trkpt>
      <trkpt lat="49.424675" lon="8.707050">
        <ele>413.622469</ele>
        <time>2018-10-21T12:36:31.000Z</time>
      </trkpt>
      <trkpt lat="49.424650" lon="8.706899">
        <ele>414.726882</ele>
        <time>2018-10-21T12:36:44.000Z</time>
      </trkpt>
      <trkpt lat="49.424652" lon="8.706760">
        <ele>415.712353</ele>
        <time>2018-10-21T12:36:56.000Z</time>
      </trkpt>
      <trkpt lat="49.424686" lon="8.706602">
        <ele>416.891951</ele>
        <time>2018-10-21T12:37:43.000Z</time>
      </trkpt>
      <trkpt lat="49.424778" lon="8.706607">
        <ele>417.895109</ele>
        <time>2018-10-21T12:37:58.000Z</time>
      </trkpt>
      <trkpt lat="49.424877" lon="8.706640">
        <ele>418.998987</ele>
        <time>2018-10-21T12:38:11.000Z</time>
      </trkpt>
      <trkpt lat="49.424990" lon="8.706625">
        <ele>420.234940</ele>
        <time>2018-10-21T12:38:28.000Z</time>
      </trkpt>
      <trkpt lat="49.425087" lon="8.706600">
        <ele>421.306708</ele>
        <time>2018-10-21T12:38:38.000Z</time>
      </trkpt>
      <trkpt lat="49.425175" lon="8.706529">
        <ele>422.389679</ele>
        <time>2018-10-21T12:38:51.000Z</time>
      </trkpt>
      <trkpt lat="49.425236" lon="8.706410">
        <ele>423.463588</ele>
        <time>2018-10-21T12:39:05.000Z</time>
      </trkpt>
      <trkpt lat="49.425330" lon="8.706353">
        <ele>424.564710</ele>
        <time>2018-10-21T12:39:22.000Z</time>
      </trkpt>
      <trkpt lat="49.425430" lon="8.706331">
        <ele>425.665520</ele>
        <time>2018-10-21T12:39:38.000Z</time>
      </trkpt>
      <trkpt lat="49.425520" lon="8.706371">
        <ele>426.686415</ele>
        <time>2018-10-21T12:39:50.000Z</time>
      </trkpt>
      <trkpt lat="49.425610" lon="8.706342">
        <ele>427.582157</ele>
        <time>2018-10-21T12:40:05.000Z</time>
      </trkpt>
      <trkpt lat="49.425640" lon="8.706202">
        <ele>428.161220</ele>
        <time>2018-10-21T12:40:28.000Z</time>
      </trkpt>
      <trkpt lat="49.425728" lon="8.706242">
        <ele>428.715460</ele>
        <time>2018-10-21T12:41:18.000Z</time>
      </trkpt>
      <trkpt lat="49.425823" lon="8.706244">
        <ele>429.289291</ele>
        <time>2018-10-21T12:41:29.000Z</time>
      </trkpt>
      <trkpt lat="49.425884" lon="8.706348">
        <ele>429.839433</ele>
        <time>2018-10-21T12:42:11.000Z</time>
      </trkpt>
      <trkpt lat="49.425976" lon="8.706398">
        <ele>430.428786</ele>
        <time>2018-10-21T12:42:31.000Z</time>
      </trkpt>
      <trkpt lat="49.425915" lon="8.706507">
        <ele>430.993668</ele>
        <time>2018-10-21T12:42:49.000Z</time>
      </trkpt>
      <trkpt lat="49.425987" lon="8.706598">
        <ele>431.556609</ele>
        <time>2018-10-21T12:43:04.000Z</time>
      </trkpt>
      <trkpt lat="49.425980" lon="8.706457">
        <ele>432.112129</ele>
        <time>2018-10-21T12:43:30.000Z</time>
      </trkpt>
      <trkpt lat="49.425934" lon="8.706318">
        <ele>432.724797</ele>
        <time>2018-10-21T12:43:52.000Z</time>
      </trkpt>
      <trkpt lat="49.425907" lon="8.706185">
        <ele>433.272137</ele>
        <time>2018-10-21T12:44:05.000Z</time>
      </trkpt>
      <trkpt lat="49.425827" lon="8.706012">
        <ele>434.106012</ele>
        <time>2018-10-21T12:46:31.000Z</time>
      </trkpt>
      <trkpt lat="49.425957" lon="8.705945">
        <ele>434.934121</ele>
        <time>2018-10-21T12:47:30.000Z</time>
      </trkpt>
      <trkpt lat="49.425846" lon="8.705994">
        <ele>435.631621</ele>
        <time>2018-10-21T12:50:27.000Z</time>
      </trkpt>
      <trkpt lat="49.425880" lon="8.705865">
        <ele>436.178416</ele>
        <time>2018-10-21T12:51:10.000Z</time>
      </trkpt>
      <trkpt lat="49.425820" lon="8.705998">
        <ele>436.814271</ele>
        <time>2018-10-21T12:51:29.000Z</time>
      </trkpt>
      <trkpt lat="49.425785" lon="8.706132">
        <ele>437.381542</ele>
        <time>2018-10-21T12:51:42.000Z</time>
      </trkpt>
      <trkpt lat="49.425694" lon="8.706117">
        <ele>437.934309</ele>
        <time>2018-10-21T12:52:11.000Z</time>
      </trkpt>
      <trkpt lat="49.425613" lon="8.706197">
        <ele>438.089549</ele>
        <time>2018-10-21T12:53:23.000Z</time>
      </trkpt>
      <trkpt lat="49.425520" lon="8.706193">
        <ele>437.468412</ele>
        <time>2018-10-21T12:53:55.000Z</time>
      </trkpt>
      <trkpt lat="49.425434" lon="8.706245">
        <ele>436.851444</ele>
        <time>2018-10-21T12:54:07.000Z</time>
      </trkpt>
      <trkpt lat="49.425340" lon="8.706248">
        <ele>436.223738</ele>
        <time>2018-10-21T12:54:22.000Z</time>
      </trkpt>
      <trkpt lat="49.425247" lon="8.706280">
        <ele>435.587484</ele>
        <time>2018-10-21T12:54:44.000Z</time>
      </trkpt>
      <trkpt lat="49.425150" lon="8.706280">
        <ele>434.939885</ele>
        <time>2018-10-21T12:54:53.000Z</time>
      </trkpt>
      <trkpt lat="49.425050" lon="8.706320">
        <ele>434.250031</ele>
        <time>2018-10-21T12:55:03.000Z</time>
      </trkpt>
      <trkpt lat="49.424953" lon="8.706318">
        <ele>433.602374</ele>
        <time>2018-10-21T12:55:16.000Z</time>
      </trkpt>
      <trkpt lat="49.424854" lon="8.706342">
        <ele>432.933256</ele>
        <time>2018-10-21T12:55:30.000Z</time>
      </trkpt>
      <trkpt lat="49.424637" lon="8.706377">
        <ele>431.476552</ele>
        <time>2018-10-21T12:56:08.000Z</time>
      </trkpt>
      <trkpt lat="49.424540" lon="8.706502">
        <ele>430.631543</ele>
        <time>2018-10-21T12:59:17.000Z</time>
      </trkpt>
      <trkpt lat="49.424576" lon="8.706371">
        <ele>430.013977</ele>
        <time>2018-10-21T12:59:51.000Z</time>
      </trkpt>
      <trkpt lat="49.424522" lon="8.706240">
        <ele>429.340482</ele>
        <time>2018-10-21T13:00:01.000Z</time>
      </trkpt>
      <trkpt lat="49.424550" lon="8.706100">
        <ele>428.704431</ele>
        <time>2018-10-21T13:00:13.000Z</time>
      </trkpt>
      <trkpt lat="49.424610" lon="8.705985">
        <ele>428.064229</ele>
        <time>2018-10-21T13:00:26.000Z</time>
      </trkpt>
      <trkpt lat="49.424650" lon="8.705858">
        <ele>427.451468</ele>
        <time>2018-10-21T13:00:33.000Z</time>
      </trkpt>
      <trkpt lat="49.424725" lon="8.705747">
        <ele>426.756436</ele>
        <time>2018-10-21T13:00:40.000Z</time>
      </trkpt>
      <trkpt lat="49.424800" lon="8.705647">
        <ele>426.360492</ele>
        <time>2018-10-21T13:00:46.000Z</time>
      </trkpt>
      <trkpt lat="49.424862" lon="8.705528">
        <ele>426.533975</ele>
        <time>2018-10-21T13:00:54.000Z</time>
      </trkpt>
      <trkpt lat="49.424950" lon="8.705485">
        <ele>426.695503</ele>
        <time>2018-10-21T13:01:01.000Z</time>
      </trkpt>
      <trkpt lat="49.425014" lon="8.705388">
        <ele>426.852714</ele>
        <time>2018-10-21T13:01:12.000Z</time>
      </trkpt>
      <trkpt lat="49.425034" lon="8.705252">
        <ele>427.011364</ele>
        <time>2018-10-21T13:01:27.000Z</time>
      </trkpt>
      <trkpt lat="49.424995" lon="8.705118">
        <ele>427.178400</ele>
        <time>2018-10-21T13:01:36.000Z</time>
      </trkpt>
      <trkpt lat="49.424904" lon="8.705140">
        <ele>427.339543</ele>
        <time>2018-10-21T13:01:51.000Z</time>
      </trkpt>
      <trkpt lat="49.424816" lon="8.705205">
        <ele>427.510327</ele>
        <time>2018-10-21T13:02:03.000Z</time>
      </trkpt>
      <trkpt lat="49.424740" lon="8.705297">
        <ele>427.679540</ele>
        <time>2018-10-21T13:02:12.000Z</time>
      </trkpt>
      <trkpt lat="49.424650" lon="8.705320">
        <ele>427.839139</ele>
        <time>2018-10-21T13:02:22.000Z</time>
      </trkpt>
      <trkpt lat="49.424560" lon="8.705355">
        <ele>428.001535</ele>
        <time>2018-10-21T13:02:29.000Z</time>
      </trkpt>
      <trkpt lat="49.424465" lon="8.705395">
        <ele>428.173839</ele>
        <time>2018-10-21T13:02:41.000Z</time>
      </trkpt>
      <trkpt lat="49.424397" lon="8.705506">
        <ele>428.347337</ele>
        <time>2018-10-21T13:02:56.000Z</time>
      </trkpt>
      <trkpt lat="49.424305" lon="8.705513">
        <ele>428.508471</ele>
        <time>2018-10-21T13:03:02.000Z</time>
      </trkpt>
      <trkpt lat="49.424210" lon="8.705548">
        <ele>428.679360</ele>
        <time>2018-10-21T13:03:08.000Z</time>
      </trkpt>
      <trkpt lat="49.424118" lon="8.705598">
        <ele>428.850057</ele>
        <time>2018-10-21T13:03:16.000Z</time>
      </trkpt>
      <trkpt lat="49.424020" lon="8.705625">
        <ele>429.024220</ele>
        <time>2018-10-21T13:03:29.000Z</time>
      </trkpt>
      <trkpt lat="49.423927" lon="8.705624">
        <ele>429.186910</ele>
        <time>2018-10-21T13:03:38.000Z</time>
      </trkpt>
      <trkpt lat="49.423836" lon="8.705660">
        <ele>429.351283</ele>
        <time>2018-10-21T13:03:48.000Z</time>
      </trkpt>
      <trkpt lat="49.423748" lon="8.705710">
        <ele>429.177236</ele>
        <time>2018-10-21T13:04:11.000Z</time>
      </trkpt>
      <trkpt lat="49.423650" lon="8.705710">
        <ele>428.441827</ele>
        <time>2018-10-21T13:04:27.000Z</time>
      </trkpt>
      <trkpt lat="49.423576" lon="8.705622">
        <ele>427.739777</ele>
        <time>2018-10-21T13:04:38.000Z</time>
      </trkpt>
      <trkpt lat="49.423500" lon="8.705695">
        <ele>427.067296</ele>
        <time>2018-10-21T13:04:52.000Z</time>
      </trkpt>
      <trkpt lat="49.423405" lon="8.705690">
        <ele>426.353983</ele>
        <time>2018-10-21T13:04:59.000Z</time>
      </trkpt>
      <trkpt lat="49.423300" lon="8.705682">
        <ele>425.565078</ele>
        <time>2018-10-21T13:05:06.000Z</time>
      </trkpt>
      <trkpt lat="49.423195" lon="8.705711">
        <ele>424.764525</ele>
        <time>2018-10-21T13:05:13.000Z</time>
      </trkpt>
      <trkpt lat="49.423090" lon="8.705767">
        <ele>423.930520</ele>
        <time>2018-10-21T13:05:22.000Z</time>
      </trkpt>
      <trkpt lat="49.422990" lon="8.705775">
        <ele>423.179087</ele>
        <time>2018-10-21T13:05:27.000Z</time>
      </trkpt>
      <trkpt lat="49.422894" lon="8.705791">
        <ele>422.454466</ele>
        <time>2018-10-21T13:05:36.000Z</time>
      </trkpt>
      <trkpt lat="49.422800" lon="8.705753">
        <ele>421.725093</ele>
        <time>2018-10-21T13:05:49.000Z</time>
      </trkpt>
      <trkpt lat="49.422653" lon="8.705722">
        <ele>420.611650</ele>
        <time>2018-10-21T13:05:59.000Z</time>
      </trkpt>
      <trkpt lat="49.422565" lon="8.705770">
        <ele>419.910949</ele>
        <time>2018-10-21T13:06:02.000Z</time>
      </trkpt>
      <trkpt lat="49.422470" lon="8.705729">
        <ele>419.170494</ele>
        <time>2018-10-21T13:06:07.000Z</time>
      </trkpt>
      <trkpt lat="49.422386" lon="8.705675">
        <ele>418.487251</ele>
        <time>2018-10-21T13:06:17.000Z</time>
      </trkpt>
      <trkpt lat="49.422180" lon="8.705745">
        <ele>416.904079</ele>
        <time>2018-10-21T13:06:36.000Z</time>
      </trkpt>
      <trkpt lat="49.422085" lon="8.705760">
        <ele>416.187432</ele>
        <time>2018-10-21T13:06:54.000Z</time>
      </trkpt>
      <trkpt lat="49.421980" lon="8.705795">
        <ele>415.023412</ele>
        <time>2018-10-21T13:07:02.000Z</time>
      </trkpt>
      <trkpt lat="49.421886" lon="8.705796">
        <ele>413.877525</ele>
        <time>2018-10-21T13:07:15.000Z</time>
      </trkpt>
      <trkpt lat="49.421800" lon="8.705750">
        <ele>412.767543</ele>
        <time>2018-10-21T13:07:26.000Z</time>
      </trkpt>
      <trkpt lat="49.421707" lon="8.705771">
        <ele>411.621709</ele>
        <time>2018-10-21T13:07:33.000Z</time>
      </trkpt>
      <trkpt lat="49.421597" lon="8.705751">
        <ele>410.271464</ele>
        <time>2018-10-21T13:07:43.000Z</time>
      </trkpt>
      <trkpt lat="49.421505" lon="8.705729">
        <ele>409.136498</ele>
        <time>2018-10-21T13:07:49.000Z</time>
      </trkpt>
      <trkpt lat="49.421406" lon="8.705687">
        <ele>407.884578</ele>
        <time>2018-10-21T13:07:59.000Z</time>
      </trkpt>
      <trkpt lat="49.421314" lon="8.705631">
        <ele>406.678387</ele>
        <time>2018-10-21T13:08:06.000Z</time>
      </trkpt>
      <trkpt lat="49.421223" lon="8.705602">
        <ele>405.545513</ele>
        <time>2018-10-21T13:08:13.000Z</time>
      </trkpt>
      <trkpt lat="49.421140" lon="8.705540">
        <ele>404.420623</ele>
        <time>2018-10-21T13:08:24.000Z</time>
      </trkpt>
      <trkpt lat="49.421055" lon="8.705486">
        <ele>403.299483</ele>
        <time>2018-10-21T13:08:32.000Z</time>
      </trkpt>
      <trkpt lat="49.420956" lon="8.705468">
        <ele>402.084262</ele>
        <time>2018-10-21T13:08:42.000Z</time>
      </trkpt>
      <trkpt lat="49.420870" lon="8.705421">
        <ele>400.971646</ele>
        <time>2018-10-21T13:08:48.000Z</time>
      </trkpt>
      <trkpt lat="49.420780" lon="8.705374">
        <ele>399.812973</ele>
        <time>2018-10-21T13:08:53.000Z</time>
      </trkpt>
      <trkpt lat="49.420700" lon="8.705312">
        <ele>398.720856</ele>
        <time>2018-10-21T13:09:02.000Z</time>
      </trkpt>
      <trkpt lat="49.420624" lon="8.705232">
        <ele>397.598041</ele>
        <time>2018-10-21T13:09:09.000Z</time>
      </trkpt>
      <trkpt lat="49.420525" lon="8.705189">
        <ele>396.343987</ele>
        <time>2018-10-21T13:09:15.000Z</time>
      </trkpt>
      <trkpt lat="49.420444" lon="8.705116">
        <ele>395.199426</ele>
        <time>2018-10-21T13:09:19.000Z</time>
      </trkpt>
      <trkpt lat="49.420353" lon="8.705045">
        <ele>393.916829</ele>
        <time>2018-10-21T13:09:28.000Z</time>
      </trkpt>
      <trkpt lat="49.420260" lon="8.704975">
        <ele>391.989193</ele>
        <time>2018-10-21T13:09:35.000Z</time>
      </trkpt>
      <trkpt lat="49.420170" lon="8.704895">
        <ele>390.053865</ele>
        <time>2018-10-21T13:09:44.000Z</time>
      </trkpt>
      <trkpt lat="49.420090" lon="8.704815">
        <ele>388.277245</ele>
        <time>2018-10-21T13:09:51.000Z</time>
      </trkpt>
      <trkpt lat="49.420040" lon="8.704694">
        <ele>386.541344</ele>
        <time>2018-10-21T13:09:56.000Z</time>
      </trkpt>
      <trkpt lat="49.419964" lon="8.704588">
        <ele>384.631028</ele>
        <time>2018-10-21T13:10:03.000Z</time>
      </trkpt>
      <trkpt lat="49.419903" lon="8.704485">
        <ele>382.944249</ele>
        <time>2018-10-21T13:10:08.000Z</time>
      </trkpt>
      <trkpt lat="49.419926" lon="8.704349">
        <ele>381.242590</ele>
        <time>2018-10-21T13:10:14.000Z</time>
      </trkpt>
      <trkpt lat="49.419880" lon="8.704220">
        <ele>379.461135</ele>
        <time>2018-10-21T13:10:22.000Z</time>
      </trkpt>
      <trkpt lat="49.419815" lon="8.704117">
        <ele>377.723353</ele>
        <time>2018-10-21T13:10:44.000Z</time>
      </trkpt>
      <trkpt lat="49.419678" lon="8.704086">
        <ele>375.145532</ele>
        <time>2018-10-21T13:11:36.000Z</time>
      </trkpt>
      <trkpt lat="49.419582" lon="8.704105">
        <ele>373.343681</ele>
        <time>2018-10-21T13:11:48.000Z</time>
      </trkpt>
      <trkpt lat="49.419520" lon="8.704204">
        <ele>371.679535</ele>
        <time>2018-10-21T13:12:47.000Z</time>
      </trkpt>
      <trkpt lat="49.419610" lon="8.704257">
        <ele>369.885402</ele>
        <time>2018-10-21T13:13:18.000Z</time>
      </trkpt>
      <trkpt lat="49.419580" lon="8.704115">
        <ele>368.077405</ele>
        <time>2018-10-21T13:14:29.000Z</time>
      </trkpt>
      <trkpt lat="49.419380" lon="8.704077">
        <ele>364.325950</ele>
        <time>2018-10-21T13:15:31.000Z</time>
      </trkpt>
      <trkpt lat="49.419445" lon="8.703983">
        <ele>362.664652</ele>
        <time>2018-10-21T13:15:48.000Z</time>
      </trkpt>
      <trkpt lat="49.419560" lon="8.704035">
        <ele>360.549398</ele>
        <time>2018-10-21T13:17:02.000Z</time>
      </trkpt>
      <trkpt lat="49.419560" lon="8.704191">
        <ele>360.609315</ele>
        <time>2018-10-21T13:17:22.000Z</time>
      </trkpt>
      <trkpt lat="49.419483" lon="8.704099">
        <ele>360.666896</ele>
        <time>2018-10-21T13:18:13.000Z</time>
      </trkpt>
      <trkpt lat="49.419502" lon="8.703920">
        <ele>360.736557</ele>
        <time>2018-10-21T13:19:47.000Z</time>
      </trkpt>
      <trkpt lat="49.419468" lon="8.703782">
        <ele>360.793235</ele>
        <time>2018-10-21T13:20:04.000Z</time>
      </trkpt>
      <trkpt lat="49.419400" lon="8.703671">
        <ele>360.851798</ele>
        <time>2018-10-21T13:20:12.000Z</time>
      </trkpt>
      <trkpt lat="49.419350" lon="8.703553">
        <ele>360.905888</ele>
        <time>2018-10-21T13:20:19.000Z</time>
      </trkpt>
      <trkpt lat="49.419310" lon="8.703417">
        <ele>360.963215</ele>
        <time>2018-10-21T13:20:29.000Z</time>
      </trkpt>
      <trkpt lat="49.419323" lon="8.703275">
        <ele>361.018293</ele>
        <time>2018-10-21T13:20:39.000Z</time>
      </trkpt>
      <trkpt lat="49.419360" lon="8.703148">
        <ele>361.071741</ele>
        <time>2018-10-21T13:20:48.000Z</time>
      </trkpt>
      <trkpt lat="49.419395" lon="8.703015">
        <ele>361.126846</ele>
        <time>2018-10-21T13:20:56.000Z</time>
      </trkpt>
      <trkpt lat="49.419450" lon="8.702898">
        <ele>361.182290</ele>
        <time>2018-10-21T13:21:03.000Z</time>
      </trkpt>
      <trkpt lat="49.419510" lon="8.702784">
        <ele>361.238612</ele>
        <time>2018-10-21T13:21:10.000Z</time>
      </trkpt>
      <trkpt lat="49.419590" lon="8.702717">
        <ele>361.292402</ele>
        <time>2018-10-21T13:21:17.000Z</time>
      </trkpt>
      <trkpt lat="49.419680" lon="8.702700">
        <ele>361.345941</ele>
        <time>2018-10-21T13:21:25.000Z</time>
      </trkpt>
      <trkpt lat="49.419780" lon="8.702739">
        <ele>361.406855</ele>
        <time>2018-10-21T13:21:36.000Z</time>
      </trkpt>
      <trkpt lat="49.419872" lon="8.702759">
        <ele>361.461716</ele>
        <time>2018-10-21T13:21:42.000Z</time>
      </trkpt>
      <trkpt lat="49.419937" lon="8.702864">
        <ele>361.517387</ele>
        <time>2018-10-21T13:21:55.000Z</time>
      </trkpt>
      <trkpt lat="49.420017" lon="8.702958">
        <ele>361.576840</ele>
        <time>2018-10-21T13:22:03.000Z</time>
      </trkpt>
      <trkpt lat="49.420105" lon="8.703035">
        <ele>361.145911</ele>
        <time>2018-10-21T13:22:13.000Z</time>
      </trkpt>
      <trkpt lat="49.420193" lon="8.703100">
        <ele>360.221990</ele>
        <time>2018-10-21T13:22:20.000Z</time>
      </trkpt>
      <trkpt lat="49.420254" lon="8.703208">
        <ele>359.341504</ele>
        <time>2018-10-21T13:22:27.000Z</time>
      </trkpt>
      <trkpt lat="49.420334" lon="8.703277">
        <ele>358.473416</ele>
        <time>2018-10-21T13:22:34.000Z</time>
      </trkpt>
      <trkpt lat="49.420414" lon="8.703352">
        <ele>357.586670</ele>
        <time>2018-10-21T13:22:43.000Z</time>
      </trkpt>
      <trkpt lat="49.420490" lon="8.703440">
        <ele>356.686261</ele>
        <time>2018-10-21T13:22:52.000Z</time>
      </trkpt>
      <trkpt lat="49.420567" lon="8.703524">
        <ele>355.792748</ele>
        <time>2018-10-21T13:22:59.000Z</time>
      </trkpt>
      <trkpt lat="49.420586" lon="8.703385">
        <ele>354.918385</ele>
        <time>2018-10-21T13:23:21.000Z</time>
      </trkpt>
      <trkpt lat="49.420624" lon="8.703245">
        <ele>353.984538</ele>
        <time>2018-10-21T13:23:34.000Z</time>
      </trkpt>
      <trkpt lat="49.420560" lon="8.703135">
        <ele>353.076048</ele>
        <time>2018-10-21T13:23:43.000Z</time>
      </trkpt>
      <trkpt lat="49.420506" lon="8.703010">
        <ele>352.152326</ele>
        <time>2018-10-21T13:23:52.000Z</time>
      </trkpt>
      <trkpt lat="49.420470" lon="8.702871">
        <ele>351.231323</ele>
        <time>2018-10-21T13:24:02.000Z</time>
      </trkpt>
      <trkpt lat="49.420430" lon="8.702726">
        <ele>350.261763</ele>
        <time>2018-10-21T13:24:12.000Z</time>
      </trkpt>
      <trkpt lat="49.420410" lon="8.702590">
        <ele>349.403425</ele>
        <time>2018-10-21T13:24:22.000Z</time>
      </trkpt>
      <trkpt lat="49.420370" lon="8.702454">
        <ele>348.484616</ele>
        <time>2018-10-21T13:24:29.000Z</time>
      </trkpt>
      <trkpt lat="49.420338" lon="8.702313">
        <ele>347.565316</ele>
        <time>2018-10-21T13:24:37.000Z</time>
      </trkpt>
      <trkpt lat="49.420290" lon="8.702185">
        <ele>346.655798</ele>
        <time>2018-10-21T13:24:46.000Z</time>
      </trkpt>
      <trkpt lat="49.420254" lon="8.702059">
        <ele>345.808625</ele>
        <time>2018-10-21T13:24:52.000Z</time>
      </trkpt>
      <trkpt lat="49.420208" lon="8.701937">
        <ele>344.940556</ele>
        <time>2018-10-21T13:25:00.000Z</time>
      </trkpt>
      <trkpt lat="49.420162" lon="8.701807">
        <ele>343.794851</ele>
        <time>2018-10-21T13:25:05.000Z</time>
      </trkpt>
      <trkpt lat="49.420105" lon="8.701689">
        <ele>342.508862</ele>
        <time>2018-10-21T13:25:12.000Z</time>
      </trkpt>
      <trkpt lat="49.420060" lon="8.701567">
        <ele>341.281742</ele>
        <time>2018-10-21T13:25:20.000Z</time>
      </trkpt>
      <trkpt lat="49.420010" lon="8.701442">
        <ele>339.997807</ele>
        <time>2018-10-21T13:25:28.000Z</time>
      </trkpt>
      <trkpt lat="49.420000" lon="8.701302">
        <ele>338.765490</ele>
        <time>2018-10-21T13:25:35.000Z</time>
      </trkpt>
      <trkpt lat="49.419960" lon="8.701175">
        <ele>337.530884</ele>
        <time>2018-10-21T13:25:43.000Z</time>
      </trkpt>
      <trkpt lat="49.419926" lon="8.701041">
        <ele>336.272394</ele>
        <time>2018-10-21T13:25:50.000Z</time>
      </trkpt>
      <trkpt lat="49.419870" lon="8.700918">
        <ele>334.958779</ele>
        <time>2018-10-21T13:25:59.000Z</time>
      </trkpt>
      <trkpt lat="49.419820" lon="8.700793">
        <ele>333.674840</ele>
        <time>2018-10-21T13:26:06.000Z</time>
      </trkpt>
      <trkpt lat="49.419754" lon="8.700695">
        <ele>332.440608</ele>
        <time>2018-10-21T13:26:16.000Z</time>
      </trkpt>
      <trkpt lat="49.419685" lon="8.700602">
        <ele>331.206311</ele>
        <time>2018-10-21T13:26:26.000Z</time>
      </trkpt>
      <trkpt lat="49.419590" lon="8.700560">
        <ele>329.876719</ele>
        <time>2018-10-21T13:26:33.000Z</time>
      </trkpt>
      <trkpt lat="49.419487" lon="8.700548">
        <ele>328.487344</ele>
        <time>2018-10-21T13:26:39.000Z</time>
      </trkpt>
      <trkpt lat="49.419390" lon="8.700555">
        <ele>327.181208</ele>
        <time>2018-10-21T13:26:44.000Z</time>
      </trkpt>
      <trkpt lat="49.419285" lon="8.700535">
        <ele>325.758105</ele>
        <time>2018-10-21T13:26:50.000Z</time>
      </trkpt>
      <trkpt lat="49.419193" lon="8.700526">
        <ele>324.518156</ele>
        <time>2018-10-21T13:26:58.000Z</time>
      </trkpt>
      <trkpt lat="49.419098" lon="8.700573">
        <ele>323.175812</ele>
        <time>2018-10-21T13:27:06.000Z</time>
      </trkpt>
      <trkpt lat="49.419003" lon="8.700583">
        <ele>321.895021</ele>
        <time>2018-10-21T13:27:17.000Z</time>
      </trkpt>
      <trkpt lat="49.418907" lon="8.700610">
        <ele>320.582339</ele>
        <time>2018-10-21T13:27:26.000Z</time>
      </trkpt>
      <trkpt lat="49.418808" lon="8.700652">
        <ele>318.942258</ele>
        <time>2018-10-21T13:27:33.000Z</time>
      </trkpt>
      <trkpt lat="49.418713" lon="8.700677">
        <ele>317.364741</ele>
        <time>2018-10-21T13:27:40.000Z</time>
      </trkpt>
      <trkpt lat="49.418617" lon="8.700705">
        <ele>315.765445</ele>
        <time>2018-10-21T13:27:48.000Z</time>
      </trkpt>
      <trkpt lat="49.418526" lon="8.700682">
        <ele>314.256019</ele>
        <time>2018-10-21T13:28:00.000Z</time>
      </trkpt>
      <trkpt lat="49.418423" lon="8.700675">
        <ele>312.568537</ele>
        <time>2018-10-21T13:28:10.000Z</time>
      </trkpt>
      <trkpt lat="49.418324" lon="8.700678">
        <ele>310.947857</ele>
        <time>2018-10-21T13:28:20.000Z</time>
      </trkpt>
      <trkpt lat="49.418220" lon="8.700657">
        <ele>309.231031</ele>
        <time>2018-10-21T13:28:28.000Z</time>
      </trkpt>
      <trkpt lat="49.418125" lon="8.700662">
        <ele>307.675224</ele>
        <time>2018-10-21T13:28:35.000Z</time>
      </trkpt>
      <trkpt lat="49.418026" lon="8.700680">
        <ele>306.043563</ele>
        <time>2018-10-21T13:28:44.000Z</time>
      </trkpt>
      <trkpt lat="49.417927" lon="8.700708">
        <ele>304.395998</ele>
        <time>2018-10-21T13:28:51.000Z</time>
      </trkpt>
      <trkpt lat="49.417828" lon="8.700753">
        <ele>302.706276</ele>
        <time>2018-10-21T13:28:59.000Z</time>
      </trkpt>
      <trkpt lat="49.417730" lon="8.700778">
        <ele>301.080340</ele>
        <time>2018-10-21T13:29:05.000Z</time>
      </trkpt>
      <trkpt lat="49.417630" lon="8.700793">
        <ele>299.435833</ele>
        <time>2018-10-21T13:29:14.000Z</time>
      </trkpt>
      <trkpt lat="49.417740" lon="8.700673">
        <ele>297.228116</ele>
        <time>2018-10-21T13:31:58.000Z</time>
      </trkpt>
      <trkpt lat="49.417810" lon="8.700585">
        <ele>295.748047</ele>
        <time>2018-10-21T13:32:04.000Z</time>
      </trkpt>
      <trkpt lat="49.417767" lon="8.700450">
        <ele>294.147575</ele>
        <time>2018-10-21T13:32:17.000Z</time>
      </trkpt>
      <trkpt lat="49.417770" lon="8.700302">
        <ele>292.570967</ele>
        <time>2018-10-21T13:32:28.000Z</time>
      </trkpt>
      <trkpt lat="49.417755" lon="8.700163">
        <ele>291.070728</ele>
        <time>2018-10-21T13:32:41.000Z</time>
      </trkpt>
      <trkpt lat="49.417760" lon="8.700025">
        <ele>289.943098</ele>
        <time>2018-10-21T13:32:56.000Z</time>
      </trkpt>
      <trkpt lat="49.417843" lon="8.699968">
        <ele>288.832720</ele>
        <time>2018-10-21T13:33:06.000Z</time>
      </trkpt>
      <trkpt lat="49.417930" lon="8.699883">
        <ele>287.573582</ele>
        <time>2018-10-21T13:33:19.000Z</time>
      </trkpt>
      <trkpt lat="49.418003" lon="8.699768">
        <ele>286.296842</ele>
        <time>2018-10-21T13:33:25.000Z</time>
      </trkpt>
      <trkpt lat="49.418076" lon="8.699680">
        <ele>285.163705</ele>
        <time>2018-10-21T13:33:29.000Z</time>
      </trkpt>
      <trkpt lat="49.418163" lon="8.699621">
        <ele>284.002225</ele>
        <time>2018-10-21T13:33:35.000Z</time>
      </trkpt>
      <trkpt lat="49.418240" lon="8.699542">
        <ele>282.871466</ele>
        <time>2018-10-21T13:33:44.000Z</time>
      </trkpt>
      <trkpt lat="49.418324" lon="8.699503">
        <ele>281.799669</ele>
        <time>2018-10-21T13:33:51.000Z</time>
      </trkpt>
      <trkpt lat="49.418390" lon="8.699398">
        <ele>280.639504</ele>
        <time>2018-10-21T13:34:01.000Z</time>
      </trkpt>
      <trkpt lat="49.418453" lon="8.699293">
        <ele>279.504497</ele>
        <time>2018-10-21T13:34:10.000Z</time>
      </trkpt>
      <trkpt lat="49.418537" lon="8.699217">
        <ele>278.313953</ele>
        <time>2018-10-21T13:34:21.000Z</time>
      </trkpt>
      <trkpt lat="49.418570" lon="8.699075">
        <ele>277.115800</ele>
        <time>2018-10-21T13:34:31.000Z</time>
      </trkpt>
      <trkpt lat="49.418625" lon="8.698943">
        <ele>275.870244</ele>
        <time>2018-10-21T13:34:41.000Z</time>
      </trkpt>
      <trkpt lat="49.418694" lon="8.698856">
        <ele>274.780199</ele>
        <time>2018-10-21T13:34:47.000Z</time>
      </trkpt>
      <trkpt lat="49.418747" lon="8.698720">
        <ele>273.520492</ele>
        <time>2018-10-21T13:34:56.000Z</time>
      </trkpt>
      <trkpt lat="49.418780" lon="8.698591">
        <ele>272.419071</ele>
        <time>2018-10-21T13:35:04.000Z</time>
      </trkpt>
      <trkpt lat="49.418870" lon="8.698519">
        <ele>271.179808</ele>
        <time>2018-10-21T13:35:09.000Z</time>
      </trkpt>
      <trkpt lat="49.418950" lon="8.698426">
        <ele>269.954693</ele>
        <time>2018-10-21T13:35:14.000Z</time>
      </trkpt>
      <trkpt lat="49.418960" lon="8.698280">
        <ele>268.805701</ele>
        <time>2018-10-21T13:35:21.000Z</time>
      </trkpt>
      <trkpt lat="49.419010" lon="8.698150">
        <ele>267.712269</ele>
        <time>2018-10-21T13:35:31.000Z</time>
      </trkpt>
      <trkpt lat="49.419100" lon="8.698058">
        <ele>266.509331</ele>
        <time>2018-10-21T13:35:38.000Z</time>
      </trkpt>
      <trkpt lat="49.419178" lon="8.697977">
        <ele>265.461678</ele>
        <time>2018-10-21T13:35:44.000Z</time>
      </trkpt>
      <trkpt lat="49.419235" lon="8.697855">
        <ele>264.374164</ele>
        <time>2018-10-21T13:35:52.000Z</time>
      </trkpt>
      <trkpt lat="49.419320" lon="8.697792">
        <ele>263.323906</ele>
        <time>2018-10-21T13:36:01.000Z</time>
      </trkpt>
      <trkpt lat="49.419420" lon="8.697752">
        <ele>262.173860</ele>
        <time>2018-10-21T13:36:09.000Z</time>
      </trkpt>
      <trkpt lat="49.419323" lon="8.697760">
        <ele>261.092713</ele>
        <time>2018-10-21T13:36:30.000Z</time>
      </trkpt>
      <trkpt lat="49.419230" lon="8.697790">
        <ele>260.035093</ele>
        <time>2018-10-21T13:36:40.000Z</time>
      </trkpt>
      <trkpt lat="49.419150" lon="8.697860">
        <ele>259.010570</ele>
        <time>2018-10-21T13:36:48.000Z</time>
      </trkpt>
      <trkpt lat="49.419064" lon="8.697945">
        <ele>257.872630</ele>
        <time>2018-10-21T13:36:57.000Z</time>
      </trkpt>
      <trkpt lat="49.418995" lon="8.698031">
        <ele>256.883963</ele>
        <time>2018-10-21T13:37:06.000Z</time>
      </trkpt>
      <trkpt lat="49.418907" lon="8.698093">
        <ele>255.806567</ele>
        <time>2018-10-21T13:37:16.000Z</time>
      </trkpt>
      <trkpt lat="49.418865" lon="8.698223">
        <ele>254.755650</ele>
        <time>2018-10-21T13:37:36.000Z</time>
      </trkpt>
      <trkpt lat="49.418770" lon="8.698280">
        <ele>253.620629</ele>
        <time>2018-10-21T13:37:41.000Z</time>
      </trkpt>
      <trkpt lat="49.418667" lon="8.698327">
        <ele>252.424815</ele>
        <time>2018-10-21T13:37:44.000Z</time>
      </trkpt>
      <trkpt lat="49.418580" lon="8.698375">
        <ele>251.396040</ele>
        <time>2018-10-21T13:37:50.000Z</time>
      </trkpt>
      <trkpt lat="49.418480" lon="8.698413">
        <ele>250.249554</ele>
        <time>2018-10-21T13:37:55.000Z</time>
      </trkpt>
      <trkpt lat="49.418385" lon="8.698442">
        <ele>249.171573</ele>
        <time>2018-10-21T13:38:00.000Z</time>
      </trkpt>
      <trkpt lat="49.418297" lon="8.698426">
        <ele>248.958393</ele>
        <time>2018-10-21T13:38:11.000Z</time>
      </trkpt>
      <trkpt lat="49.418200" lon="8.698401">
        <ele>248.946663</ele>
        <time>2018-10-21T13:38:17.000Z</time>
      </trkpt>
      <trkpt lat="49.418100" lon="8.698375">
        <ele>248.934567</ele>
        <time>2018-10-21T13:38:24.000Z</time>
      </trkpt>
      <trkpt lat="49.418000" lon="8.698315">
        <ele>248.921765</ele>
        <time>2018-10-21T13:38:33.000Z</time>
      </trkpt>
      <trkpt lat="49.417908" lon="8.698297">
        <ele>248.910704</ele>
        <time>2018-10-21T13:38:42.000Z</time>
      </trkpt>
      <trkpt lat="49.417816" lon="8.698297">
        <ele>248.899732</ele>
        <time>2018-10-21T13:38:49.000Z</time>
      </trkpt>
      <trkpt lat="49.417720" lon="8.698320">
        <ele>248.888145</ele>
        <time>2018-10-21T13:38:57.000Z</time>
      </trkpt>
      <trkpt lat="49.417633" lon="8.698368">
        <ele>248.877121</ele>
        <time>2018-10-21T13:39:03.000Z</time>
      </trkpt>
      <trkpt lat="49.417540" lon="8.698401">
        <ele>248.865738</ele>
        <time>2018-10-21T13:39:16.000Z</time>
      </trkpt>
      <trkpt lat="49.417500" lon="8.698526">
        <ele>248.854930</ele>
        <time>2018-10-21T13:39:25.000Z</time>
      </trkpt>
      <trkpt lat="49.417440" lon="8.698631">
        <ele>248.844087</ele>
        <time>2018-10-21T13:39:32.000Z</time>
      </trkpt>
      <trkpt lat="49.417370" lon="8.698751">
        <ele>248.831582</ele>
        <time>2018-10-21T13:39:40.000Z</time>
      </trkpt>
      <trkpt lat="49.417305" lon="8.698863">
        <ele>248.819937</ele>
        <time>2018-10-21T13:39:46.000Z</time>
      </trkpt>
      <trkpt lat="49.417248" lon="8.698972">
        <ele>248.809087</ele>
        <time>2018-10-21T13:39:53.000Z</time>
      </trkpt>
      <trkpt lat="49.417168" lon="8.699047">
        <ele>248.797911</ele>
        <time>2018-10-21T13:40:03.000Z</time>
      </trkpt>
      <trkpt lat="49.417080" lon="8.699106">
        <ele>248.786461</ele>
        <time>2018-10-21T13:40:13.000Z</time>
      </trkpt>
      <trkpt lat="49.417000" lon="8.699185">
        <ele>248.775121</ele>
        <time>2018-10-21T13:40:23.000Z</time>
      </trkpt>
      <trkpt lat="49.416935" lon="8.699286">
        <ele>248.764098</ele>
        <time>2018-10-21T13:40:31.000Z</time>
      </trkpt>
      <trkpt lat="49.416920" lon="8.699440">
        <ele>248.728088</ele>
        <time>2018-10-21T13:40:39.000Z</time>
      </trkpt>
      <trkpt lat="49.416855" lon="8.699545">
        <ele>247.592109</ele>
        <time>2018-10-21T13:40:46.000Z</time>
      </trkpt>
      <trkpt lat="49.416885" lon="8.699690">
        <ele>246.399584</ele>
        <time>2018-10-21T13:40:52.000Z</time>
      </trkpt>
      <trkpt lat="49.416817" lon="8.699788">
        <ele>245.276609</ele>
        <time>2018-10-21T13:40:55.000Z</time>
      </trkpt>
      <trkpt lat="49.416756" lon="8.699902">
        <ele>244.119729</ele>
        <time>2018-10-21T13:41:00.000Z</time>
      </trkpt>
      <trkpt lat="49.416710" lon="8.700033">
        <ele>242.952997</ele>
        <time>2018-10-21T13:41:10.000Z</time>
      </trkpt>
      <trkpt lat="49.416680" lon="8.700176">
        <ele>241.775397</ele>
        <time>2018-10-21T13:41:17.000Z</time>
      </trkpt>
      <trkpt lat="49.416600" lon="8.700256">
        <ele>240.625597</ele>
        <time>2018-10-21T13:41:27.000Z</time>
      </trkpt>
      <trkpt lat="49.416500" lon="8.700212">
        <ele>239.372465</ele>
        <time>2018-10-21T13:41:40.000Z</time>
      </trkpt>
      <trkpt lat="49.416416" lon="8.700153">
        <ele>238.259834</ele>
        <time>2018-10-21T13:41:50.000Z</time>
      </trkpt>
      <trkpt lat="49.416330" lon="8.700137">
        <ele>237.216190</ele>
        <time>2018-10-21T13:41:56.000Z</time>
      </trkpt>
      <trkpt lat="49.416240" lon="8.700089">
        <ele>236.068506</ele>
        <time>2018-10-21T13:42:07.000Z</time>
      </trkpt>
      <trkpt lat="49.416195" lon="8.699952">
        <ele>234.865654</ele>
        <time>2018-10-21T13:42:20.000Z</time>
      </trkpt>
      <trkpt lat="49.416140" lon="8.699842">
        <ele>233.778303</ele>
        <time>2018-10-21T13:42:53.000Z</time>
      </trkpt>
      <trkpt lat="49.416054" lon="8.699793">
        <ele>232.673334</ele>
        <time>2018-10-21T13:43:01.000Z</time>
      </trkpt>
      <trkpt lat="49.415966" lon="8.699743">
        <ele>231.543047</ele>
        <time>2018-10-21T13:43:10.000Z</time>
      </trkpt>
      <trkpt lat="49.415880" lon="8.699757">
        <ele>230.501170</ele>
        <time>2018-10-21T13:43:17.000Z</time>
      </trkpt>
      <trkpt lat="49.415787" lon="8.699785">
        <ele>229.359464</ele>
        <time>2018-10-21T13:43:27.000Z</time>
      </trkpt>
      <trkpt lat="49.415720" lon="8.699899">
        <ele>228.155357</ele>
        <time>2018-10-21T13:43:39.000Z</time>
      </trkpt>
      <trkpt lat="49.415640" lon="8.700002">
        <ele>226.741078</ele>
        <time>2018-10-21T13:44:05.000Z</time>
      </trkpt>
      <trkpt lat="49.415590" lon="8.700113">
        <ele>224.784618</ele>
        <time>2018-10-21T13:44:21.000Z</time>
      </trkpt>
      <trkpt lat="49.415530" lon="8.700222">
        <ele>222.715531</ele>
        <time>2018-10-21T13:44:45.000Z</time>
      </trkpt>
      <trkpt lat="49.415580" lon="8.700372">
        <ele>220.273139</ele>
        <time>2018-10-21T13:45:20.000Z</time>
      </trkpt>
      <trkpt lat="49.415550" lon="8.700508">
        <ele>218.192130</ele>
        <time>2018-10-21T13:45:31.000Z</time>
      </trkpt>
      <trkpt lat="49.415504" lon="8.700633">
        <ele>216.111015</ele>
        <time>2018-10-21T13:45:41.000Z</time>
      </trkpt>
      <trkpt lat="49.415527" lon="8.700778">
        <ele>213.948237</ele>
        <time>2018-10-21T13:45:50.000Z</time>
      </trkpt>
      <trkpt lat="49.415560" lon="8.700915">
        <ele>211.831233</ele>
        <time>2018-10-21T13:46:00.000Z</time>
      </trkpt>
      <trkpt lat="49.415580" lon="8.701067">
        <ele>209.583974</ele>
        <time>2018-10-21T13:46:07.000Z</time>
      </trkpt>
      <trkpt lat="49.415600" lon="8.701205">
        <ele>207.535172</ele>
        <time>2018-10-21T13:46:16.000Z</time>
      </trkpt>
      <trkpt lat="49.415623" lon="8.701352">
        <ele>205.344229</ele>
        <time>2018-10-21T13:46:24.000Z</time>
      </trkpt>
      <trkpt lat="49.415627" lon="8.701504">
        <ele>203.139771</ele>
        <time>2018-10-21T13:46:33.000Z</time>
      </trkpt>
      <trkpt lat="49.415540" lon="8.701567">
        <ele>200.997598</ele>
        <time>2018-10-21T13:47:14.000Z</time>
      </trkpt>
      <trkpt lat="49.415405" lon="8.701505">
        <ele>197.859167</ele>
        <time>2018-10-21T13:48:03.000Z</time>
      </trkpt>
      <trkpt lat="49.415382" lon="8.701366">
        <ele>195.780755</ele>
        <time>2018-10-21T13:48:18.000Z</time>
      </trkpt>
      <trkpt lat="49.415325" lon="8.701255">
        <ele>193.731514</ele>
        <time>2018-10-21T13:48:30.000Z</time>
      </trkpt>
      <trkpt lat="49.415240" lon="8.701199">
        <ele>191.671585</ele>
        <time>2018-10-21T13:48:40.000Z</time>
      </trkpt>
      <trkpt lat="49.415230" lon="8.701043">
        <ele>189.399998</ele>
        <time>2018-10-21T13:48:58.000Z</time>
      </trkpt>
      <trkpt lat="49.415207" lon="8.700902">
        <ele>187.293478</ele>
        <time>2018-10-21T13:49:07.000Z</time>
      </trkpt>
      <trkpt lat="49.415220" lon="8.700762">
        <ele>186.391924</ele>
        <time>2018-10-21T13:49:18.000Z</time>
      </trkpt>
      <trkpt lat="49.415184" lon="8.700630">
        <ele>185.659133</ele>
        <time>2018-10-21T13:49:33.000Z</time>
      </trkpt>
      <trkpt lat="49.415165" lon="8.700475">
        <ele>184.851603</ele>
        <time>2018-10-21T13:49:43.000Z</time>
      </trkpt>
      <trkpt lat="49.415190" lon="8.700336">
        <ele>184.113259</ele>
        <time>2018-10-21T13:49:50.000Z</time>
      </trkpt>
      <trkpt lat="49.415200" lon="8.700189">
        <ele>183.356548</ele>
        <time>2018-10-21T13:50:00.000Z</time>
      </trkpt>
      <trkpt lat="49.415108" lon="8.700135">
        <ele>182.581551</ele>
        <time>2018-10-21T13:50:07.000Z</time>
      </trkpt>
      <trkpt lat="49.415024" lon="8.700065">
        <ele>181.829601</ele>
        <time>2018-10-21T13:50:13.000Z</time>
      </trkpt>
      <trkpt lat="49.414936" lon="8.700002">
        <ele>181.065642</ele>
        <time>2018-10-21T13:50:20.000Z</time>
      </trkpt>
      <trkpt lat="49.414852" lon="8.699939">
        <ele>180.330098</ele>
        <time>2018-10-21T13:50:28.000Z</time>
      </trkpt>
      <trkpt lat="49.414800" lon="8.699819">
        <ele>179.591910</ele>
        <time>2018-10-21T13:50:41.000Z</time>
      </trkpt>
      <trkpt lat="49.414825" lon="8.699677">
        <ele>178.838745</ele>
        <time>2018-10-21T13:50:49.000Z</time>
      </trkpt>
      <trkpt lat="49.414810" lon="8.699536">
        <ele>178.107263</ele>
        <time>2018-10-21T13:50:56.000Z</time>
      </trkpt>
      <trkpt lat="49.414820" lon="8.699391">
        <ele>177.360730</ele>
        <time>2018-10-21T13:51:03.000Z</time>
      </trkpt>
      <trkpt lat="49.414833" lon="8.699246">
        <ele>176.611340</ele>
        <time>2018-10-21T13:51:10.000Z</time>
      </trkpt>
      <trkpt lat="49.414830" lon="8.699085">
        <ele>175.786712</ele>
        <time>2018-10-21T13:51:18.000Z</time>
      </trkpt>
      <trkpt lat="49.414806" lon="8.698940">
        <ele>175.020689</ele>
        <time>2018-10-21T13:51:27.000Z</time>
      </trkpt>
      <trkpt lat="49.414803" lon="8.698787">
        <ele>174.237001</ele>
        <time>2018-10-21T13:51:35.000Z</time>
      </trkpt>
      <trkpt lat="49.414840" lon="8.698660">
        <ele>173.524564</ele>
        <time>2018-10-21T13:51:42.000Z</time>
      </trkpt>
      <trkpt lat="49.414856" lon="8.698519">
        <ele>172.780876</ele>
        <time>2018-10-21T13:51:50.000Z</time>
      </trkpt>
      <trkpt lat="49.414856" lon="8.698372">
        <ele>171.915186</ele>
        <time>2018-10-21T13:51:58.000Z</time>
      </trkpt>
      <trkpt lat="49.414890" lon="8.698232">
        <ele>171.035148</ele>
        <time>2018-10-21T13:52:06.000Z</time>
      </trkpt>
      <trkpt lat="49.414890" lon="8.698082">
        <ele>170.151792</ele>
        <time>2018-10-21T13:52:15.000Z</time>
      </trkpt>
      <trkpt lat="49.414930" lon="8.697951">
        <ele>169.299583</ele>
        <time>2018-10-21T13:52:23.000Z</time>
      </trkpt>
      <trkpt lat="49.414875" lon="8.697833">
        <ele>168.444737</ele>
        <time>2018-10-21T13:52:30.000Z</time>
      </trkpt>
      <trkpt lat="49.414850" lon="8.697697">
        <ele>167.612469</ele>
        <time>2018-10-21T13:52:37.000Z</time>
      </trkpt>
      <trkpt lat="49.414860" lon="8.697547">
        <ele>166.724486</ele>
        <time>2018-10-21T13:52:45.000Z</time>
      </trkpt>
      <trkpt lat="49.414898" lon="8.697418">
        <ele>165.890553</ele>
        <time>2018-10-21T13:52:54.000Z</time>
      </trkpt>
      <trkpt lat="49.414917" lon="8.697282">
        <ele>165.071385</ele>
        <time>2018-10-21T13:53:00.000Z</time>
      </trkpt>
      <trkpt lat="49.414960" lon="8.697152">
        <ele>164.212543</ele>
        <time>2018-10-21T13:53:06.000Z</time>
      </trkpt>
      <trkpt lat="49.414955" lon="8.696992">
        <ele>163.269211</ele>
        <time>2018-10-21T13:53:13.000Z</time>
      </trkpt>
      <trkpt lat="49.414970" lon="8.696838">
        <ele>162.352192</ele>
        <time>2018-10-21T13:53:20.000Z</time>
      </trkpt>
      <trkpt lat="49.414948" lon="8.696693">
        <ele>161.475367</ele>
        <time>2018-10-21T13:53:28.000Z</time>
      </trkpt>
      <trkpt lat="49.415024" lon="8.696582">
        <ele>160.526377</ele>
        <time>2018-10-21T13:53:37.000Z</time>
      </trkpt>
      <trkpt lat="49.415050" lon="8.696444">
        <ele>159.680299</ele>
        <time>2018-10-21T13:53:52.000Z</time>
      </trkpt>
      <trkpt lat="49.415160" lon="8.696393">
        <ele>158.640265</ele>
        <time>2018-10-21T13:53:57.000Z</time>
      </trkpt>
      <trkpt lat="49.415207" lon="8.696270">
        <ele>157.800215</ele>
        <time>2018-10-21T13:54:04.000Z</time>
      </trkpt>
      <trkpt lat="49.415264" lon="8.696161">
        <ele>156.976651</ele>
        <time>2018-10-21T13:54:09.000Z</time>
      </trkpt>
      <trkpt lat="49.415302" lon="8.696034">
        <ele>156.048830</ele>
        <time>2018-10-21T13:54:16.000Z</time>
      </trkpt>
      <trkpt lat="49.415300" lon="8.695885">
        <ele>154.957410</ele>
        <time>2018-10-21T13:54:24.000Z</time>
      </trkpt>
      <trkpt lat="49.415257" lon="8.695751">
        <ele>153.863188</ele>
        <time>2018-10-21T13:54:32.000Z</time>
      </trkpt>
      <trkpt lat="49.415240" lon="8.695597">
        <ele>152.719262</ele>
        <time>2018-10-21T13:54:45.000Z</time>
      </trkpt>
      <trkpt lat="49.415222" lon="8.695458">
        <ele>151.681337</ele>
        <time>2018-10-21T13:54:56.000Z</time>
      </trkpt>
      <trkpt lat="49.415157" lon="8.695363">
        <ele>150.671676</ele>
        <time>2018-10-21T13:55:12.000Z</time>
      </trkpt>
      <trkpt lat="49.415100" lon="8.695251">
        <ele>149.630296</ele>
        <time>2018-10-21T13:55:19.000Z</time>
      </trkpt>
      <trkpt lat="49.415047" lon="8.695133">
        <ele>148.580185</ele>
        <time>2018-10-21T13:55:26.000Z</time>
      </trkpt>
      <trkpt lat="49.414963" lon="8.695066">
        <ele>147.514880</ele>
        <time>2018-10-21T13:55:31.000Z</time>
      </trkpt>
      <trkpt lat="49.414894" lon="8.694965">
        <ele>146.442307</ele>
        <time>2018-10-21T13:55:35.000Z</time>
      </trkpt>
      <trkpt lat="49.414870" lon="8.694817">
        <ele>145.325270</ele>
        <time>2018-10-21T13:55:47.000Z</time>
      </trkpt>
      <trkpt lat="49.414886" lon="8.694680">
        <ele>144.305917</ele>
        <time>2018-10-21T13:55:56.000Z</time>
      </trkpt>
      <trkpt lat="49.414818" lon="8.694576">
        <ele>143.226084</ele>
        <time>2018-10-21T13:56:09.000Z</time>
      </trkpt>
      <trkpt lat="49.414790" lon="8.694430">
        <ele>142.111366</ele>
        <time>2018-10-21T13:56:18.000Z</time>
      </trkpt>
      <trkpt lat="49.414740" lon="8.694299">
        <ele>140.999073</ele>
        <time>2018-10-21T13:56:30.000Z</time>
      </trkpt>
      <trkpt lat="49.414760" lon="8.694161">
        <ele>139.963658</ele>
        <time>2018-10-21T13:56:45.000Z</time>
      </trkpt>
      <trkpt lat="49.414760" lon="8.694018">
        <ele>138.916400</ele>
        <time>2018-10-21T13:57:00.000Z</time>
      </trkpt>
      <trkpt lat="49.414722" lon="8.693892">
        <ele>137.899313</ele>
        <time>2018-10-21T13:57:07.000Z</time>
      </trkpt>
      <trkpt lat="49.414780" lon="8.693784">
        <ele>136.873712</ele>
        <time>2018-10-21T13:57:14.000Z</time>
      </trkpt>
      <trkpt lat="49.414790" lon="8.693640">
        <ele>136.335795</ele>
        <time>2018-10-21T13:57:26.000Z</time>
      </trkpt>
      <trkpt lat="49.414720" lon="8.693540">
        <ele>136.335795</ele>
        <time>2018-10-21T13:57:33.000Z</time>
      </trkpt>
      <trkpt lat="49.414680" lon="8.693407">
        <ele>136.335795</ele>
        <time>2018-10-21T13:57:41.000Z</time>
      </trkpt>
      <trkpt lat="49.414757" lon="8.693323">
        <ele>136.335795</ele>
        <time>2018-10-21T13:57:50.000Z</time>
      </trkpt>
      <trkpt lat="49.414870" lon="8.693175">
        <ele>136.335795</ele>
        <time>2018-10-21T13:58:07.000Z</time>
      </trkpt>
      <trkpt lat="49.414837" lon="8.693011">
        <ele>136.335795</ele>
        <time>2018-10-21T13:58:13.000Z</time>
      </trkpt>
      <trkpt lat="49.414820" lon="8.692870">
        <ele>136.335795</ele>
        <time>2018-10-21T13:58:17.000Z</time>
      </trkpt>
      <trkpt lat="49.414864" lon="8.692727">
        <ele>136.335795</ele>
        <time>2018-10-21T13:58:21.000Z</time>
      </trkpt>
      <trkpt lat="49.414818" lon="8.692601">
        <ele>136.335795</ele>
        <time>2018-10-21T13:58:27.000Z</time>
      </trkpt>
      <trkpt lat="49.414745" lon="8.692490">
        <ele>136.335795</ele>
        <time>2018-10-21T13:58:33.000Z</time>
      </trkpt>
      <trkpt lat="49.414677" lon="8.692364">
        <ele>136.335795</ele>
        <time>2018-10-21T13:58:47.000Z</time>
      </trkpt>
      <trkpt lat="49.414646" lon="8.692232">
        <ele>136.335795</ele>
        <time>2018-10-21T13:58:54.000Z</time>
      </trkpt>
      <trkpt lat="49.414734" lon="8.692182">
        <ele>136.335795</ele>
        <time>2018-10-21T13:59:33.000Z</time>
      </trkpt>
      <trkpt lat="49.414710" lon="8.692020">
        <ele>136.335795</ele>
        <time>2018-10-21T13:59:39.000Z</time>
      </trkpt>
      <trkpt lat="49.414800" lon="8.692052">
        <ele>136.335795</ele>
        <time>2018-10-21T13:59:53.000Z</time>
      </trkpt>
      <trkpt lat="49.414906" lon="8.692085">
        <ele>136.335795</ele>
        <time>2018-10-21T14:00:00.000Z</time>
      </trkpt>
      <trkpt lat="49.414990" lon="8.692137">
        <ele>136.335795</ele>
        <time>2018-10-21T14:00:14.000Z</time>
      </trkpt>
    </trkseg>
  </trk>
</gpx>